<?xml version='1.0' encoding='UTF-8'?><gpx version="1.1" creator="JPX - https://github.com/jenetics/jpx" xmlns="http://www.topografix.com/GPX/1/1"><trk><trkseg><trkpt lat="39.9233898" lon="9.6643294"><ele>13.0</ele><time>2026-04-19T07:59:14.306Z</time></trkpt><trkpt lat="39.923463" lon="9.6643919"><ele>13.0</ele><time>2026-04-19T07:59:23.306Z</time></trkpt><trkpt lat="39.9234346" lon="9.6644667"><ele>12.0</ele><time>2026-04-19T07:59:55.433Z</time></trkpt><trkpt lat="39.9233866" lon="9.6645217"><ele>12.0</ele><time>2026-04-19T08:00:04.417Z</time></trkpt><trkpt lat="39.9233231" lon="9.664519"><ele>12.0</ele><time>2026-04-19T08:00:13.303Z</time></trkpt><trkpt lat="39.9233048" lon="9.6644316"><ele>13.0</ele><time>2026-04-19T08:00:34.301Z</time></trkpt><trkpt lat="39.923263" lon="9.6643387"><ele>13.0</ele><time>2026-04-19T08:03:26.308Z</time></trkpt></trkseg><trkseg><trkpt lat="39.9232703" lon="9.6643932"><ele>12.857142857142856</ele><time>2026-04-19T08:26:35.308Z</time></trkpt><trkpt lat="39.9232533" lon="9.6644757"><ele>12.714285714285715</ele><time>2026-04-19T08:27:47.305Z</time></trkpt><trkpt lat="39.923201" lon="9.6645427"><ele>12.571428571428571</ele><time>2026-04-19T08:27:49.308Z</time></trkpt><trkpt lat="39.9231326" lon="9.6645492"><ele>12.428571428571427</ele><time>2026-04-19T08:27:53.309Z</time></trkpt><trkpt lat="39.9230564" lon="9.6645274"><ele>12.285714285714285</ele><time>2026-04-19T08:27:57.31Z</time></trkpt><trkpt lat="39.9229888" lon="9.6644927"><ele>12.142857142857142</ele><time>2026-04-19T08:28:00.31Z</time></trkpt><trkpt lat="39.9229107" lon="9.6644579"><ele>12.0</ele><time>2026-04-19T08:28:03.308Z</time></trkpt><trkpt lat="39.9228284" lon="9.6644669"><ele>12.0</ele><time>2026-04-19T08:28:06.31Z</time></trkpt><trkpt lat="39.9227537" lon="9.6645047"><ele>12.0</ele><time>2026-04-19T08:28:09.309Z</time></trkpt><trkpt lat="39.9226744" lon="9.6645096"><ele>12.0</ele><time>2026-04-19T08:28:12.309Z</time></trkpt><trkpt lat="39.9226007" lon="9.6644752"><ele>12.0</ele><time>2026-04-19T08:28:15.309Z</time></trkpt><trkpt lat="39.9225367" lon="9.6644478"><ele>12.0</ele><time>2026-04-19T08:28:39.31Z</time></trkpt><trkpt lat="39.9225451" lon="9.6643491"><ele>12.0</ele><time>2026-04-19T08:29:12.417Z</time></trkpt><trkpt lat="39.9225787" lon="9.6642044"><ele>12.166666666666666</ele><time>2026-04-19T08:29:13.864Z</time></trkpt><trkpt lat="39.9226239" lon="9.6640998"><ele>12.333333333333332</ele><time>2026-04-19T08:29:16.309Z</time></trkpt><trkpt lat="39.9226479" lon="9.6640211"><ele>12.5</ele><time>2026-04-19T08:29:18.409Z</time></trkpt><trkpt lat="39.9226661" lon="9.6639203"><ele>12.666666666666666</ele><time>2026-04-19T08:29:30.31Z</time></trkpt><trkpt lat="39.9226935" lon="9.6638323"><ele>12.833333333333332</ele><time>2026-04-19T08:29:33.309Z</time></trkpt><trkpt lat="39.9227244" lon="9.6637427"><ele>13.0</ele><time>2026-04-19T08:29:36.308Z</time></trkpt><trkpt lat="39.9227465" lon="9.6636467"><ele>12.999999999999998</ele><time>2026-04-19T08:29:39.309Z</time></trkpt><trkpt lat="39.9227507" lon="9.663553"><ele>13.0</ele><time>2026-04-19T08:29:42.31Z</time></trkpt><trkpt lat="39.9227813" lon="9.6634568"><ele>13.0</ele><time>2026-04-19T08:29:45.309Z</time></trkpt><trkpt lat="39.9228229" lon="9.663363"><ele>13.0</ele><time>2026-04-19T08:29:48.309Z</time></trkpt><trkpt lat="39.9228708" lon="9.6632676"><ele>12.999999999999998</ele><time>2026-04-19T08:29:51.308Z</time></trkpt><trkpt lat="39.9229175" lon="9.6632096"><ele>13.0</ele><time>2026-04-19T08:29:53.31Z</time></trkpt><trkpt lat="39.9229736" lon="9.6631275"><ele>12.999999999999998</ele><time>2026-04-19T08:29:56.309Z</time></trkpt><trkpt lat="39.9230001" lon="9.6630484"><ele>13.0</ele><time>2026-04-19T08:29:58.31Z</time></trkpt><trkpt lat="39.9230268" lon="9.6629621"><ele>13.0</ele><time>2026-04-19T08:30:00.31Z</time></trkpt><trkpt lat="39.9230577" lon="9.6628747"><ele>13.0</ele><time>2026-04-19T08:30:02.309Z</time></trkpt><trkpt lat="39.9230947" lon="9.6627893"><ele>12.999999999999998</ele><time>2026-04-19T08:30:04.31Z</time></trkpt><trkpt lat="39.9231278" lon="9.6626993"><ele>13.0</ele><time>2026-04-19T08:30:06.31Z</time></trkpt><trkpt lat="39.9231547" lon="9.662587"><ele>13.166666666666666</ele><time>2026-04-19T08:30:09.309Z</time></trkpt><trkpt lat="39.9231908" lon="9.6624998"><ele>13.333333333333332</ele><time>2026-04-19T08:30:12.309Z</time></trkpt><trkpt lat="39.923224" lon="9.6624298"><ele>13.5</ele><time>2026-04-19T08:30:15.31Z</time></trkpt><trkpt lat="39.9232602" lon="9.6623366"><ele>13.666666666666668</ele><time>2026-04-19T08:30:18.309Z</time></trkpt><trkpt lat="39.9232976" lon="9.6622275"><ele>13.833333333333334</ele><time>2026-04-19T08:30:21.309Z</time></trkpt><trkpt lat="39.923333" lon="9.662127"><ele>14.0</ele><time>2026-04-19T08:30:24.31Z</time></trkpt><trkpt lat="39.9233639" lon="9.6620433"><ele>14.000000000000002</ele><time>2026-04-19T08:30:27.31Z</time></trkpt><trkpt lat="39.9234009" lon="9.66194"><ele>14.0</ele><time>2026-04-19T08:30:30.31Z</time></trkpt><trkpt lat="39.9234381" lon="9.6618337"><ele>14.0</ele><time>2026-04-19T08:30:33.309Z</time></trkpt><trkpt lat="39.9234781" lon="9.6617266"><ele>14.0</ele><time>2026-04-19T08:30:36.309Z</time></trkpt><trkpt lat="39.9235085" lon="9.6616525"><ele>14.000000000000002</ele><time>2026-04-19T08:30:38.309Z</time></trkpt><trkpt lat="39.9235481" lon="9.6615477"><ele>14.0</ele><time>2026-04-19T08:30:41.309Z</time></trkpt><trkpt lat="39.9235776" lon="9.6614729"><ele>14.000000000000002</ele><time>2026-04-19T08:30:43.309Z</time></trkpt><trkpt lat="39.9236127" lon="9.6614004"><ele>14.0</ele><time>2026-04-19T08:30:45.309Z</time></trkpt><trkpt lat="39.9236357" lon="9.6613035"><ele>14.0</ele><time>2026-04-19T08:30:48.309Z</time></trkpt><trkpt lat="39.9235578" lon="9.6612442"><ele>14.0</ele><time>2026-04-19T08:30:51.31Z</time></trkpt><trkpt lat="39.9234932" lon="9.6612218"><ele>14.000000000000002</ele><time>2026-04-19T08:30:53.309Z</time></trkpt><trkpt lat="39.9234176" lon="9.6611878"><ele>14.0</ele><time>2026-04-19T08:30:56.31Z</time></trkpt><trkpt lat="39.9233434" lon="9.6611635"><ele>14.000000000000002</ele><time>2026-04-19T08:31:00.309Z</time></trkpt><trkpt lat="39.9232735" lon="9.6611868"><ele>14.0</ele><time>2026-04-19T08:31:03.31Z</time></trkpt><trkpt lat="39.9231877" lon="9.661195"><ele>14.0</ele><time>2026-04-19T08:31:06.309Z</time></trkpt><trkpt lat="39.9231036" lon="9.6612551"><ele>14.0</ele><time>2026-04-19T08:31:09.309Z</time></trkpt><trkpt lat="39.9230547" lon="9.6613283"><ele>14.000000000000002</ele><time>2026-04-19T08:31:11.309Z</time></trkpt><trkpt lat="39.9230006" lon="9.6613981"><ele>14.0</ele><time>2026-04-19T08:31:13.309Z</time></trkpt><trkpt lat="39.9229414" lon="9.6614646"><ele>14.000000000000002</ele><time>2026-04-19T08:31:15.309Z</time></trkpt><trkpt lat="39.9228869" lon="9.6615216"><ele>14.0</ele><time>2026-04-19T08:31:17.309Z</time></trkpt><trkpt lat="39.9228084" lon="9.6615835"><ele>14.0</ele><time>2026-04-19T08:31:20.31Z</time></trkpt><trkpt lat="39.9227565" lon="9.6616473"><ele>14.0</ele><time>2026-04-19T08:31:22.309Z</time></trkpt><trkpt lat="39.9226995" lon="9.6617251"><ele>14.000000000000002</ele><time>2026-04-19T08:31:24.309Z</time></trkpt><trkpt lat="39.9226391" lon="9.6618224"><ele>14.0</ele><time>2026-04-19T08:31:26.309Z</time></trkpt><trkpt lat="39.9225695" lon="9.6619182"><ele>13.833333333333334</ele><time>2026-04-19T08:31:28.309Z</time></trkpt><trkpt lat="39.9225004" lon="9.6620097"><ele>13.666666666666668</ele><time>2026-04-19T08:31:30.309Z</time></trkpt><trkpt lat="39.9224463" lon="9.6620734"><ele>13.5</ele><time>2026-04-19T08:31:32.309Z</time></trkpt><trkpt lat="39.9223889" lon="9.6621447"><ele>13.333333333333332</ele><time>2026-04-19T08:31:35.31Z</time></trkpt><trkpt lat="39.9223269" lon="9.6621847"><ele>13.166666666666666</ele><time>2026-04-19T08:31:38.309Z</time></trkpt><trkpt lat="39.922265" lon="9.6621424"><ele>13.0</ele><time>2026-04-19T08:31:42.309Z</time></trkpt><trkpt lat="39.9222104" lon="9.6620993"><ele>13.0</ele><time>2026-04-19T08:31:46.31Z</time></trkpt><trkpt lat="39.9221541" lon="9.6620583"><ele>13.0</ele><time>2026-04-19T08:31:50.309Z</time></trkpt><trkpt lat="39.9221016" lon="9.6620113"><ele>13.0</ele><time>2026-04-19T08:31:54.31Z</time></trkpt><trkpt lat="39.9220429" lon="9.6619724"><ele>13.0</ele><time>2026-04-19T08:31:58.309Z</time></trkpt><trkpt lat="39.9220032" lon="9.6619003"><ele>13.0</ele><time>2026-04-19T08:32:01.31Z</time></trkpt><trkpt lat="39.9219553" lon="9.6618372"><ele>13.0</ele><time>2026-04-19T08:32:04.309Z</time></trkpt><trkpt lat="39.9219051" lon="9.661761"><ele>13.0</ele><time>2026-04-19T08:32:07.309Z</time></trkpt><trkpt lat="39.9218594" lon="9.66169"><ele>13.0</ele><time>2026-04-19T08:32:10.309Z</time></trkpt><trkpt lat="39.9218146" lon="9.6616154"><ele>13.0</ele><time>2026-04-19T08:32:13.309Z</time></trkpt><trkpt lat="39.9217689" lon="9.6615373"><ele>13.0</ele><time>2026-04-19T08:32:16.31Z</time></trkpt><trkpt lat="39.9217157" lon="9.6614678"><ele>13.0</ele><time>2026-04-19T08:32:19.31Z</time></trkpt><trkpt lat="39.9216643" lon="9.6613958"><ele>13.0</ele><time>2026-04-19T08:32:22.31Z</time></trkpt><trkpt lat="39.9216241" lon="9.6613326"><ele>13.0</ele><time>2026-04-19T08:32:25.309Z</time></trkpt><trkpt lat="39.9215762" lon="9.6612701"><ele>13.0</ele><time>2026-04-19T08:32:29.309Z</time></trkpt><trkpt lat="39.9215164" lon="9.6612308"><ele>13.142857142857142</ele><time>2026-04-19T08:32:33.31Z</time></trkpt><trkpt lat="39.9214731" lon="9.6611614"><ele>13.285714285714286</ele><time>2026-04-19T08:32:40.309Z</time></trkpt><trkpt lat="39.9214644" lon="9.6612496"><ele>13.428571428571429</ele><time>2026-04-19T08:32:51.31Z</time></trkpt><trkpt lat="39.9214129" lon="9.6613024"><ele>13.571428571428571</ele><time>2026-04-19T08:32:54.309Z</time></trkpt><trkpt lat="39.9213661" lon="9.6613709"><ele>13.714285714285715</ele><time>2026-04-19T08:32:57.309Z</time></trkpt><trkpt lat="39.9213201" lon="9.6614496"><ele>13.857142857142858</ele><time>2026-04-19T08:33:00.309Z</time></trkpt><trkpt lat="39.921277" lon="9.6615245"><ele>14.0</ele><time>2026-04-19T08:33:03.309Z</time></trkpt><trkpt lat="39.9212329" lon="9.6616057"><ele>14.000000000000002</ele><time>2026-04-19T08:33:06.31Z</time></trkpt><trkpt lat="39.9211903" lon="9.6616839"><ele>14.0</ele><time>2026-04-19T08:33:09.309Z</time></trkpt><trkpt lat="39.9211448" lon="9.6617642"><ele>14.0</ele><time>2026-04-19T08:33:12.31Z</time></trkpt><trkpt lat="39.9210959" lon="9.6618488"><ele>14.0</ele><time>2026-04-19T08:33:15.309Z</time></trkpt><trkpt lat="39.9210435" lon="9.661932"><ele>14.000000000000002</ele><time>2026-04-19T08:33:18.309Z</time></trkpt><trkpt lat="39.9209864" lon="9.6620165"><ele>14.0</ele><time>2026-04-19T08:33:21.31Z</time></trkpt><trkpt lat="39.9209347" lon="9.662106"><ele>13.666666666666668</ele><time>2026-04-19T08:33:24.309Z</time></trkpt><trkpt lat="39.9208883" lon="9.6621995"><ele>13.333333333333334</ele><time>2026-04-19T08:33:27.309Z</time></trkpt><trkpt lat="39.9208371" lon="9.6622856"><ele>13.0</ele><time>2026-04-19T08:33:30.31Z</time></trkpt><trkpt lat="39.9207874" lon="9.6623656"><ele>12.666666666666668</ele><time>2026-04-19T08:33:33.31Z</time></trkpt><trkpt lat="39.9207444" lon="9.6624384"><ele>12.333333333333334</ele><time>2026-04-19T08:33:36.31Z</time></trkpt><trkpt lat="39.9206974" lon="9.6625156"><ele>12.0</ele><time>2026-04-19T08:33:39.309Z</time></trkpt><trkpt lat="39.9206499" lon="9.6625969"><ele>12.0</ele><time>2026-04-19T08:33:42.308Z</time></trkpt><trkpt lat="39.9205981" lon="9.6626819"><ele>12.0</ele><time>2026-04-19T08:33:45.309Z</time></trkpt><trkpt lat="39.9205521" lon="9.6627613"><ele>12.0</ele><time>2026-04-19T08:33:48.31Z</time></trkpt><trkpt lat="39.9205016" lon="9.6628472"><ele>12.0</ele><time>2026-04-19T08:33:51.309Z</time></trkpt><trkpt lat="39.9204556" lon="9.662916"><ele>12.0</ele><time>2026-04-19T08:33:54.309Z</time></trkpt><trkpt lat="39.9204111" lon="9.6630002"><ele>12.0</ele><time>2026-04-19T08:33:58.309Z</time></trkpt><trkpt lat="39.9203607" lon="9.663077"><ele>12.0</ele><time>2026-04-19T08:34:01.309Z</time></trkpt><trkpt lat="39.9203254" lon="9.6631502"><ele>12.0</ele><time>2026-04-19T08:34:04.31Z</time></trkpt><trkpt lat="39.9202784" lon="9.6632386"><ele>12.0</ele><time>2026-04-19T08:34:07.309Z</time></trkpt><trkpt lat="39.9202215" lon="9.6633306"><ele>12.0</ele><time>2026-04-19T08:34:10.309Z</time></trkpt><trkpt lat="39.9201802" lon="9.6633942"><ele>12.0</ele><time>2026-04-19T08:34:12.31Z</time></trkpt><trkpt lat="39.9201298" lon="9.6634744"><ele>12.0</ele><time>2026-04-19T08:34:15.309Z</time></trkpt><trkpt lat="39.9200872" lon="9.6635612"><ele>12.166666666666666</ele><time>2026-04-19T08:34:18.31Z</time></trkpt><trkpt lat="39.9200318" lon="9.6636562"><ele>12.333333333333332</ele><time>2026-04-19T08:34:21.309Z</time></trkpt><trkpt lat="39.9199886" lon="9.6637252"><ele>12.5</ele><time>2026-04-19T08:34:23.31Z</time></trkpt><trkpt lat="39.9199451" lon="9.6638279"><ele>12.666666666666666</ele><time>2026-04-19T08:34:26.309Z</time></trkpt><trkpt lat="39.9199143" lon="9.6639002"><ele>12.833333333333332</ele><time>2026-04-19T08:34:28.31Z</time></trkpt><trkpt lat="39.9198837" lon="9.6639795"><ele>13.0</ele><time>2026-04-19T08:34:30.309Z</time></trkpt><trkpt lat="39.9198584" lon="9.6640703"><ele>13.0</ele><time>2026-04-19T08:34:32.309Z</time></trkpt><trkpt lat="39.9198371" lon="9.6641672"><ele>13.0</ele><time>2026-04-19T08:34:34.309Z</time></trkpt><trkpt lat="39.9198185" lon="9.6642696"><ele>13.0</ele><time>2026-04-19T08:34:36.31Z</time></trkpt><trkpt lat="39.919803" lon="9.6643707"><ele>13.0</ele><time>2026-04-19T08:34:38.309Z</time></trkpt><trkpt lat="39.9197898" lon="9.6644618"><ele>13.0</ele><time>2026-04-19T08:34:40.309Z</time></trkpt><trkpt lat="39.9197761" lon="9.6645463"><ele>13.0</ele><time>2026-04-19T08:34:42.309Z</time></trkpt><trkpt lat="39.9197639" lon="9.6646378"><ele>13.0</ele><time>2026-04-19T08:34:44.31Z</time></trkpt><trkpt lat="39.9197528" lon="9.6647407"><ele>12.999999999999998</ele><time>2026-04-19T08:34:46.309Z</time></trkpt><trkpt lat="39.919745" lon="9.6648401"><ele>13.0</ele><time>2026-04-19T08:34:49.309Z</time></trkpt><trkpt lat="39.9197293" lon="9.6649425"><ele>13.0</ele><time>2026-04-19T08:34:52.311Z</time></trkpt><trkpt lat="39.9196911" lon="9.6650162"><ele>13.0</ele><time>2026-04-19T08:34:54.31Z</time></trkpt><trkpt lat="39.9196289" lon="9.6650768"><ele>12.999999999999998</ele><time>2026-04-19T08:34:56.311Z</time></trkpt><trkpt lat="39.9195589" lon="9.6651309"><ele>13.0</ele><time>2026-04-19T08:34:58.31Z</time></trkpt><trkpt lat="39.9194905" lon="9.665192"><ele>12.999999999999998</ele><time>2026-04-19T08:35:00.31Z</time></trkpt><trkpt lat="39.9194289" lon="9.6652604"><ele>13.0</ele><time>2026-04-19T08:35:02.31Z</time></trkpt><trkpt lat="39.9193714" lon="9.6653292"><ele>13.0</ele><time>2026-04-19T08:35:04.31Z</time></trkpt><trkpt lat="39.9193117" lon="9.6653905"><ele>13.0</ele><time>2026-04-19T08:35:06.311Z</time></trkpt><trkpt lat="39.919253" lon="9.6654412"><ele>12.999999999999998</ele><time>2026-04-19T08:35:08.31Z</time></trkpt><trkpt lat="39.9191873" lon="9.6654947"><ele>13.0</ele><time>2026-04-19T08:35:10.311Z</time></trkpt><trkpt lat="39.9191178" lon="9.665551"><ele>12.833333333333332</ele><time>2026-04-19T08:35:12.31Z</time></trkpt><trkpt lat="39.9190476" lon="9.6656055"><ele>12.666666666666666</ele><time>2026-04-19T08:35:14.31Z</time></trkpt><trkpt lat="39.9189745" lon="9.665657"><ele>12.5</ele><time>2026-04-19T08:35:16.311Z</time></trkpt><trkpt lat="39.9188943" lon="9.6656861"><ele>12.333333333333332</ele><time>2026-04-19T08:35:18.31Z</time></trkpt><trkpt lat="39.918811" lon="9.6656617"><ele>12.166666666666666</ele><time>2026-04-19T08:35:20.311Z</time></trkpt><trkpt lat="39.9187414" lon="9.6656114"><ele>12.0</ele><time>2026-04-19T08:35:22.311Z</time></trkpt><trkpt lat="39.9186707" lon="9.6655528"><ele>12.0</ele><time>2026-04-19T08:35:24.31Z</time></trkpt><trkpt lat="39.9186041" lon="9.6654889"><ele>12.0</ele><time>2026-04-19T08:35:26.311Z</time></trkpt><trkpt lat="39.9185389" lon="9.6654203"><ele>12.0</ele><time>2026-04-19T08:35:28.311Z</time></trkpt><trkpt lat="39.9184717" lon="9.6653589"><ele>12.0</ele><time>2026-04-19T08:35:30.31Z</time></trkpt><trkpt lat="39.9184074" lon="9.6653002"><ele>12.0</ele><time>2026-04-19T08:35:32.311Z</time></trkpt><trkpt lat="39.9183456" lon="9.6652362"><ele>12.0</ele><time>2026-04-19T08:35:34.311Z</time></trkpt><trkpt lat="39.9182832" lon="9.6651681"><ele>11.833333333333334</ele><time>2026-04-19T08:35:36.31Z</time></trkpt><trkpt lat="39.9182172" lon="9.6651032"><ele>11.666666666666666</ele><time>2026-04-19T08:35:38.31Z</time></trkpt><trkpt lat="39.918146" lon="9.6650503"><ele>11.5</ele><time>2026-04-19T08:35:40.31Z</time></trkpt><trkpt lat="39.9180741" lon="9.6649975"><ele>11.333333333333332</ele><time>2026-04-19T08:35:42.311Z</time></trkpt><trkpt lat="39.9180071" lon="9.6649369"><ele>11.166666666666666</ele><time>2026-04-19T08:35:44.311Z</time></trkpt><trkpt lat="39.9179644" lon="9.6648513"><ele>11.0</ele><time>2026-04-19T08:35:46.311Z</time></trkpt><trkpt lat="39.9179553" lon="9.6647513"><ele>11.0</ele><time>2026-04-19T08:35:48.311Z</time></trkpt><trkpt lat="39.917956" lon="9.6646417"><ele>11.0</ele><time>2026-04-19T08:35:50.311Z</time></trkpt><trkpt lat="39.9179469" lon="9.6645341"><ele>11.0</ele><time>2026-04-19T08:35:52.31Z</time></trkpt><trkpt lat="39.9179283" lon="9.6644352"><ele>11.0</ele><time>2026-04-19T08:35:54.311Z</time></trkpt><trkpt lat="39.9178952" lon="9.6643576"><ele>11.0</ele><time>2026-04-19T08:35:56.311Z</time></trkpt><trkpt lat="39.9178426" lon="9.66427"><ele>11.0</ele><time>2026-04-19T08:35:59.311Z</time></trkpt><trkpt lat="39.9177964" lon="9.6642069"><ele>11.333333333333332</ele><time>2026-04-19T08:36:54.311Z</time></trkpt><trkpt lat="39.9177706" lon="9.6641227"><ele>11.666666666666666</ele><time>2026-04-19T08:36:57.31Z</time></trkpt><trkpt lat="39.9177354" lon="9.6640196"><ele>12.0</ele><time>2026-04-19T08:37:00.311Z</time></trkpt><trkpt lat="39.9176836" lon="9.6639278"><ele>12.333333333333332</ele><time>2026-04-19T08:37:03.31Z</time></trkpt><trkpt lat="39.9176446" lon="9.6638351"><ele>12.666666666666666</ele><time>2026-04-19T08:37:06.31Z</time></trkpt><trkpt lat="39.9176015" lon="9.6637235"><ele>13.0</ele><time>2026-04-19T08:37:09.311Z</time></trkpt><trkpt lat="39.9175677" lon="9.6636478"><ele>13.0</ele><time>2026-04-19T08:37:11.31Z</time></trkpt><trkpt lat="39.917522" lon="9.6635883"><ele>13.0</ele><time>2026-04-19T08:37:13.311Z</time></trkpt><trkpt lat="39.9174493" lon="9.6635157"><ele>13.0</ele><time>2026-04-19T08:37:16.31Z</time></trkpt><trkpt lat="39.917393" lon="9.6634641"><ele>13.0</ele><time>2026-04-19T08:37:18.311Z</time></trkpt><trkpt lat="39.9173262" lon="9.6634276"><ele>13.0</ele><time>2026-04-19T08:37:20.31Z</time></trkpt><trkpt lat="39.9172554" lon="9.6634001"><ele>13.0</ele><time>2026-04-19T08:37:22.31Z</time></trkpt><trkpt lat="39.9171878" lon="9.6633691"><ele>13.0</ele><time>2026-04-19T08:37:24.31Z</time></trkpt><trkpt lat="39.9171231" lon="9.6633339"><ele>12.999999999999998</ele><time>2026-04-19T08:37:26.31Z</time></trkpt><trkpt lat="39.9170497" lon="9.6632639"><ele>13.0</ele><time>2026-04-19T08:37:29.311Z</time></trkpt><trkpt lat="39.9169861" lon="9.6631858"><ele>13.0</ele><time>2026-04-19T08:37:32.31Z</time></trkpt><trkpt lat="39.9169396" lon="9.6630989"><ele>13.0</ele><time>2026-04-19T08:37:35.311Z</time></trkpt><trkpt lat="39.9168998" lon="9.6629963"><ele>12.999999999999998</ele><time>2026-04-19T08:37:38.311Z</time></trkpt><trkpt lat="39.9168712" lon="9.6629222"><ele>13.0</ele><time>2026-04-19T08:37:40.311Z</time></trkpt><trkpt lat="39.9168408" lon="9.6628469"><ele>13.0</ele><time>2026-04-19T08:37:42.311Z</time></trkpt><trkpt lat="39.9168108" lon="9.66277"><ele>13.0</ele><time>2026-04-19T08:37:44.311Z</time></trkpt><trkpt lat="39.9167734" lon="9.6626955"><ele>13.0</ele><time>2026-04-19T08:37:46.311Z</time></trkpt><trkpt lat="39.9167262" lon="9.6626328"><ele>13.0</ele><time>2026-04-19T08:37:48.31Z</time></trkpt><trkpt lat="39.9166697" lon="9.6625817"><ele>13.0</ele><time>2026-04-19T08:37:50.311Z</time></trkpt><trkpt lat="39.9166114" lon="9.6625365"><ele>13.0</ele><time>2026-04-19T08:37:52.31Z</time></trkpt><trkpt lat="39.9165517" lon="9.6624984"><ele>13.0</ele><time>2026-04-19T08:37:54.311Z</time></trkpt><trkpt lat="39.9164887" lon="9.6624713"><ele>13.0</ele><time>2026-04-19T08:37:56.311Z</time></trkpt><trkpt lat="39.9164229" lon="9.6624438"><ele>13.0</ele><time>2026-04-19T08:37:58.311Z</time></trkpt><trkpt lat="39.9163541" lon="9.6624361"><ele>13.0</ele><time>2026-04-19T08:38:00.309Z</time></trkpt><trkpt lat="39.9162708" lon="9.6624469"><ele>13.0</ele><time>2026-04-19T08:38:03.31Z</time></trkpt><trkpt lat="39.9162067" lon="9.6624676"><ele>13.0</ele><time>2026-04-19T08:38:06.31Z</time></trkpt><trkpt lat="39.9161436" lon="9.6624909"><ele>13.0</ele><time>2026-04-19T08:38:09.311Z</time></trkpt><trkpt lat="39.9160792" lon="9.6625207"><ele>13.0</ele><time>2026-04-19T08:38:12.311Z</time></trkpt><trkpt lat="39.9160017" lon="9.6625537"><ele>12.999999999999998</ele><time>2026-04-19T08:38:15.309Z</time></trkpt><trkpt lat="39.9159206" lon="9.6625912"><ele>13.0</ele><time>2026-04-19T08:38:18.311Z</time></trkpt><trkpt lat="39.9158362" lon="9.6626303"><ele>13.0</ele><time>2026-04-19T08:38:21.31Z</time></trkpt><trkpt lat="39.9157663" lon="9.6626334"><ele>13.0</ele><time>2026-04-19T08:38:24.311Z</time></trkpt><trkpt lat="39.9156869" lon="9.6626223"><ele>12.999999999999998</ele><time>2026-04-19T08:38:27.31Z</time></trkpt><trkpt lat="39.9156041" lon="9.6626078"><ele>13.0</ele><time>2026-04-19T08:38:30.309Z</time></trkpt><trkpt lat="39.9155192" lon="9.6625986"><ele>12.833333333333332</ele><time>2026-04-19T08:38:33.31Z</time></trkpt><trkpt lat="39.9154347" lon="9.6625784"><ele>12.666666666666666</ele><time>2026-04-19T08:38:36.31Z</time></trkpt><trkpt lat="39.9153516" lon="9.6625598"><ele>12.5</ele><time>2026-04-19T08:38:39.311Z</time></trkpt><trkpt lat="39.9152763" lon="9.6625467"><ele>12.333333333333332</ele><time>2026-04-19T08:38:42.311Z</time></trkpt><trkpt lat="39.915213" lon="9.6625174"><ele>12.166666666666666</ele><time>2026-04-19T08:38:45.31Z</time></trkpt><trkpt lat="39.9151373" lon="9.6624668"><ele>12.0</ele><time>2026-04-19T08:38:49.311Z</time></trkpt><trkpt lat="39.9150745" lon="9.6624168"><ele>12.142857142857142</ele><time>2026-04-19T08:38:52.311Z</time></trkpt><trkpt lat="39.9150161" lon="9.6623656"><ele>12.285714285714285</ele><time>2026-04-19T08:38:55.31Z</time></trkpt><trkpt lat="39.9149508" lon="9.662317"><ele>12.428571428571427</ele><time>2026-04-19T08:38:58.311Z</time></trkpt><trkpt lat="39.9148754" lon="9.6622766"><ele>12.571428571428571</ele><time>2026-04-19T08:39:02.311Z</time></trkpt><trkpt lat="39.914804" lon="9.6622598"><ele>12.714285714285715</ele><time>2026-04-19T08:39:07.311Z</time></trkpt><trkpt lat="39.9147374" lon="9.6622274"><ele>12.857142857142856</ele><time>2026-04-19T08:39:11.311Z</time></trkpt><trkpt lat="39.9146647" lon="9.6621943"><ele>13.0</ele><time>2026-04-19T08:39:14.31Z</time></trkpt><trkpt lat="39.9146055" lon="9.6621608"><ele>13.0</ele><time>2026-04-19T08:39:16.311Z</time></trkpt><trkpt lat="39.9145445" lon="9.6621241"><ele>13.0</ele><time>2026-04-19T08:39:18.311Z</time></trkpt><trkpt lat="39.9144817" lon="9.6620819"><ele>13.0</ele><time>2026-04-19T08:39:20.31Z</time></trkpt><trkpt lat="39.9144161" lon="9.6620462"><ele>13.0</ele><time>2026-04-19T08:39:22.31Z</time></trkpt><trkpt lat="39.9143449" lon="9.6620276"><ele>13.0</ele><time>2026-04-19T08:39:24.31Z</time></trkpt><trkpt lat="39.9142701" lon="9.6620282"><ele>13.0</ele><time>2026-04-19T08:39:26.31Z</time></trkpt><trkpt lat="39.9141962" lon="9.6620273"><ele>13.0</ele><time>2026-04-19T08:39:28.31Z</time></trkpt><trkpt lat="39.9141219" lon="9.6620297"><ele>13.142857142857142</ele><time>2026-04-19T08:39:30.311Z</time></trkpt><trkpt lat="39.9140466" lon="9.6620368"><ele>13.285714285714286</ele><time>2026-04-19T08:39:32.31Z</time></trkpt><trkpt lat="39.9139718" lon="9.6620582"><ele>13.428571428571429</ele><time>2026-04-19T08:39:34.311Z</time></trkpt><trkpt lat="39.9139002" lon="9.662079"><ele>13.571428571428571</ele><time>2026-04-19T08:39:36.311Z</time></trkpt><trkpt lat="39.9138294" lon="9.6620847"><ele>13.714285714285715</ele><time>2026-04-19T08:39:38.31Z</time></trkpt><trkpt lat="39.9137592" lon="9.6620677"><ele>13.857142857142858</ele><time>2026-04-19T08:39:40.31Z</time></trkpt><trkpt lat="39.9136977" lon="9.6620149"><ele>14.0</ele><time>2026-04-19T08:39:42.311Z</time></trkpt><trkpt lat="39.9136595" lon="9.6619289"><ele>14.000000000000002</ele><time>2026-04-19T08:39:44.31Z</time></trkpt><trkpt lat="39.9136398" lon="9.6618313"><ele>14.0</ele><time>2026-04-19T08:39:46.31Z</time></trkpt><trkpt lat="39.9136224" lon="9.6617349"><ele>14.0</ele><time>2026-04-19T08:39:48.31Z</time></trkpt><trkpt lat="39.9136094" lon="9.6616364"><ele>14.0</ele><time>2026-04-19T08:39:50.311Z</time></trkpt><trkpt lat="39.9135928" lon="9.6615399"><ele>14.000000000000002</ele><time>2026-04-19T08:39:52.311Z</time></trkpt><trkpt lat="39.9135734" lon="9.661443"><ele>14.0</ele><time>2026-04-19T08:39:54.31Z</time></trkpt><trkpt lat="39.9135592" lon="9.6613436"><ele>14.0</ele><time>2026-04-19T08:39:56.311Z</time></trkpt><trkpt lat="39.9135491" lon="9.6612443"><ele>14.0</ele><time>2026-04-19T08:39:58.31Z</time></trkpt><trkpt lat="39.9135449" lon="9.6611422"><ele>14.0</ele><time>2026-04-19T08:40:00.311Z</time></trkpt><trkpt lat="39.9135389" lon="9.6610504"><ele>14.0</ele><time>2026-04-19T08:40:02.31Z</time></trkpt><trkpt lat="39.9135275" lon="9.6609564"><ele>14.0</ele><time>2026-04-19T08:40:04.31Z</time></trkpt><trkpt lat="39.9135169" lon="9.6608715"><ele>14.0</ele><time>2026-04-19T08:40:06.31Z</time></trkpt><trkpt lat="39.9135028" lon="9.660781"><ele>14.0</ele><time>2026-04-19T08:40:08.311Z</time></trkpt><trkpt lat="39.9134898" lon="9.6606917"><ele>13.857142857142858</ele><time>2026-04-19T08:40:10.31Z</time></trkpt><trkpt lat="39.9134795" lon="9.6606036"><ele>13.714285714285715</ele><time>2026-04-19T08:40:12.311Z</time></trkpt><trkpt lat="39.9134664" lon="9.6605233"><ele>13.571428571428571</ele><time>2026-04-19T08:40:14.31Z</time></trkpt><trkpt lat="39.9134414" lon="9.6604068"><ele>13.428571428571429</ele><time>2026-04-19T08:40:17.311Z</time></trkpt><trkpt lat="39.9133819" lon="9.6603341"><ele>13.285714285714286</ele><time>2026-04-19T08:40:20.311Z</time></trkpt><trkpt lat="39.9133142" lon="9.6603419"><ele>13.142857142857142</ele><time>2026-04-19T08:40:22.31Z</time></trkpt><trkpt lat="39.913243" lon="9.6603607"><ele>13.0</ele><time>2026-04-19T08:40:24.311Z</time></trkpt><trkpt lat="39.9131748" lon="9.6603822"><ele>13.428571428571427</ele><time>2026-04-19T08:40:26.311Z</time></trkpt><trkpt lat="39.9131094" lon="9.6604058"><ele>13.857142857142858</ele><time>2026-04-19T08:40:28.31Z</time></trkpt><trkpt lat="39.9130379" lon="9.6604253"><ele>14.285714285714285</ele><time>2026-04-19T08:40:30.31Z</time></trkpt><trkpt lat="39.9129669" lon="9.6604414"><ele>14.714285714285714</ele><time>2026-04-19T08:40:32.31Z</time></trkpt><trkpt lat="39.9128941" lon="9.6604626"><ele>15.142857142857142</ele><time>2026-04-19T08:40:34.311Z</time></trkpt><trkpt lat="39.9128206" lon="9.6604841"><ele>15.571428571428571</ele><time>2026-04-19T08:40:36.31Z</time></trkpt><trkpt lat="39.9127455" lon="9.6605058"><ele>16.0</ele><time>2026-04-19T08:40:38.311Z</time></trkpt><trkpt lat="39.9126694" lon="9.6605273"><ele>15.999999999999998</ele><time>2026-04-19T08:40:40.311Z</time></trkpt><trkpt lat="39.9125939" lon="9.6605474"><ele>16.0</ele><time>2026-04-19T08:40:42.31Z</time></trkpt><trkpt lat="39.9125178" lon="9.6605715"><ele>16.0</ele><time>2026-04-19T08:40:44.311Z</time></trkpt><trkpt lat="39.912441" lon="9.6605936"><ele>16.0</ele><time>2026-04-19T08:40:46.311Z</time></trkpt><trkpt lat="39.9123623" lon="9.6606101"><ele>15.999999999999998</ele><time>2026-04-19T08:40:48.311Z</time></trkpt><trkpt lat="39.9122833" lon="9.660628"><ele>16.0</ele><time>2026-04-19T08:40:50.31Z</time></trkpt><trkpt lat="39.9122055" lon="9.6606453"><ele>16.166666666666664</ele><time>2026-04-19T08:40:52.311Z</time></trkpt><trkpt lat="39.9121257" lon="9.6606571"><ele>16.333333333333332</ele><time>2026-04-19T08:40:54.311Z</time></trkpt><trkpt lat="39.912045" lon="9.6606595"><ele>16.5</ele><time>2026-04-19T08:40:56.31Z</time></trkpt><trkpt lat="39.9119728" lon="9.6606542"><ele>16.666666666666668</ele><time>2026-04-19T08:40:58.31Z</time></trkpt><trkpt lat="39.9119044" lon="9.6606567"><ele>16.833333333333336</ele><time>2026-04-19T08:41:00.31Z</time></trkpt><trkpt lat="39.9118299" lon="9.660652"><ele>17.0</ele><time>2026-04-19T08:41:02.311Z</time></trkpt><trkpt lat="39.9117541" lon="9.6606436"><ele>16.833333333333336</ele><time>2026-04-19T08:41:04.31Z</time></trkpt><trkpt lat="39.9116739" lon="9.6606363"><ele>16.666666666666668</ele><time>2026-04-19T08:41:06.311Z</time></trkpt><trkpt lat="39.9115962" lon="9.6606263"><ele>16.5</ele><time>2026-04-19T08:41:08.31Z</time></trkpt><trkpt lat="39.9115241" lon="9.6606225"><ele>16.333333333333332</ele><time>2026-04-19T08:41:10.31Z</time></trkpt><trkpt lat="39.9114489" lon="9.6606233"><ele>16.166666666666664</ele><time>2026-04-19T08:41:12.311Z</time></trkpt><trkpt lat="39.9113671" lon="9.6606165"><ele>16.0</ele><time>2026-04-19T08:41:14.311Z</time></trkpt><trkpt lat="39.9112817" lon="9.6606082"><ele>15.999999999999998</ele><time>2026-04-19T08:41:16.31Z</time></trkpt><trkpt lat="39.9111931" lon="9.6606128"><ele>16.0</ele><time>2026-04-19T08:41:18.311Z</time></trkpt><trkpt lat="39.9111045" lon="9.6606215"><ele>16.0</ele><time>2026-04-19T08:41:20.31Z</time></trkpt><trkpt lat="39.9110213" lon="9.6606215"><ele>16.0</ele><time>2026-04-19T08:41:22.311Z</time></trkpt><trkpt lat="39.9109399" lon="9.6606176"><ele>15.999999999999998</ele><time>2026-04-19T08:41:24.311Z</time></trkpt><trkpt lat="39.9108659" lon="9.6606208"><ele>16.0</ele><time>2026-04-19T08:41:26.311Z</time></trkpt><trkpt lat="39.9107922" lon="9.6606291"><ele>16.166666666666664</ele><time>2026-04-19T08:41:28.31Z</time></trkpt><trkpt lat="39.9107194" lon="9.6606381"><ele>16.333333333333332</ele><time>2026-04-19T08:41:30.31Z</time></trkpt><trkpt lat="39.9106463" lon="9.6606488"><ele>16.5</ele><time>2026-04-19T08:41:32.31Z</time></trkpt><trkpt lat="39.9105733" lon="9.660659"><ele>16.666666666666668</ele><time>2026-04-19T08:41:34.311Z</time></trkpt><trkpt lat="39.9104956" lon="9.6606714"><ele>16.833333333333336</ele><time>2026-04-19T08:41:36.31Z</time></trkpt><trkpt lat="39.9104174" lon="9.6606811"><ele>17.0</ele><time>2026-04-19T08:41:38.311Z</time></trkpt><trkpt lat="39.9103405" lon="9.6606882"><ele>17.0</ele><time>2026-04-19T08:41:40.31Z</time></trkpt><trkpt lat="39.9102651" lon="9.6606961"><ele>17.0</ele><time>2026-04-19T08:41:42.311Z</time></trkpt><trkpt lat="39.9101877" lon="9.6607011"><ele>17.0</ele><time>2026-04-19T08:41:44.31Z</time></trkpt><trkpt lat="39.9101103" lon="9.6607007"><ele>17.0</ele><time>2026-04-19T08:41:46.311Z</time></trkpt><trkpt lat="39.9100347" lon="9.6606961"><ele>17.0</ele><time>2026-04-19T08:41:48.311Z</time></trkpt><trkpt lat="39.909959" lon="9.6606867"><ele>17.0</ele><time>2026-04-19T08:41:50.31Z</time></trkpt><trkpt lat="39.9098836" lon="9.6606759"><ele>16.71428571428571</ele><time>2026-04-19T08:41:52.311Z</time></trkpt><trkpt lat="39.9098089" lon="9.6606651"><ele>16.428571428571427</ele><time>2026-04-19T08:41:54.31Z</time></trkpt><trkpt lat="39.9097343" lon="9.6606513"><ele>16.142857142857142</ele><time>2026-04-19T08:41:56.311Z</time></trkpt><trkpt lat="39.9096609" lon="9.6606318"><ele>15.857142857142856</ele><time>2026-04-19T08:41:58.31Z</time></trkpt><trkpt lat="39.9095871" lon="9.66062"><ele>15.57142857142857</ele><time>2026-04-19T08:42:00.309Z</time></trkpt><trkpt lat="39.9095148" lon="9.6606035"><ele>15.285714285714286</ele><time>2026-04-19T08:42:02.311Z</time></trkpt><trkpt lat="39.9094428" lon="9.6605846"><ele>15.0</ele><time>2026-04-19T08:42:04.31Z</time></trkpt><trkpt lat="39.909368" lon="9.6605789"><ele>15.0</ele><time>2026-04-19T08:42:06.311Z</time></trkpt><trkpt lat="39.9092915" lon="9.6605871"><ele>15.0</ele><time>2026-04-19T08:42:08.311Z</time></trkpt><trkpt lat="39.9092182" lon="9.6606205"><ele>15.0</ele><time>2026-04-19T08:42:10.311Z</time></trkpt><trkpt lat="39.9091481" lon="9.6606703"><ele>15.0</ele><time>2026-04-19T08:42:12.311Z</time></trkpt><trkpt lat="39.9090753" lon="9.6607205"><ele>15.0</ele><time>2026-04-19T08:42:14.31Z</time></trkpt><trkpt lat="39.9090041" lon="9.6607734"><ele>15.0</ele><time>2026-04-19T08:42:16.311Z</time></trkpt><trkpt lat="39.9089322" lon="9.6608216"><ele>15.0</ele><time>2026-04-19T08:42:18.311Z</time></trkpt><trkpt lat="39.9088621" lon="9.6608728"><ele>15.0</ele><time>2026-04-19T08:42:20.311Z</time></trkpt><trkpt lat="39.9087926" lon="9.6609244"><ele>15.0</ele><time>2026-04-19T08:42:22.31Z</time></trkpt><trkpt lat="39.9087189" lon="9.6609707"><ele>15.0</ele><time>2026-04-19T08:42:24.311Z</time></trkpt><trkpt lat="39.9086458" lon="9.6610227"><ele>15.0</ele><time>2026-04-19T08:42:26.311Z</time></trkpt><trkpt lat="39.9085686" lon="9.6610641"><ele>15.0</ele><time>2026-04-19T08:42:28.311Z</time></trkpt><trkpt lat="39.908494" lon="9.6611094"><ele>15.0</ele><time>2026-04-19T08:42:30.31Z</time></trkpt><trkpt lat="39.9084187" lon="9.6611487"><ele>15.0</ele><time>2026-04-19T08:42:32.31Z</time></trkpt><trkpt lat="39.908341" lon="9.6611778"><ele>15.0</ele><time>2026-04-19T08:42:34.31Z</time></trkpt><trkpt lat="39.9082633" lon="9.6612086"><ele>15.0</ele><time>2026-04-19T08:42:36.31Z</time></trkpt><trkpt lat="39.9081849" lon="9.6612353"><ele>15.0</ele><time>2026-04-19T08:42:38.311Z</time></trkpt><trkpt lat="39.9081071" lon="9.6612537"><ele>15.0</ele><time>2026-04-19T08:42:40.31Z</time></trkpt><trkpt lat="39.9080299" lon="9.6612604"><ele>15.428571428571429</ele><time>2026-04-19T08:42:42.31Z</time></trkpt><trkpt lat="39.907953" lon="9.6612479"><ele>15.857142857142858</ele><time>2026-04-19T08:42:44.31Z</time></trkpt><trkpt lat="39.9078779" lon="9.6612453"><ele>16.285714285714285</ele><time>2026-04-19T08:42:46.311Z</time></trkpt><trkpt lat="39.9078108" lon="9.661241"><ele>16.714285714285715</ele><time>2026-04-19T08:42:48.31Z</time></trkpt><trkpt lat="39.9077481" lon="9.6612244"><ele>17.142857142857142</ele><time>2026-04-19T08:42:50.311Z</time></trkpt><trkpt lat="39.9076839" lon="9.6611983"><ele>17.571428571428573</ele><time>2026-04-19T08:42:52.311Z</time></trkpt><trkpt lat="39.9076179" lon="9.6611737"><ele>18.0</ele><time>2026-04-19T08:42:54.31Z</time></trkpt><trkpt lat="39.9075524" lon="9.6611466"><ele>18.142857142857146</ele><time>2026-04-19T08:42:56.311Z</time></trkpt><trkpt lat="39.9074866" lon="9.6611185"><ele>18.285714285714285</ele><time>2026-04-19T08:42:58.31Z</time></trkpt><trkpt lat="39.9074202" lon="9.6610987"><ele>18.42857142857143</ele><time>2026-04-19T08:43:00.311Z</time></trkpt><trkpt lat="39.9073545" lon="9.6610789"><ele>18.571428571428573</ele><time>2026-04-19T08:43:02.311Z</time></trkpt><trkpt lat="39.9072868" lon="9.6610591"><ele>18.714285714285715</ele><time>2026-04-19T08:43:04.31Z</time></trkpt><trkpt lat="39.9072173" lon="9.661039"><ele>18.857142857142858</ele><time>2026-04-19T08:43:06.311Z</time></trkpt><trkpt lat="39.9071445" lon="9.6610158"><ele>19.0</ele><time>2026-04-19T08:43:08.31Z</time></trkpt><trkpt lat="39.9070742" lon="9.6609885"><ele>19.142857142857142</ele><time>2026-04-19T08:43:10.311Z</time></trkpt><trkpt lat="39.9070053" lon="9.6609634"><ele>19.28571428571429</ele><time>2026-04-19T08:43:12.311Z</time></trkpt><trkpt lat="39.9069345" lon="9.6609442"><ele>19.42857142857143</ele><time>2026-04-19T08:43:14.311Z</time></trkpt><trkpt lat="39.9068634" lon="9.6609303"><ele>19.57142857142857</ele><time>2026-04-19T08:43:16.31Z</time></trkpt><trkpt lat="39.9067935" lon="9.6609207"><ele>19.714285714285715</ele><time>2026-04-19T08:43:18.311Z</time></trkpt><trkpt lat="39.906723" lon="9.660914"><ele>19.857142857142858</ele><time>2026-04-19T08:43:20.31Z</time></trkpt><trkpt lat="39.9066525" lon="9.6609107"><ele>20.0</ele><time>2026-04-19T08:43:22.311Z</time></trkpt><trkpt lat="39.9065823" lon="9.6609122"><ele>20.0</ele><time>2026-04-19T08:43:24.31Z</time></trkpt><trkpt lat="39.9065153" lon="9.6609223"><ele>20.0</ele><time>2026-04-19T08:43:26.311Z</time></trkpt><trkpt lat="39.9064467" lon="9.6609262"><ele>20.0</ele><time>2026-04-19T08:43:28.311Z</time></trkpt><trkpt lat="39.9063755" lon="9.6609197"><ele>20.0</ele><time>2026-04-19T08:43:30.311Z</time></trkpt><trkpt lat="39.9063" lon="9.6609085"><ele>20.0</ele><time>2026-04-19T08:43:32.309Z</time></trkpt><trkpt lat="39.9062262" lon="9.6608992"><ele>20.0</ele><time>2026-04-19T08:43:34.31Z</time></trkpt><trkpt lat="39.9061503" lon="9.6608894"><ele>20.0</ele><time>2026-04-19T08:43:36.31Z</time></trkpt><trkpt lat="39.9060744" lon="9.6608783"><ele>20.0</ele><time>2026-04-19T08:43:38.311Z</time></trkpt><trkpt lat="39.9059988" lon="9.6608688"><ele>20.0</ele><time>2026-04-19T08:43:40.311Z</time></trkpt><trkpt lat="39.9059238" lon="9.6608569"><ele>20.0</ele><time>2026-04-19T08:43:42.31Z</time></trkpt><trkpt lat="39.9058523" lon="9.6608364"><ele>20.0</ele><time>2026-04-19T08:43:44.311Z</time></trkpt><trkpt lat="39.9057815" lon="9.6608118"><ele>20.0</ele><time>2026-04-19T08:43:46.311Z</time></trkpt><trkpt lat="39.9057117" lon="9.6607857"><ele>20.0</ele><time>2026-04-19T08:43:48.311Z</time></trkpt><trkpt lat="39.9056433" lon="9.6607596"><ele>20.0</ele><time>2026-04-19T08:43:50.311Z</time></trkpt><trkpt lat="39.9055755" lon="9.6607305"><ele>20.0</ele><time>2026-04-19T08:43:52.311Z</time></trkpt><trkpt lat="39.9055083" lon="9.6606975"><ele>20.0</ele><time>2026-04-19T08:43:54.311Z</time></trkpt><trkpt lat="39.9054421" lon="9.660667"><ele>20.0</ele><time>2026-04-19T08:43:56.311Z</time></trkpt><trkpt lat="39.9053793" lon="9.6606339"><ele>20.0</ele><time>2026-04-19T08:43:58.31Z</time></trkpt><trkpt lat="39.90532" lon="9.6605969"><ele>20.0</ele><time>2026-04-19T08:44:00.31Z</time></trkpt><trkpt lat="39.9052622" lon="9.6605544"><ele>20.0</ele><time>2026-04-19T08:44:02.31Z</time></trkpt><trkpt lat="39.905208" lon="9.6605125"><ele>20.0</ele><time>2026-04-19T08:44:04.311Z</time></trkpt><trkpt lat="39.9051264" lon="9.6604577"><ele>20.333333333333336</ele><time>2026-04-19T08:44:07.311Z</time></trkpt><trkpt lat="39.9050457" lon="9.6603952"><ele>20.666666666666668</ele><time>2026-04-19T08:44:10.311Z</time></trkpt><trkpt lat="39.904993" lon="9.660345"><ele>21.0</ele><time>2026-04-19T08:44:12.311Z</time></trkpt><trkpt lat="39.9049444" lon="9.6602925"><ele>21.333333333333332</ele><time>2026-04-19T08:44:14.311Z</time></trkpt><trkpt lat="39.9048692" lon="9.6602199"><ele>21.666666666666664</ele><time>2026-04-19T08:44:17.311Z</time></trkpt><trkpt lat="39.9047995" lon="9.6601418"><ele>22.0</ele><time>2026-04-19T08:44:20.311Z</time></trkpt><trkpt lat="39.9047267" lon="9.6600641"><ele>22.166666666666664</ele><time>2026-04-19T08:44:23.311Z</time></trkpt><trkpt lat="39.9046697" lon="9.6600143"><ele>22.333333333333332</ele><time>2026-04-19T08:44:25.312Z</time></trkpt><trkpt lat="39.9046116" lon="9.6599723"><ele>22.5</ele><time>2026-04-19T08:44:27.312Z</time></trkpt><trkpt lat="39.9045547" lon="9.659931"><ele>22.666666666666668</ele><time>2026-04-19T08:44:29.312Z</time></trkpt><trkpt lat="39.9044856" lon="9.6598777"><ele>22.833333333333336</ele><time>2026-04-19T08:44:32.312Z</time></trkpt><trkpt lat="39.9044075" lon="9.6598216"><ele>23.0</ele><time>2026-04-19T08:44:35.312Z</time></trkpt><trkpt lat="39.9043252" lon="9.6597625"><ele>23.0</ele><time>2026-04-19T08:44:38.312Z</time></trkpt><trkpt lat="39.90427" lon="9.6597197"><ele>23.0</ele><time>2026-04-19T08:44:40.312Z</time></trkpt><trkpt lat="39.9042144" lon="9.6596772"><ele>23.0</ele><time>2026-04-19T08:44:42.311Z</time></trkpt><trkpt lat="39.9041596" lon="9.6596336"><ele>23.0</ele><time>2026-04-19T08:44:44.312Z</time></trkpt><trkpt lat="39.9041047" lon="9.6595868"><ele>23.0</ele><time>2026-04-19T08:44:46.311Z</time></trkpt><trkpt lat="39.9040492" lon="9.6595436"><ele>23.0</ele><time>2026-04-19T08:44:48.311Z</time></trkpt><trkpt lat="39.9039938" lon="9.6594999"><ele>23.0</ele><time>2026-04-19T08:44:50.311Z</time></trkpt><trkpt lat="39.9039381" lon="9.6594579"><ele>24.0</ele><time>2026-04-19T08:44:52.312Z</time></trkpt><trkpt lat="39.9038574" lon="9.6593965"><ele>25.0</ele><time>2026-04-19T08:44:55.311Z</time></trkpt><trkpt lat="39.9037866" lon="9.6593243"><ele>26.0</ele><time>2026-04-19T08:44:58.312Z</time></trkpt><trkpt lat="39.9037252" lon="9.6592429"><ele>27.0</ele><time>2026-04-19T08:45:01.312Z</time></trkpt><trkpt lat="39.9036504" lon="9.659171"><ele>27.999999999999996</ele><time>2026-04-19T08:45:04.312Z</time></trkpt><trkpt lat="39.9035894" lon="9.6591386"><ele>29.0</ele><time>2026-04-19T08:45:06.311Z</time></trkpt><trkpt lat="39.903519" lon="9.6591215"><ele>29.000000000000004</ele><time>2026-04-19T08:45:08.312Z</time></trkpt><trkpt lat="39.9034442" lon="9.659122"><ele>29.0</ele><time>2026-04-19T08:45:10.312Z</time></trkpt><trkpt lat="39.9033763" lon="9.6591378"><ele>29.000000000000004</ele><time>2026-04-19T08:45:12.312Z</time></trkpt><trkpt lat="39.9032863" lon="9.6591677"><ele>29.000000000000004</ele><time>2026-04-19T08:45:15.311Z</time></trkpt><trkpt lat="39.9032221" lon="9.6591679"><ele>29.0</ele><time>2026-04-19T08:45:17.313Z</time></trkpt><trkpt lat="39.9031566" lon="9.6591697"><ele>29.000000000000004</ele><time>2026-04-19T08:45:19.312Z</time></trkpt><trkpt lat="39.903091" lon="9.6591674"><ele>29.000000000000004</ele><time>2026-04-19T08:45:21.311Z</time></trkpt><trkpt lat="39.9030241" lon="9.6591608"><ele>28.571428571428577</ele><time>2026-04-19T08:45:23.311Z</time></trkpt><trkpt lat="39.9029594" lon="9.6591573"><ele>28.142857142857146</ele><time>2026-04-19T08:45:25.311Z</time></trkpt><trkpt lat="39.9028949" lon="9.6591538"><ele>27.714285714285715</ele><time>2026-04-19T08:45:27.312Z</time></trkpt><trkpt lat="39.9028309" lon="9.6591537"><ele>27.28571428571429</ele><time>2026-04-19T08:45:29.312Z</time></trkpt><trkpt lat="39.9027385" lon="9.6591741"><ele>26.85714285714286</ele><time>2026-04-19T08:45:32.312Z</time></trkpt><trkpt lat="39.9026801" lon="9.6592073"><ele>26.428571428571427</ele><time>2026-04-19T08:45:34.312Z</time></trkpt><trkpt lat="39.9026229" lon="9.6592428"><ele>26.0</ele><time>2026-04-19T08:45:36.311Z</time></trkpt><trkpt lat="39.9025433" lon="9.659305"><ele>25.833333333333332</ele><time>2026-04-19T08:45:39.311Z</time></trkpt><trkpt lat="39.9024626" lon="9.6593623"><ele>25.666666666666664</ele><time>2026-04-19T08:45:42.312Z</time></trkpt><trkpt lat="39.9023788" lon="9.6593968"><ele>25.5</ele><time>2026-04-19T08:45:45.312Z</time></trkpt><trkpt lat="39.9022982" lon="9.6594114"><ele>25.333333333333336</ele><time>2026-04-19T08:45:48.311Z</time></trkpt><trkpt lat="39.9022169" lon="9.6594057"><ele>25.166666666666668</ele><time>2026-04-19T08:45:51.312Z</time></trkpt><trkpt lat="39.9021435" lon="9.659367"><ele>25.0</ele><time>2026-04-19T08:45:54.311Z</time></trkpt><trkpt lat="39.9020831" lon="9.659301"><ele>25.000000000000004</ele><time>2026-04-19T08:45:57.312Z</time></trkpt><trkpt lat="39.9020295" lon="9.6592235"><ele>25.0</ele><time>2026-04-19T08:46:00.31Z</time></trkpt><trkpt lat="39.9019814" lon="9.6591373"><ele>25.0</ele><time>2026-04-19T08:46:03.312Z</time></trkpt><trkpt lat="39.9019284" lon="9.6590539"><ele>25.0</ele><time>2026-04-19T08:46:06.311Z</time></trkpt><trkpt lat="39.9018804" lon="9.6589682"><ele>25.000000000000004</ele><time>2026-04-19T08:46:09.311Z</time></trkpt><trkpt lat="39.9018329" lon="9.6588834"><ele>25.0</ele><time>2026-04-19T08:46:12.311Z</time></trkpt><trkpt lat="39.9017859" lon="9.6588"><ele>25.833333333333336</ele><time>2026-04-19T08:46:15.311Z</time></trkpt><trkpt lat="39.9017343" lon="9.6587235"><ele>26.666666666666668</ele><time>2026-04-19T08:46:18.312Z</time></trkpt><trkpt lat="39.9016649" lon="9.6586667"><ele>27.5</ele><time>2026-04-19T08:46:21.311Z</time></trkpt><trkpt lat="39.9015946" lon="9.6586354"><ele>28.333333333333336</ele><time>2026-04-19T08:46:24.311Z</time></trkpt><trkpt lat="39.90153" lon="9.6586096"><ele>29.166666666666668</ele><time>2026-04-19T08:46:27.311Z</time></trkpt><trkpt lat="39.9014445" lon="9.6585728"><ele>30.0</ele><time>2026-04-19T08:46:30.311Z</time></trkpt><trkpt lat="39.9013648" lon="9.6585395"><ele>30.0</ele><time>2026-04-19T08:46:33.312Z</time></trkpt><trkpt lat="39.9012905" lon="9.6585154"><ele>30.0</ele><time>2026-04-19T08:46:36.311Z</time></trkpt><trkpt lat="39.9012286" lon="9.6584896"><ele>30.0</ele><time>2026-04-19T08:46:39.312Z</time></trkpt><trkpt lat="39.9011567" lon="9.6584595"><ele>30.0</ele><time>2026-04-19T08:46:42.311Z</time></trkpt><trkpt lat="39.9010826" lon="9.6584274"><ele>30.0</ele><time>2026-04-19T08:46:45.31Z</time></trkpt><trkpt lat="39.9010086" lon="9.6583955"><ele>30.0</ele><time>2026-04-19T08:46:48.312Z</time></trkpt><trkpt lat="39.9009318" lon="9.6583631"><ele>30.714285714285715</ele><time>2026-04-19T08:46:51.31Z</time></trkpt><trkpt lat="39.9008563" lon="9.6583383"><ele>31.428571428571427</ele><time>2026-04-19T08:46:54.312Z</time></trkpt><trkpt lat="39.9007842" lon="9.6583097"><ele>32.14285714285714</ele><time>2026-04-19T08:46:57.311Z</time></trkpt><trkpt lat="39.9007208" lon="9.6582567"><ele>32.85714285714286</ele><time>2026-04-19T08:47:00.312Z</time></trkpt><trkpt lat="39.9006615" lon="9.6581938"><ele>33.57142857142857</ele><time>2026-04-19T08:47:03.311Z</time></trkpt><trkpt lat="39.9005983" lon="9.6581425"><ele>34.285714285714285</ele><time>2026-04-19T08:47:06.311Z</time></trkpt><trkpt lat="39.9005314" lon="9.6581224"><ele>35.0</ele><time>2026-04-19T08:47:09.311Z</time></trkpt><trkpt lat="39.9004582" lon="9.6581023"><ele>35.0</ele><time>2026-04-19T08:47:12.312Z</time></trkpt><trkpt lat="39.9003849" lon="9.6580917"><ele>35.0</ele><time>2026-04-19T08:47:15.311Z</time></trkpt><trkpt lat="39.9003065" lon="9.6580812"><ele>35.0</ele><time>2026-04-19T08:47:18.312Z</time></trkpt><trkpt lat="39.9002279" lon="9.6580646"><ele>35.0</ele><time>2026-04-19T08:47:21.311Z</time></trkpt><trkpt lat="39.9001604" lon="9.6580692"><ele>35.0</ele><time>2026-04-19T08:47:24.311Z</time></trkpt><trkpt lat="39.9000847" lon="9.6580667"><ele>35.0</ele><time>2026-04-19T08:47:28.312Z</time></trkpt><trkpt lat="39.9000222" lon="9.6580541"><ele>35.0</ele><time>2026-04-19T08:47:31.312Z</time></trkpt><trkpt lat="39.8999568" lon="9.6580433"><ele>35.285714285714285</ele><time>2026-04-19T08:47:34.312Z</time></trkpt><trkpt lat="39.8998917" lon="9.6580412"><ele>35.57142857142857</ele><time>2026-04-19T08:47:37.311Z</time></trkpt><trkpt lat="39.8998092" lon="9.6580427"><ele>35.85714285714286</ele><time>2026-04-19T08:47:41.312Z</time></trkpt><trkpt lat="39.8997447" lon="9.658033"><ele>36.14285714285714</ele><time>2026-04-19T08:47:44.312Z</time></trkpt><trkpt lat="39.8996798" lon="9.658027"><ele>36.42857142857143</ele><time>2026-04-19T08:47:47.311Z</time></trkpt><trkpt lat="39.8996139" lon="9.658023"><ele>36.714285714285715</ele><time>2026-04-19T08:47:50.311Z</time></trkpt><trkpt lat="39.8995487" lon="9.6580194"><ele>37.0</ele><time>2026-04-19T08:47:53.312Z</time></trkpt><trkpt lat="39.8994821" lon="9.6580176"><ele>37.0</ele><time>2026-04-19T08:47:56.311Z</time></trkpt><trkpt lat="39.8994131" lon="9.6580181"><ele>37.0</ele><time>2026-04-19T08:47:59.312Z</time></trkpt><trkpt lat="39.8993441" lon="9.6580225"><ele>37.0</ele><time>2026-04-19T08:48:02.312Z</time></trkpt><trkpt lat="39.8992757" lon="9.6580225"><ele>37.0</ele><time>2026-04-19T08:48:05.311Z</time></trkpt><trkpt lat="39.8992078" lon="9.6580188"><ele>37.0</ele><time>2026-04-19T08:48:08.311Z</time></trkpt><trkpt lat="39.8991435" lon="9.6580121"><ele>37.0</ele><time>2026-04-19T08:48:11.312Z</time></trkpt><trkpt lat="39.8990663" lon="9.6579994"><ele>37.0</ele><time>2026-04-19T08:48:15.312Z</time></trkpt><trkpt lat="39.8989857" lon="9.6579836"><ele>37.57142857142857</ele><time>2026-04-19T08:48:19.312Z</time></trkpt><trkpt lat="39.8989057" lon="9.6579666"><ele>38.14285714285714</ele><time>2026-04-19T08:49:29.311Z</time></trkpt><trkpt lat="39.8988463" lon="9.657938"><ele>38.71428571428571</ele><time>2026-04-19T08:49:32.311Z</time></trkpt><trkpt lat="39.8987877" lon="9.657908"><ele>39.285714285714285</ele><time>2026-04-19T08:49:35.311Z</time></trkpt><trkpt lat="39.8987221" lon="9.65788"><ele>39.857142857142854</ele><time>2026-04-19T08:49:39.311Z</time></trkpt><trkpt lat="39.8986546" lon="9.6578604"><ele>40.42857142857142</ele><time>2026-04-19T08:49:44.312Z</time></trkpt><trkpt lat="39.8985877" lon="9.6578327"><ele>41.0</ele><time>2026-04-19T08:49:49.312Z</time></trkpt><trkpt lat="39.8985155" lon="9.6577999"><ele>41.71428571428571</ele><time>2026-04-19T08:49:54.311Z</time></trkpt><trkpt lat="39.898451" lon="9.6577737"><ele>42.42857142857143</ele><time>2026-04-19T08:49:57.311Z</time></trkpt><trkpt lat="39.8983865" lon="9.6577512"><ele>43.14285714285714</ele><time>2026-04-19T08:50:00.311Z</time></trkpt><trkpt lat="39.8983232" lon="9.6577398"><ele>43.857142857142854</ele><time>2026-04-19T08:50:04.311Z</time></trkpt><trkpt lat="39.8982612" lon="9.657725"><ele>44.57142857142857</ele><time>2026-04-19T08:50:08.312Z</time></trkpt><trkpt lat="39.8981954" lon="9.6577067"><ele>45.285714285714285</ele><time>2026-04-19T08:50:13.311Z</time></trkpt><trkpt lat="39.8981299" lon="9.6576825"><ele>46.0</ele><time>2026-04-19T08:50:43.312Z</time></trkpt><trkpt lat="39.8980641" lon="9.6576564"><ele>46.0</ele><time>2026-04-19T08:50:46.311Z</time></trkpt><trkpt lat="39.8980007" lon="9.6576329"><ele>46.0</ele><time>2026-04-19T08:50:49.311Z</time></trkpt><trkpt lat="39.8979387" lon="9.6576051"><ele>46.0</ele><time>2026-04-19T08:50:52.311Z</time></trkpt><trkpt lat="39.8978799" lon="9.6575731"><ele>46.0</ele><time>2026-04-19T08:50:55.311Z</time></trkpt><trkpt lat="39.8978237" lon="9.6575348"><ele>46.0</ele><time>2026-04-19T08:50:58.311Z</time></trkpt><trkpt lat="39.8977693" lon="9.6574925"><ele>46.0</ele><time>2026-04-19T08:51:01.311Z</time></trkpt><trkpt lat="39.8977169" lon="9.6574414"><ele>46.0</ele><time>2026-04-19T08:51:04.311Z</time></trkpt><trkpt lat="39.8976677" lon="9.6573843"><ele>46.0</ele><time>2026-04-19T08:51:07.312Z</time></trkpt><trkpt lat="39.8976225" lon="9.657324"><ele>46.0</ele><time>2026-04-19T08:51:10.312Z</time></trkpt><trkpt lat="39.8975642" lon="9.6572449"><ele>46.0</ele><time>2026-04-19T08:51:14.312Z</time></trkpt><trkpt lat="39.8975201" lon="9.6571847"><ele>46.0</ele><time>2026-04-19T08:51:17.312Z</time></trkpt><trkpt lat="39.8974581" lon="9.6571276"><ele>46.0</ele><time>2026-04-19T08:51:21.311Z</time></trkpt><trkpt lat="39.8973872" lon="9.6570808"><ele>46.0</ele><time>2026-04-19T08:51:25.312Z</time></trkpt><trkpt lat="39.8973262" lon="9.6570438"><ele>46.0</ele><time>2026-04-19T08:51:30.311Z</time></trkpt><trkpt lat="39.8972525" lon="9.6570095"><ele>46.16666666666667</ele><time>2026-04-19T08:51:42.311Z</time></trkpt><trkpt lat="39.8971807" lon="9.6569701"><ele>46.333333333333336</ele><time>2026-04-19T08:51:45.311Z</time></trkpt><trkpt lat="39.8970881" lon="9.6569251"><ele>46.5</ele><time>2026-04-19T08:51:48.312Z</time></trkpt><trkpt lat="39.8970091" lon="9.6569365"><ele>46.666666666666664</ele><time>2026-04-19T08:51:52.311Z</time></trkpt><trkpt lat="39.8969446" lon="9.656973"><ele>46.83333333333333</ele><time>2026-04-19T08:51:55.311Z</time></trkpt><trkpt lat="39.8968702" lon="9.65701"><ele>47.0</ele><time>2026-04-19T08:51:59.312Z</time></trkpt><trkpt lat="39.8968033" lon="9.6570301"><ele>47.5</ele><time>2026-04-19T08:52:03.312Z</time></trkpt><trkpt lat="39.8967443" lon="9.6570645"><ele>48.0</ele><time>2026-04-19T08:52:07.312Z</time></trkpt><trkpt lat="39.896663" lon="9.6570898"><ele>48.5</ele><time>2026-04-19T08:52:11.311Z</time></trkpt><trkpt lat="39.8965919" lon="9.6571029"><ele>49.0</ele><time>2026-04-19T08:52:15.311Z</time></trkpt><trkpt lat="39.8965109" lon="9.6571244"><ele>49.50000000000001</ele><time>2026-04-19T08:52:19.311Z</time></trkpt><trkpt lat="39.896433" lon="9.6571379"><ele>50.0</ele><time>2026-04-19T08:52:22.311Z</time></trkpt><trkpt lat="39.8963536" lon="9.6571485"><ele>50.00000000000001</ele><time>2026-04-19T08:52:25.312Z</time></trkpt><trkpt lat="39.8962718" lon="9.6571464"><ele>50.0</ele><time>2026-04-19T08:52:28.312Z</time></trkpt><trkpt lat="39.896188" lon="9.6571369"><ele>50.0</ele><time>2026-04-19T08:52:31.312Z</time></trkpt><trkpt lat="39.896106" lon="9.6571266"><ele>50.0</ele><time>2026-04-19T08:52:34.312Z</time></trkpt><trkpt lat="39.8960224" lon="9.6571201"><ele>50.00000000000001</ele><time>2026-04-19T08:52:37.311Z</time></trkpt><trkpt lat="39.8959418" lon="9.6571189"><ele>50.0</ele><time>2026-04-19T08:52:40.311Z</time></trkpt><trkpt lat="39.8958649" lon="9.6570955"><ele>49.66666666666667</ele><time>2026-04-19T08:52:43.312Z</time></trkpt><trkpt lat="39.8957916" lon="9.6570563"><ele>49.333333333333336</ele><time>2026-04-19T08:52:46.311Z</time></trkpt><trkpt lat="39.8957208" lon="9.6570061"><ele>49.0</ele><time>2026-04-19T08:52:49.311Z</time></trkpt><trkpt lat="39.8956535" lon="9.656954"><ele>48.66666666666667</ele><time>2026-04-19T08:52:52.311Z</time></trkpt><trkpt lat="39.8955794" lon="9.656905"><ele>48.333333333333336</ele><time>2026-04-19T08:53:05.312Z</time></trkpt><trkpt lat="39.8955293" lon="9.6568542"><ele>48.0</ele><time>2026-04-19T08:53:07.311Z</time></trkpt><trkpt lat="39.8954588" lon="9.6568089"><ele>47.599999999999994</ele><time>2026-04-19T08:53:09.311Z</time></trkpt><trkpt lat="39.8953687" lon="9.6567856"><ele>47.199999999999996</ele><time>2026-04-19T08:53:11.312Z</time></trkpt><trkpt lat="39.8952671" lon="9.6567572"><ele>46.8</ele><time>2026-04-19T08:53:13.311Z</time></trkpt><trkpt lat="39.8951691" lon="9.6566944"><ele>46.4</ele><time>2026-04-19T08:53:15.312Z</time></trkpt><trkpt lat="39.8950911" lon="9.6565743"><ele>46.0</ele><time>2026-04-19T08:53:17.311Z</time></trkpt><trkpt lat="39.8949832" lon="9.6565339"><ele>45.5</ele><time>2026-04-19T08:53:19.312Z</time></trkpt><trkpt lat="39.8948691" lon="9.656535"><ele>45.0</ele><time>2026-04-19T08:53:21.312Z</time></trkpt><trkpt lat="39.8947534" lon="9.656516"><ele>44.5</ele><time>2026-04-19T08:53:23.311Z</time></trkpt><trkpt lat="39.8946428" lon="9.6564979"><ele>44.0</ele><time>2026-04-19T08:53:25.311Z</time></trkpt><trkpt lat="39.8945371" lon="9.6564651"><ele>44.0</ele><time>2026-04-19T08:53:27.312Z</time></trkpt><trkpt lat="39.8944325" lon="9.656415"><ele>44.0</ele><time>2026-04-19T08:53:29.312Z</time></trkpt><trkpt lat="39.8943321" lon="9.6563565"><ele>44.0</ele><time>2026-04-19T08:53:31.312Z</time></trkpt><trkpt lat="39.8942262" lon="9.6563173"><ele>44.0</ele><time>2026-04-19T08:53:33.31Z</time></trkpt><trkpt lat="39.8941196" lon="9.6562813"><ele>44.0</ele><time>2026-04-19T08:53:35.312Z</time></trkpt><trkpt lat="39.8940149" lon="9.6562344"><ele>43.400000000000006</ele><time>2026-04-19T08:53:37.311Z</time></trkpt><trkpt lat="39.8939161" lon="9.6561777"><ele>42.8</ele><time>2026-04-19T08:53:39.311Z</time></trkpt><trkpt lat="39.8938317" lon="9.6561064"><ele>42.2</ele><time>2026-04-19T08:53:41.312Z</time></trkpt><trkpt lat="39.8937462" lon="9.6560307"><ele>41.599999999999994</ele><time>2026-04-19T08:53:43.311Z</time></trkpt><trkpt lat="39.8936603" lon="9.6559624"><ele>41.0</ele><time>2026-04-19T08:53:45.312Z</time></trkpt><trkpt lat="39.8935743" lon="9.6558951"><ele>40.83333333333333</ele><time>2026-04-19T08:53:47.311Z</time></trkpt><trkpt lat="39.8934866" lon="9.6558366"><ele>40.666666666666664</ele><time>2026-04-19T08:53:49.311Z</time></trkpt><trkpt lat="39.8934003" lon="9.6558005"><ele>40.5</ele><time>2026-04-19T08:53:51.311Z</time></trkpt><trkpt lat="39.8933245" lon="9.6557476"><ele>40.333333333333336</ele><time>2026-04-19T08:53:53.311Z</time></trkpt><trkpt lat="39.8932485" lon="9.6557033"><ele>40.16666666666667</ele><time>2026-04-19T08:53:55.312Z</time></trkpt><trkpt lat="39.8931752" lon="9.655664"><ele>40.0</ele><time>2026-04-19T08:53:57.311Z</time></trkpt><trkpt lat="39.8931081" lon="9.6556267"><ele>39.5</ele><time>2026-04-19T08:53:59.311Z</time></trkpt><trkpt lat="39.8930386" lon="9.6555949"><ele>39.0</ele><time>2026-04-19T08:54:01.312Z</time></trkpt><trkpt lat="39.8929588" lon="9.6555694"><ele>38.5</ele><time>2026-04-19T08:54:03.311Z</time></trkpt><trkpt lat="39.8928935" lon="9.6555507"><ele>38.0</ele><time>2026-04-19T08:54:05.312Z</time></trkpt><trkpt lat="39.8928126" lon="9.6555316"><ele>37.5</ele><time>2026-04-19T08:54:07.312Z</time></trkpt><trkpt lat="39.8927294" lon="9.6555157"><ele>37.0</ele><time>2026-04-19T08:54:09.311Z</time></trkpt><trkpt lat="39.8926417" lon="9.6554918"><ele>36.833333333333336</ele><time>2026-04-19T08:54:11.311Z</time></trkpt><trkpt lat="39.892572" lon="9.6554512"><ele>36.66666666666667</ele><time>2026-04-19T08:54:13.311Z</time></trkpt><trkpt lat="39.8924883" lon="9.6554356"><ele>36.5</ele><time>2026-04-19T08:54:15.312Z</time></trkpt><trkpt lat="39.8924001" lon="9.6554399"><ele>36.333333333333336</ele><time>2026-04-19T08:54:17.311Z</time></trkpt><trkpt lat="39.8923207" lon="9.6554165"><ele>36.166666666666664</ele><time>2026-04-19T08:54:19.311Z</time></trkpt><trkpt lat="39.892242" lon="9.655389"><ele>36.0</ele><time>2026-04-19T08:54:21.311Z</time></trkpt><trkpt lat="39.8921679" lon="9.6553631"><ele>36.0</ele><time>2026-04-19T08:54:23.312Z</time></trkpt><trkpt lat="39.892101" lon="9.655335"><ele>36.0</ele><time>2026-04-19T08:54:25.311Z</time></trkpt><trkpt lat="39.8920304" lon="9.6553201"><ele>36.0</ele><time>2026-04-19T08:54:27.312Z</time></trkpt><trkpt lat="39.8919589" lon="9.6552939"><ele>36.0</ele><time>2026-04-19T08:54:29.312Z</time></trkpt><trkpt lat="39.8918874" lon="9.6552702"><ele>36.0</ele><time>2026-04-19T08:54:31.311Z</time></trkpt><trkpt lat="39.891805" lon="9.6552497"><ele>36.0</ele><time>2026-04-19T08:54:33.312Z</time></trkpt><trkpt lat="39.8917056" lon="9.6552379"><ele>35.333333333333336</ele><time>2026-04-19T08:54:35.312Z</time></trkpt><trkpt lat="39.8916159" lon="9.6552161"><ele>34.666666666666664</ele><time>2026-04-19T08:54:37.311Z</time></trkpt><trkpt lat="39.8915387" lon="9.6551986"><ele>34.0</ele><time>2026-04-19T08:54:39.312Z</time></trkpt><trkpt lat="39.8914566" lon="9.6551788"><ele>33.33333333333333</ele><time>2026-04-19T08:54:41.311Z</time></trkpt><trkpt lat="39.8913798" lon="9.6551534"><ele>32.666666666666664</ele><time>2026-04-19T08:54:43.312Z</time></trkpt><trkpt lat="39.8913014" lon="9.6551189"><ele>32.0</ele><time>2026-04-19T08:54:45.311Z</time></trkpt><trkpt lat="39.8912142" lon="9.655092"><ele>31.999999999999996</ele><time>2026-04-19T08:54:47.312Z</time></trkpt><trkpt lat="39.8911346" lon="9.6550744"><ele>32.0</ele><time>2026-04-19T08:54:49.311Z</time></trkpt><trkpt lat="39.8910637" lon="9.6550474"><ele>32.0</ele><time>2026-04-19T08:54:51.312Z</time></trkpt><trkpt lat="39.8909934" lon="9.6550189"><ele>32.0</ele><time>2026-04-19T08:54:53.312Z</time></trkpt><trkpt lat="39.8909017" lon="9.6549859"><ele>31.999999999999996</ele><time>2026-04-19T08:54:55.312Z</time></trkpt><trkpt lat="39.8908143" lon="9.6549452"><ele>32.0</ele><time>2026-04-19T08:54:57.311Z</time></trkpt><trkpt lat="39.8907335" lon="9.6549094"><ele>32.0</ele><time>2026-04-19T08:54:59.311Z</time></trkpt><trkpt lat="39.8906473" lon="9.6548404"><ele>32.0</ele><time>2026-04-19T08:55:01.311Z</time></trkpt><trkpt lat="39.8905644" lon="9.654756"><ele>32.0</ele><time>2026-04-19T08:55:03.312Z</time></trkpt><trkpt lat="39.8904857" lon="9.6546666"><ele>32.0</ele><time>2026-04-19T08:55:05.312Z</time></trkpt><trkpt lat="39.8904458" lon="9.6545536"><ele>32.0</ele><time>2026-04-19T08:55:07.311Z</time></trkpt><trkpt lat="39.8904732" lon="9.6544438"><ele>32.2</ele><time>2026-04-19T08:55:09.312Z</time></trkpt><trkpt lat="39.8905122" lon="9.6543388"><ele>32.400000000000006</ele><time>2026-04-19T08:55:11.312Z</time></trkpt><trkpt lat="39.8905388" lon="9.6542031"><ele>32.599999999999994</ele><time>2026-04-19T08:55:13.311Z</time></trkpt><trkpt lat="39.8905525" lon="9.6540567"><ele>32.8</ele><time>2026-04-19T08:55:15.312Z</time></trkpt><trkpt lat="39.8905608" lon="9.6539367"><ele>33.0</ele><time>2026-04-19T08:55:17.312Z</time></trkpt><trkpt lat="39.8905501" lon="9.6538496"><ele>33.0</ele><time>2026-04-19T08:55:19.311Z</time></trkpt><trkpt lat="39.8904731" lon="9.6538004"><ele>33.0</ele><time>2026-04-19T08:55:22.311Z</time></trkpt><trkpt lat="39.8903808" lon="9.6537727"><ele>33.0</ele><time>2026-04-19T08:55:25.311Z</time></trkpt><trkpt lat="39.8903159" lon="9.6537646"><ele>33.0</ele><time>2026-04-19T08:55:27.312Z</time></trkpt><trkpt lat="39.8902473" lon="9.6537646"><ele>33.0</ele><time>2026-04-19T08:55:29.311Z</time></trkpt><trkpt lat="39.8901736" lon="9.653758"><ele>33.0</ele><time>2026-04-19T08:55:31.312Z</time></trkpt><trkpt lat="39.8900924" lon="9.6537438"><ele>32.666666666666664</ele><time>2026-04-19T08:55:33.312Z</time></trkpt><trkpt lat="39.8900106" lon="9.6537214"><ele>32.333333333333336</ele><time>2026-04-19T08:55:35.311Z</time></trkpt><trkpt lat="39.8899325" lon="9.653715"><ele>32.0</ele><time>2026-04-19T08:55:37.312Z</time></trkpt><trkpt lat="39.8898611" lon="9.6537058"><ele>31.666666666666668</ele><time>2026-04-19T08:55:39.313Z</time></trkpt><trkpt lat="39.8897846" lon="9.6536974"><ele>31.333333333333336</ele><time>2026-04-19T08:55:41.312Z</time></trkpt><trkpt lat="39.8896981" lon="9.6536994"><ele>31.0</ele><time>2026-04-19T08:55:43.312Z</time></trkpt><trkpt lat="39.8896112" lon="9.6537037"><ele>31.000000000000004</ele><time>2026-04-19T08:55:45.312Z</time></trkpt><trkpt lat="39.8895325" lon="9.6537085"><ele>31.0</ele><time>2026-04-19T08:55:47.311Z</time></trkpt><trkpt lat="39.8894586" lon="9.6537107"><ele>31.0</ele><time>2026-04-19T08:55:49.312Z</time></trkpt><trkpt lat="39.8893875" lon="9.6537089"><ele>31.0</ele><time>2026-04-19T08:55:51.312Z</time></trkpt><trkpt lat="39.8893097" lon="9.6537038"><ele>31.000000000000004</ele><time>2026-04-19T08:55:53.312Z</time></trkpt><trkpt lat="39.8892275" lon="9.6536986"><ele>31.0</ele><time>2026-04-19T08:55:55.312Z</time></trkpt><trkpt lat="39.8891283" lon="9.6536997"><ele>30.0</ele><time>2026-04-19T08:55:57.312Z</time></trkpt><trkpt lat="39.8890385" lon="9.653694"><ele>29.0</ele><time>2026-04-19T08:55:59.312Z</time></trkpt><trkpt lat="39.8889475" lon="9.6536905"><ele>28.0</ele><time>2026-04-19T08:56:01.313Z</time></trkpt><trkpt lat="39.8888319" lon="9.6536912"><ele>27.0</ele><time>2026-04-19T08:56:03.311Z</time></trkpt><trkpt lat="39.8887298" lon="9.6536784"><ele>26.0</ele><time>2026-04-19T08:56:05.311Z</time></trkpt><trkpt lat="39.888631" lon="9.65367"><ele>25.999999999999996</ele><time>2026-04-19T08:56:07.311Z</time></trkpt><trkpt lat="39.8885136" lon="9.653672"><ele>26.0</ele><time>2026-04-19T08:56:09.311Z</time></trkpt><trkpt lat="39.8884502" lon="9.6536785"><ele>26.0</ele><time>2026-04-19T08:56:10.312Z</time></trkpt><trkpt lat="39.8883806" lon="9.6536801"><ele>26.0</ele><time>2026-04-19T08:56:11.312Z</time></trkpt><trkpt lat="39.8883056" lon="9.6536846"><ele>25.999999999999996</ele><time>2026-04-19T08:56:12.311Z</time></trkpt><trkpt lat="39.8882363" lon="9.6537139"><ele>26.0</ele><time>2026-04-19T08:56:13.311Z</time></trkpt><trkpt lat="39.8881687" lon="9.6537555"><ele>25.833333333333332</ele><time>2026-04-19T08:56:14.312Z</time></trkpt><trkpt lat="39.8881002" lon="9.6537862"><ele>25.666666666666664</ele><time>2026-04-19T08:56:15.311Z</time></trkpt><trkpt lat="39.8880407" lon="9.6538263"><ele>25.5</ele><time>2026-04-19T08:56:16.311Z</time></trkpt><trkpt lat="39.8879957" lon="9.6538895"><ele>25.333333333333336</ele><time>2026-04-19T08:56:17.311Z</time></trkpt><trkpt lat="39.8879408" lon="9.6540313"><ele>25.166666666666668</ele><time>2026-04-19T08:56:19.311Z</time></trkpt><trkpt lat="39.8878964" lon="9.6541678"><ele>25.0</ele><time>2026-04-19T08:56:21.312Z</time></trkpt><trkpt lat="39.8878059" lon="9.6542572"><ele>25.000000000000004</ele><time>2026-04-19T08:56:23.311Z</time></trkpt><trkpt lat="39.8877076" lon="9.6543015"><ele>25.0</ele><time>2026-04-19T08:56:25.311Z</time></trkpt><trkpt lat="39.8876136" lon="9.6543436"><ele>25.0</ele><time>2026-04-19T08:56:27.31Z</time></trkpt><trkpt lat="39.88753" lon="9.6543741"><ele>25.0</ele><time>2026-04-19T08:56:29.311Z</time></trkpt><trkpt lat="39.8874509" lon="9.654404"><ele>25.000000000000004</ele><time>2026-04-19T08:56:31.311Z</time></trkpt><trkpt lat="39.88738" lon="9.6544301"><ele>25.0</ele><time>2026-04-19T08:56:33.311Z</time></trkpt><trkpt lat="39.8873186" lon="9.6544634"><ele>25.333333333333336</ele><time>2026-04-19T08:56:35.312Z</time></trkpt><trkpt lat="39.8872583" lon="9.6544876"><ele>25.666666666666668</ele><time>2026-04-19T08:56:37.311Z</time></trkpt><trkpt lat="39.887186" lon="9.6545263"><ele>26.0</ele><time>2026-04-19T08:56:40.311Z</time></trkpt><trkpt lat="39.8871119" lon="9.6545584"><ele>26.333333333333336</ele><time>2026-04-19T08:56:43.311Z</time></trkpt><trkpt lat="39.887041" lon="9.6545967"><ele>26.666666666666668</ele><time>2026-04-19T08:56:46.312Z</time></trkpt><trkpt lat="39.8869726" lon="9.6546313"><ele>27.0</ele><time>2026-04-19T08:56:48.311Z</time></trkpt><trkpt lat="39.8868811" lon="9.6546759"><ele>27.0</ele><time>2026-04-19T08:56:50.312Z</time></trkpt><trkpt lat="39.8867671" lon="9.6547362"><ele>27.0</ele><time>2026-04-19T08:56:52.311Z</time></trkpt><trkpt lat="39.8867029" lon="9.6547637"><ele>27.0</ele><time>2026-04-19T08:56:53.311Z</time></trkpt><trkpt lat="39.8866389" lon="9.6547865"><ele>27.0</ele><time>2026-04-19T08:56:54.311Z</time></trkpt><trkpt lat="39.8865734" lon="9.6548048"><ele>27.0</ele><time>2026-04-19T08:56:55.311Z</time></trkpt><trkpt lat="39.8865092" lon="9.6548111"><ele>27.0</ele><time>2026-04-19T08:56:56.312Z</time></trkpt><trkpt lat="39.8863778" lon="9.6548182"><ele>26.400000000000002</ele><time>2026-04-19T08:56:58.312Z</time></trkpt><trkpt lat="39.886288" lon="9.6547806"><ele>25.800000000000004</ele><time>2026-04-19T08:57:00.312Z</time></trkpt><trkpt lat="39.886193" lon="9.6547799"><ele>25.2</ele><time>2026-04-19T08:57:02.311Z</time></trkpt><trkpt lat="39.8860886" lon="9.6548192"><ele>24.6</ele><time>2026-04-19T08:57:04.312Z</time></trkpt><trkpt lat="39.8859963" lon="9.6549189"><ele>24.0</ele><time>2026-04-19T08:57:06.311Z</time></trkpt><trkpt lat="39.8859105" lon="9.6550265"><ele>23.71428571428571</ele><time>2026-04-19T08:57:08.312Z</time></trkpt><trkpt lat="39.8858547" lon="9.6550661"><ele>23.428571428571427</ele><time>2026-04-19T08:57:09.313Z</time></trkpt><trkpt lat="39.8857982" lon="9.6551057"><ele>23.142857142857142</ele><time>2026-04-19T08:57:10.312Z</time></trkpt><trkpt lat="39.8857418" lon="9.6551475"><ele>22.857142857142854</ele><time>2026-04-19T08:57:11.312Z</time></trkpt><trkpt lat="39.8856834" lon="9.6551913"><ele>22.57142857142857</ele><time>2026-04-19T08:57:12.313Z</time></trkpt><trkpt lat="39.8856248" lon="9.6552352"><ele>22.285714285714285</ele><time>2026-04-19T08:57:13.313Z</time></trkpt><trkpt lat="39.8855672" lon="9.6552825"><ele>22.0</ele><time>2026-04-19T08:57:14.312Z</time></trkpt><trkpt lat="39.8855158" lon="9.6553353"><ele>24.200000000000003</ele><time>2026-04-19T08:57:15.313Z</time></trkpt><trkpt lat="39.8854643" lon="9.6553847"><ele>26.4</ele><time>2026-04-19T08:57:16.312Z</time></trkpt><trkpt lat="39.8853777" lon="9.6554993"><ele>28.599999999999998</ele><time>2026-04-19T08:57:18.313Z</time></trkpt><trkpt lat="39.8853006" lon="9.6556158"><ele>30.799999999999997</ele><time>2026-04-19T08:57:20.313Z</time></trkpt><trkpt lat="39.8852345" lon="9.6557406"><ele>33.0</ele><time>2026-04-19T08:57:22.312Z</time></trkpt><trkpt lat="39.8851695" lon="9.6558569"><ele>33.0</ele><time>2026-04-19T08:57:24.312Z</time></trkpt><trkpt lat="39.8851096" lon="9.6559648"><ele>33.0</ele><time>2026-04-19T08:57:26.312Z</time></trkpt><trkpt lat="39.8850521" lon="9.6560618"><ele>33.0</ele><time>2026-04-19T08:57:28.312Z</time></trkpt><trkpt lat="39.8849938" lon="9.6561455"><ele>33.0</ele><time>2026-04-19T08:57:30.313Z</time></trkpt><trkpt lat="39.8849413" lon="9.6562266"><ele>33.0</ele><time>2026-04-19T08:57:32.313Z</time></trkpt><trkpt lat="39.8848952" lon="9.6562981"><ele>33.0</ele><time>2026-04-19T08:57:34.312Z</time></trkpt><trkpt lat="39.8848509" lon="9.6563656"><ele>31.857142857142858</ele><time>2026-04-19T08:57:36.313Z</time></trkpt><trkpt lat="39.8848079" lon="9.656426"><ele>30.714285714285715</ele><time>2026-04-19T08:57:38.312Z</time></trkpt><trkpt lat="39.8847442" lon="9.6565044"><ele>29.571428571428573</ele><time>2026-04-19T08:57:41.312Z</time></trkpt><trkpt lat="39.8846945" lon="9.6565753"><ele>28.42857142857143</ele><time>2026-04-19T08:57:44.312Z</time></trkpt><trkpt lat="39.8846615" lon="9.656649"><ele>27.285714285714285</ele><time>2026-04-19T08:57:47.312Z</time></trkpt><trkpt lat="39.8846186" lon="9.6567173"><ele>26.142857142857146</ele><time>2026-04-19T08:57:50.313Z</time></trkpt><trkpt lat="39.8845802" lon="9.6567859"><ele>25.0</ele><time>2026-04-19T08:57:53.313Z</time></trkpt><trkpt lat="39.8845141" lon="9.6568345"><ele>25.000000000000004</ele><time>2026-04-19T08:57:56.313Z</time></trkpt><trkpt lat="39.8844316" lon="9.6568619"><ele>25.0</ele><time>2026-04-19T08:57:59.313Z</time></trkpt><trkpt lat="39.8843725" lon="9.6569023"><ele>25.0</ele><time>2026-04-19T08:58:02.312Z</time></trkpt><trkpt lat="39.8843023" lon="9.6569555"><ele>25.0</ele><time>2026-04-19T08:58:06.312Z</time></trkpt><trkpt lat="39.884249" lon="9.6570042"><ele>25.000000000000004</ele><time>2026-04-19T08:58:08.312Z</time></trkpt><trkpt lat="39.884186" lon="9.6570576"><ele>25.0</ele><time>2026-04-19T08:58:10.313Z</time></trkpt><trkpt lat="39.8841216" lon="9.6571167"><ele>24.28571428571429</ele><time>2026-04-19T08:58:12.312Z</time></trkpt><trkpt lat="39.8840639" lon="9.65717"><ele>23.571428571428573</ele><time>2026-04-19T08:58:14.313Z</time></trkpt><trkpt lat="39.8840085" lon="9.6572193"><ele>22.857142857142858</ele><time>2026-04-19T08:58:16.313Z</time></trkpt><trkpt lat="39.8839522" lon="9.6572724"><ele>22.142857142857146</ele><time>2026-04-19T08:58:18.313Z</time></trkpt><trkpt lat="39.8838936" lon="9.6573252"><ele>21.42857142857143</ele><time>2026-04-19T08:58:20.312Z</time></trkpt><trkpt lat="39.8838339" lon="9.6573815"><ele>20.714285714285715</ele><time>2026-04-19T08:58:22.313Z</time></trkpt><trkpt lat="39.8837763" lon="9.6574368"><ele>20.0</ele><time>2026-04-19T08:58:24.313Z</time></trkpt><trkpt lat="39.88372" lon="9.6574902"><ele>20.0</ele><time>2026-04-19T08:58:26.312Z</time></trkpt><trkpt lat="39.8836622" lon="9.6575419"><ele>20.0</ele><time>2026-04-19T08:58:28.312Z</time></trkpt><trkpt lat="39.8836059" lon="9.6575931"><ele>20.0</ele><time>2026-04-19T08:58:30.313Z</time></trkpt><trkpt lat="39.8835466" lon="9.6576433"><ele>20.0</ele><time>2026-04-19T08:58:32.312Z</time></trkpt><trkpt lat="39.8834862" lon="9.6576994"><ele>20.0</ele><time>2026-04-19T08:58:34.312Z</time></trkpt><trkpt lat="39.8834252" lon="9.657756"><ele>20.0</ele><time>2026-04-19T08:58:36.313Z</time></trkpt><trkpt lat="39.8833616" lon="9.6578147"><ele>20.0</ele><time>2026-04-19T08:58:38.312Z</time></trkpt><trkpt lat="39.8832998" lon="9.6578699"><ele>19.5</ele><time>2026-04-19T08:58:40.313Z</time></trkpt><trkpt lat="39.8832355" lon="9.6579257"><ele>19.0</ele><time>2026-04-19T08:58:42.312Z</time></trkpt><trkpt lat="39.8831707" lon="9.6579826"><ele>18.5</ele><time>2026-04-19T08:58:44.313Z</time></trkpt><trkpt lat="39.8831063" lon="9.658041"><ele>18.0</ele><time>2026-04-19T08:58:46.313Z</time></trkpt><trkpt lat="39.8830421" lon="9.6581018"><ele>17.5</ele><time>2026-04-19T08:58:48.313Z</time></trkpt><trkpt lat="39.8829801" lon="9.6581599"><ele>17.0</ele><time>2026-04-19T08:58:50.313Z</time></trkpt><trkpt lat="39.8829211" lon="9.6582167"><ele>16.999999999999996</ele><time>2026-04-19T08:58:52.313Z</time></trkpt><trkpt lat="39.882864" lon="9.6582684"><ele>17.0</ele><time>2026-04-19T08:58:54.313Z</time></trkpt><trkpt lat="39.8828123" lon="9.6583218"><ele>17.0</ele><time>2026-04-19T08:58:56.312Z</time></trkpt><trkpt lat="39.8827584" lon="9.6583755"><ele>17.0</ele><time>2026-04-19T08:58:58.313Z</time></trkpt><trkpt lat="39.882702" lon="9.658435"><ele>17.0</ele><time>2026-04-19T08:59:00.312Z</time></trkpt><trkpt lat="39.8826494" lon="9.658498"><ele>16.999999999999996</ele><time>2026-04-19T08:59:02.313Z</time></trkpt><trkpt lat="39.8826006" lon="9.6585688"><ele>17.0</ele><time>2026-04-19T08:59:04.312Z</time></trkpt><trkpt lat="39.8825523" lon="9.6586416"><ele>16.5</ele><time>2026-04-19T08:59:06.312Z</time></trkpt><trkpt lat="39.8825069" lon="9.6587225"><ele>16.0</ele><time>2026-04-19T08:59:08.313Z</time></trkpt><trkpt lat="39.8824663" lon="9.6588124"><ele>15.5</ele><time>2026-04-19T08:59:10.313Z</time></trkpt><trkpt lat="39.8824277" lon="9.6589028"><ele>15.0</ele><time>2026-04-19T08:59:12.312Z</time></trkpt><trkpt lat="39.8823898" lon="9.6589876"><ele>14.500000000000002</ele><time>2026-04-19T08:59:14.312Z</time></trkpt><trkpt lat="39.8823539" lon="9.6590715"><ele>14.0</ele><time>2026-04-19T08:59:16.313Z</time></trkpt><trkpt lat="39.8823199" lon="9.659156"><ele>14.0</ele><time>2026-04-19T08:59:18.312Z</time></trkpt><trkpt lat="39.882283" lon="9.6592375"><ele>14.0</ele><time>2026-04-19T08:59:20.313Z</time></trkpt><trkpt lat="39.8822493" lon="9.6593185"><ele>14.0</ele><time>2026-04-19T08:59:22.313Z</time></trkpt><trkpt lat="39.8822238" lon="9.6593941"><ele>14.0</ele><time>2026-04-19T08:59:24.312Z</time></trkpt><trkpt lat="39.8822381" lon="9.6594925"><ele>14.0</ele><time>2026-04-19T08:59:27.312Z</time></trkpt><trkpt lat="39.882282" lon="9.6595525"><ele>14.0</ele><time>2026-04-19T09:00:35.312Z</time></trkpt><trkpt lat="39.8823045" lon="9.6596336"><ele>14.0</ele><time>2026-04-19T09:00:38.312Z</time></trkpt><trkpt lat="39.8823299" lon="9.6597377"><ele>14.285714285714285</ele><time>2026-04-19T09:00:41.312Z</time></trkpt><trkpt lat="39.882349" lon="9.6598192"><ele>14.571428571428571</ele><time>2026-04-19T09:00:43.313Z</time></trkpt><trkpt lat="39.8823704" lon="9.6598968"><ele>14.857142857142858</ele><time>2026-04-19T09:00:45.312Z</time></trkpt><trkpt lat="39.8824038" lon="9.6600117"><ele>15.142857142857142</ele><time>2026-04-19T09:00:48.313Z</time></trkpt><trkpt lat="39.8824386" lon="9.6601263"><ele>15.428571428571427</ele><time>2026-04-19T09:00:51.312Z</time></trkpt><trkpt lat="39.8824613" lon="9.6602058"><ele>15.714285714285714</ele><time>2026-04-19T09:00:53.313Z</time></trkpt><trkpt lat="39.8824827" lon="9.6602855"><ele>16.0</ele><time>2026-04-19T09:00:55.313Z</time></trkpt><trkpt lat="39.8825139" lon="9.6603989"><ele>15.999999999999998</ele><time>2026-04-19T09:00:58.313Z</time></trkpt><trkpt lat="39.8825489" lon="9.6605104"><ele>16.0</ele><time>2026-04-19T09:01:01.313Z</time></trkpt><trkpt lat="39.8825791" lon="9.6606169"><ele>16.0</ele><time>2026-04-19T09:01:04.313Z</time></trkpt><trkpt lat="39.8825977" lon="9.6607256"><ele>16.0</ele><time>2026-04-19T09:01:07.312Z</time></trkpt><trkpt lat="39.8826033" lon="9.6608261"><ele>15.999999999999998</ele><time>2026-04-19T09:01:09.313Z</time></trkpt><trkpt lat="39.8825997" lon="9.660923"><ele>16.0</ele><time>2026-04-19T09:01:11.313Z</time></trkpt><trkpt lat="39.8825925" lon="9.6610114"><ele>15.999999999999998</ele><time>2026-04-19T09:01:13.313Z</time></trkpt><trkpt lat="39.8825884" lon="9.6610948"><ele>16.0</ele><time>2026-04-19T09:01:15.311Z</time></trkpt><trkpt lat="39.8825826" lon="9.6612146"><ele>16.0</ele><time>2026-04-19T09:01:18.312Z</time></trkpt><trkpt lat="39.8825819" lon="9.6613273"><ele>16.0</ele><time>2026-04-19T09:01:21.313Z</time></trkpt><trkpt lat="39.8825803" lon="9.6614247"><ele>15.999999999999998</ele><time>2026-04-19T09:01:24.312Z</time></trkpt><trkpt lat="39.882579" lon="9.6615254"><ele>16.0</ele><time>2026-04-19T09:01:28.311Z</time></trkpt><trkpt lat="39.8825793" lon="9.6616202"><ele>15.999999999999998</ele><time>2026-04-19T09:01:31.312Z</time></trkpt><trkpt lat="39.8825804" lon="9.6617211"><ele>16.0</ele><time>2026-04-19T09:01:34.312Z</time></trkpt><trkpt lat="39.8825945" lon="9.6618306"><ele>16.0</ele><time>2026-04-19T09:01:37.312Z</time></trkpt><trkpt lat="39.8826124" lon="9.6619359"><ele>16.0</ele><time>2026-04-19T09:01:40.312Z</time></trkpt><trkpt lat="39.8826327" lon="9.6620392"><ele>15.999999999999998</ele><time>2026-04-19T09:01:43.312Z</time></trkpt><trkpt lat="39.8826603" lon="9.6621362"><ele>16.0</ele><time>2026-04-19T09:01:46.312Z</time></trkpt><trkpt lat="39.8826911" lon="9.6622374"><ele>17.0</ele><time>2026-04-19T09:01:49.313Z</time></trkpt><trkpt lat="39.8827268" lon="9.6623403"><ele>18.0</ele><time>2026-04-19T09:01:52.312Z</time></trkpt><trkpt lat="39.8827803" lon="9.6624342"><ele>19.0</ele><time>2026-04-19T09:01:55.312Z</time></trkpt><trkpt lat="39.8828387" lon="9.662508"><ele>20.0</ele><time>2026-04-19T09:01:58.313Z</time></trkpt><trkpt lat="39.8829" lon="9.6625832"><ele>21.0</ele><time>2026-04-19T09:02:01.313Z</time></trkpt><trkpt lat="39.8829694" lon="9.6626621"><ele>22.0</ele><time>2026-04-19T09:02:04.312Z</time></trkpt><trkpt lat="39.883016" lon="9.6627215"><ele>22.0</ele><time>2026-04-19T09:02:06.312Z</time></trkpt><trkpt lat="39.8830621" lon="9.6627878"><ele>22.0</ele><time>2026-04-19T09:02:08.312Z</time></trkpt><trkpt lat="39.8831241" lon="9.6628767"><ele>22.0</ele><time>2026-04-19T09:02:11.312Z</time></trkpt><trkpt lat="39.883185" lon="9.6629546"><ele>22.0</ele><time>2026-04-19T09:02:14.313Z</time></trkpt><trkpt lat="39.8832443" lon="9.6630435"><ele>22.0</ele><time>2026-04-19T09:02:17.313Z</time></trkpt><trkpt lat="39.8833076" lon="9.663123"><ele>22.0</ele><time>2026-04-19T09:02:20.313Z</time></trkpt><trkpt lat="39.8833581" lon="9.6631855"><ele>22.0</ele><time>2026-04-19T09:02:23.313Z</time></trkpt><trkpt lat="39.8834133" lon="9.663253"><ele>22.0</ele><time>2026-04-19T09:02:26.312Z</time></trkpt><trkpt lat="39.8834795" lon="9.6633292"><ele>22.0</ele><time>2026-04-19T09:02:29.312Z</time></trkpt><trkpt lat="39.8835443" lon="9.6634018"><ele>22.0</ele><time>2026-04-19T09:02:32.312Z</time></trkpt><trkpt lat="39.883613" lon="9.663481"><ele>22.0</ele><time>2026-04-19T09:02:35.313Z</time></trkpt><trkpt lat="39.8836842" lon="9.6635578"><ele>22.0</ele><time>2026-04-19T09:02:38.313Z</time></trkpt><trkpt lat="39.8837636" lon="9.6636323"><ele>22.5</ele><time>2026-04-19T09:02:41.313Z</time></trkpt><trkpt lat="39.8838259" lon="9.6636784"><ele>23.0</ele><time>2026-04-19T09:02:43.312Z</time></trkpt><trkpt lat="39.8839084" lon="9.6637239"><ele>23.5</ele><time>2026-04-19T09:02:46.313Z</time></trkpt><trkpt lat="39.8839699" lon="9.6637429"><ele>24.0</ele><time>2026-04-19T09:02:48.313Z</time></trkpt><trkpt lat="39.8840341" lon="9.6637512"><ele>24.500000000000004</ele><time>2026-04-19T09:02:50.313Z</time></trkpt><trkpt lat="39.8841225" lon="9.663774"><ele>25.0</ele><time>2026-04-19T09:02:53.312Z</time></trkpt><trkpt lat="39.8842041" lon="9.6638049"><ele>25.333333333333336</ele><time>2026-04-19T09:02:56.311Z</time></trkpt><trkpt lat="39.88428" lon="9.6638461"><ele>25.666666666666668</ele><time>2026-04-19T09:02:59.313Z</time></trkpt><trkpt lat="39.8843482" lon="9.6639041"><ele>26.0</ele><time>2026-04-19T09:03:02.313Z</time></trkpt><trkpt lat="39.8844034" lon="9.663977"><ele>26.333333333333336</ele><time>2026-04-19T09:03:05.313Z</time></trkpt><trkpt lat="39.8844558" lon="9.6640623"><ele>26.666666666666668</ele><time>2026-04-19T09:03:08.312Z</time></trkpt><trkpt lat="39.8845054" lon="9.6641504"><ele>27.0</ele><time>2026-04-19T09:03:11.312Z</time></trkpt><trkpt lat="39.8845521" lon="9.6642408"><ele>27.0</ele><time>2026-04-19T09:03:14.313Z</time></trkpt><trkpt lat="39.8846007" lon="9.6643286"><ele>27.0</ele><time>2026-04-19T09:03:17.312Z</time></trkpt><trkpt lat="39.884647" lon="9.6644188"><ele>27.0</ele><time>2026-04-19T09:03:20.313Z</time></trkpt><trkpt lat="39.8846976" lon="9.6645143"><ele>27.0</ele><time>2026-04-19T09:03:23.312Z</time></trkpt><trkpt lat="39.8847488" lon="9.6646117"><ele>27.0</ele><time>2026-04-19T09:03:26.312Z</time></trkpt><trkpt lat="39.8847921" lon="9.6647136"><ele>27.0</ele><time>2026-04-19T09:03:29.312Z</time></trkpt><trkpt lat="39.8848318" lon="9.6648149"><ele>27.0</ele><time>2026-04-19T09:03:32.312Z</time></trkpt><trkpt lat="39.8848675" lon="9.6649201"><ele>27.0</ele><time>2026-04-19T09:03:35.312Z</time></trkpt><trkpt lat="39.8848931" lon="9.6650026"><ele>27.0</ele><time>2026-04-19T09:03:38.313Z</time></trkpt><trkpt lat="39.8849144" lon="9.6650809"><ele>27.0</ele><time>2026-04-19T09:03:41.312Z</time></trkpt><trkpt lat="39.8849414" lon="9.6651576"><ele>27.0</ele><time>2026-04-19T09:03:44.313Z</time></trkpt><trkpt lat="39.8849768" lon="9.6652387"><ele>27.0</ele><time>2026-04-19T09:03:47.313Z</time></trkpt><trkpt lat="39.8850211" lon="9.6653296"><ele>27.0</ele><time>2026-04-19T09:03:50.312Z</time></trkpt><trkpt lat="39.8850642" lon="9.6654254"><ele>28.57142857142857</ele><time>2026-04-19T09:03:53.311Z</time></trkpt><trkpt lat="39.8851013" lon="9.6655118"><ele>30.142857142857142</ele><time>2026-04-19T09:03:56.313Z</time></trkpt><trkpt lat="39.8851487" lon="9.6655772"><ele>31.714285714285715</ele><time>2026-04-19T09:03:59.313Z</time></trkpt><trkpt lat="39.8851931" lon="9.665644"><ele>33.285714285714285</ele><time>2026-04-19T09:04:02.312Z</time></trkpt><trkpt lat="39.8851999" lon="9.6657267"><ele>34.85714285714286</ele><time>2026-04-19T09:04:05.313Z</time></trkpt><trkpt lat="39.8851923" lon="9.6658102"><ele>36.42857142857142</ele><time>2026-04-19T09:04:08.312Z</time></trkpt><trkpt lat="39.8851821" lon="9.6658991"><ele>38.0</ele><time>2026-04-19T09:04:11.313Z</time></trkpt><trkpt lat="39.885173" lon="9.6659865"><ele>38.0</ele><time>2026-04-19T09:04:14.313Z</time></trkpt><trkpt lat="39.8851622" lon="9.6660744"><ele>38.0</ele><time>2026-04-19T09:04:17.313Z</time></trkpt><trkpt lat="39.8851476" lon="9.6661618"><ele>38.0</ele><time>2026-04-19T09:04:20.312Z</time></trkpt><trkpt lat="39.8851494" lon="9.6662533"><ele>38.0</ele><time>2026-04-19T09:04:23.313Z</time></trkpt><trkpt lat="39.885166" lon="9.6663483"><ele>38.0</ele><time>2026-04-19T09:04:26.312Z</time></trkpt><trkpt lat="39.8851891" lon="9.6664387"><ele>38.0</ele><time>2026-04-19T09:04:29.312Z</time></trkpt><trkpt lat="39.8852317" lon="9.6665157"><ele>38.0</ele><time>2026-04-19T09:04:32.312Z</time></trkpt><trkpt lat="39.8852851" lon="9.6665759"><ele>38.285714285714285</ele><time>2026-04-19T09:04:35.312Z</time></trkpt><trkpt lat="39.8853432" lon="9.6666239"><ele>38.57142857142858</ele><time>2026-04-19T09:04:38.312Z</time></trkpt><trkpt lat="39.8854037" lon="9.6666677"><ele>38.85714285714286</ele><time>2026-04-19T09:04:41.313Z</time></trkpt><trkpt lat="39.8854661" lon="9.6667128"><ele>39.14285714285714</ele><time>2026-04-19T09:04:44.312Z</time></trkpt><trkpt lat="39.8855252" lon="9.6667621"><ele>39.42857142857143</ele><time>2026-04-19T09:04:47.312Z</time></trkpt><trkpt lat="39.8855738" lon="9.6668251"><ele>39.714285714285715</ele><time>2026-04-19T09:04:50.313Z</time></trkpt><trkpt lat="39.8856179" lon="9.6668905"><ele>40.0</ele><time>2026-04-19T09:04:53.313Z</time></trkpt><trkpt lat="39.8856619" lon="9.6669524"><ele>40.714285714285715</ele><time>2026-04-19T09:04:56.312Z</time></trkpt><trkpt lat="39.885712" lon="9.6670126"><ele>41.42857142857143</ele><time>2026-04-19T09:04:59.312Z</time></trkpt><trkpt lat="39.8857683" lon="9.6670728"><ele>42.14285714285714</ele><time>2026-04-19T09:05:02.312Z</time></trkpt><trkpt lat="39.8858192" lon="9.6671324"><ele>42.85714285714286</ele><time>2026-04-19T09:05:05.313Z</time></trkpt><trkpt lat="39.885865" lon="9.6672042"><ele>43.57142857142858</ele><time>2026-04-19T09:05:08.313Z</time></trkpt><trkpt lat="39.8859063" lon="9.6672832"><ele>44.285714285714285</ele><time>2026-04-19T09:05:11.312Z</time></trkpt><trkpt lat="39.885939" lon="9.6673699"><ele>45.0</ele><time>2026-04-19T09:05:14.313Z</time></trkpt><trkpt lat="39.8859648" lon="9.6674571"><ele>44.857142857142854</ele><time>2026-04-19T09:05:17.312Z</time></trkpt><trkpt lat="39.8860021" lon="9.6675388"><ele>44.714285714285715</ele><time>2026-04-19T09:05:20.313Z</time></trkpt><trkpt lat="39.8860469" lon="9.667601"><ele>44.57142857142857</ele><time>2026-04-19T09:05:42.313Z</time></trkpt><trkpt lat="39.8860867" lon="9.6676656"><ele>44.42857142857143</ele><time>2026-04-19T09:11:29.312Z</time></trkpt><trkpt lat="39.8861418" lon="9.6677369"><ele>44.285714285714285</ele><time>2026-04-19T09:11:33.312Z</time></trkpt><trkpt lat="39.8861884" lon="9.6678028"><ele>44.142857142857146</ele><time>2026-04-19T09:11:36.313Z</time></trkpt><trkpt lat="39.8862385" lon="9.6678721"><ele>44.0</ele><time>2026-04-19T09:11:39.312Z</time></trkpt><trkpt lat="39.8862921" lon="9.6679403"><ele>44.0</ele><time>2026-04-19T09:11:42.313Z</time></trkpt><trkpt lat="39.8863454" lon="9.6680133"><ele>44.0</ele><time>2026-04-19T09:11:45.313Z</time></trkpt><trkpt lat="39.8863933" lon="9.6680886"><ele>44.0</ele><time>2026-04-19T09:11:48.312Z</time></trkpt><trkpt lat="39.8864419" lon="9.6681629"><ele>44.0</ele><time>2026-04-19T09:11:51.313Z</time></trkpt><trkpt lat="39.8864971" lon="9.6682295"><ele>44.0</ele><time>2026-04-19T09:11:54.312Z</time></trkpt><trkpt lat="39.8865625" lon="9.6682776"><ele>44.0</ele><time>2026-04-19T09:11:57.312Z</time></trkpt><trkpt lat="39.8866331" lon="9.6682961"><ele>44.0</ele><time>2026-04-19T09:12:00.313Z</time></trkpt><trkpt lat="39.8867039" lon="9.6682917"><ele>44.0</ele><time>2026-04-19T09:12:04.312Z</time></trkpt><trkpt lat="39.8867789" lon="9.6682829"><ele>44.0</ele><time>2026-04-19T09:12:08.312Z</time></trkpt><trkpt lat="39.8868439" lon="9.66827"><ele>44.0</ele><time>2026-04-19T09:12:11.312Z</time></trkpt><trkpt lat="39.8869113" lon="9.6682633"><ele>44.0</ele><time>2026-04-19T09:12:14.312Z</time></trkpt><trkpt lat="39.8869937" lon="9.6682619"><ele>44.0</ele><time>2026-04-19T09:12:18.312Z</time></trkpt><trkpt lat="39.8870591" lon="9.668309"><ele>44.0</ele><time>2026-04-19T09:12:21.312Z</time></trkpt><trkpt lat="39.8870849" lon="9.668395"><ele>44.83333333333333</ele><time>2026-04-19T09:12:25.312Z</time></trkpt><trkpt lat="39.8870574" lon="9.6684878"><ele>45.666666666666664</ele><time>2026-04-19T09:12:30.313Z</time></trkpt><trkpt lat="39.8870037" lon="9.6685649"><ele>46.5</ele><time>2026-04-19T09:12:34.312Z</time></trkpt><trkpt lat="39.8869488" lon="9.6686397"><ele>47.33333333333333</ele><time>2026-04-19T09:12:38.312Z</time></trkpt><trkpt lat="39.8868892" lon="9.6687136"><ele>48.166666666666664</ele><time>2026-04-19T09:12:42.313Z</time></trkpt><trkpt lat="39.8868376" lon="9.6687653"><ele>49.0</ele><time>2026-04-19T09:12:45.311Z</time></trkpt><trkpt lat="39.8867871" lon="9.6688219"><ele>49.285714285714285</ele><time>2026-04-19T09:12:48.312Z</time></trkpt><trkpt lat="39.8867312" lon="9.6688999"><ele>49.57142857142857</ele><time>2026-04-19T09:12:52.312Z</time></trkpt><trkpt lat="39.8866743" lon="9.6689665"><ele>49.85714285714286</ele><time>2026-04-19T09:12:56.313Z</time></trkpt><trkpt lat="39.8866225" lon="9.6690327"><ele>50.14285714285714</ele><time>2026-04-19T09:13:00.313Z</time></trkpt><trkpt lat="39.8865729" lon="9.6690966"><ele>50.42857142857143</ele><time>2026-04-19T09:13:04.313Z</time></trkpt><trkpt lat="39.8865237" lon="9.6691599"><ele>50.714285714285715</ele><time>2026-04-19T09:13:08.313Z</time></trkpt><trkpt lat="39.8864887" lon="9.6692311"><ele>51.0</ele><time>2026-04-19T09:13:12.312Z</time></trkpt><trkpt lat="39.8864574" lon="9.6693082"><ele>51.0</ele><time>2026-04-19T09:13:16.312Z</time></trkpt><trkpt lat="39.8864049" lon="9.6693635"><ele>51.0</ele><time>2026-04-19T09:13:20.312Z</time></trkpt><trkpt lat="39.8863605" lon="9.6694285"><ele>51.0</ele><time>2026-04-19T09:13:24.312Z</time></trkpt><trkpt lat="39.8863158" lon="9.6694959"><ele>51.0</ele><time>2026-04-19T09:13:28.313Z</time></trkpt><trkpt lat="39.8862674" lon="9.669571"><ele>51.0</ele><time>2026-04-19T09:13:32.312Z</time></trkpt><trkpt lat="39.8862274" lon="9.6696521"><ele>51.0</ele><time>2026-04-19T09:13:36.313Z</time></trkpt><trkpt lat="39.8861867" lon="9.6697336"><ele>51.0</ele><time>2026-04-19T09:13:40.312Z</time></trkpt><trkpt lat="39.8861462" lon="9.6698137"><ele>51.85714285714286</ele><time>2026-04-19T09:13:44.312Z</time></trkpt><trkpt lat="39.8861041" lon="9.6698893"><ele>52.714285714285715</ele><time>2026-04-19T09:13:48.311Z</time></trkpt><trkpt lat="39.8860543" lon="9.669963"><ele>53.57142857142857</ele><time>2026-04-19T09:13:52.312Z</time></trkpt><trkpt lat="39.8860015" lon="9.6700394"><ele>54.42857142857143</ele><time>2026-04-19T09:13:56.312Z</time></trkpt><trkpt lat="39.8859454" lon="9.6701027"><ele>55.28571428571428</ele><time>2026-04-19T09:14:00.312Z</time></trkpt><trkpt lat="39.8858823" lon="9.6701461"><ele>56.14285714285714</ele><time>2026-04-19T09:14:05.313Z</time></trkpt><trkpt lat="39.8858124" lon="9.6701758"><ele>57.0</ele><time>2026-04-19T09:14:10.313Z</time></trkpt><trkpt lat="39.8857399" lon="9.6702083"><ele>57.0</ele><time>2026-04-19T09:14:14.313Z</time></trkpt><trkpt lat="39.8856749" lon="9.6702335"><ele>56.99999999999999</ele><time>2026-04-19T09:14:18.313Z</time></trkpt><trkpt lat="39.8856089" lon="9.6702766"><ele>57.0</ele><time>2026-04-19T09:14:23.313Z</time></trkpt><trkpt lat="39.8855432" lon="9.6703211"><ele>57.0</ele><time>2026-04-19T09:14:27.311Z</time></trkpt><trkpt lat="39.8854723" lon="9.6703573"><ele>56.99999999999999</ele><time>2026-04-19T09:14:31.312Z</time></trkpt><trkpt lat="39.8854055" lon="9.6703947"><ele>57.0</ele><time>2026-04-19T09:14:35.313Z</time></trkpt><trkpt lat="39.8853385" lon="9.6704332"><ele>57.0</ele><time>2026-04-19T09:14:39.312Z</time></trkpt><trkpt lat="39.8852711" lon="9.6704724"><ele>58.333333333333336</ele><time>2026-04-19T09:14:43.312Z</time></trkpt><trkpt lat="39.8852023" lon="9.6705156"><ele>59.66666666666667</ele><time>2026-04-19T09:14:47.313Z</time></trkpt><trkpt lat="39.8851325" lon="9.6705539"><ele>61.0</ele><time>2026-04-19T09:14:51.313Z</time></trkpt><trkpt lat="39.885064" lon="9.6705982"><ele>62.333333333333336</ele><time>2026-04-19T09:14:55.313Z</time></trkpt><trkpt lat="39.8849943" lon="9.6706396"><ele>63.66666666666667</ele><time>2026-04-19T09:14:59.313Z</time></trkpt><trkpt lat="39.8849244" lon="9.6706858"><ele>65.0</ele><time>2026-04-19T09:15:03.313Z</time></trkpt><trkpt lat="39.8848521" lon="9.6707222"><ele>65.0</ele><time>2026-04-19T09:15:07.312Z</time></trkpt><trkpt lat="39.8847837" lon="9.6707612"><ele>65.0</ele><time>2026-04-19T09:15:11.313Z</time></trkpt><trkpt lat="39.8847195" lon="9.6708071"><ele>65.0</ele><time>2026-04-19T09:15:15.312Z</time></trkpt><trkpt lat="39.8846526" lon="9.6708448"><ele>65.0</ele><time>2026-04-19T09:15:19.312Z</time></trkpt><trkpt lat="39.8845879" lon="9.6708963"><ele>65.0</ele><time>2026-04-19T09:15:23.312Z</time></trkpt><trkpt lat="39.8845154" lon="9.6709394"><ele>65.0</ele><time>2026-04-19T09:15:27.313Z</time></trkpt><trkpt lat="39.8844425" lon="9.6709769"><ele>65.0</ele><time>2026-04-19T09:15:31.313Z</time></trkpt><trkpt lat="39.884365" lon="9.6710156"><ele>65.0</ele><time>2026-04-19T09:15:35.313Z</time></trkpt><trkpt lat="39.8842882" lon="9.671034"><ele>65.0</ele><time>2026-04-19T09:18:06.313Z</time></trkpt><trkpt lat="39.8842152" lon="9.6710749"><ele>65.0</ele><time>2026-04-19T09:18:09.312Z</time></trkpt><trkpt lat="39.8841543" lon="9.6711534"><ele>65.0</ele><time>2026-04-19T09:18:12.313Z</time></trkpt><trkpt lat="39.8840962" lon="9.6711967"><ele>65.0</ele><time>2026-04-19T09:18:15.312Z</time></trkpt><trkpt lat="39.8840413" lon="9.6712728"><ele>65.42857142857143</ele><time>2026-04-19T09:18:18.312Z</time></trkpt><trkpt lat="39.8839811" lon="9.6713658"><ele>65.85714285714286</ele><time>2026-04-19T09:18:21.312Z</time></trkpt><trkpt lat="39.8839464" lon="9.6714362"><ele>66.28571428571428</ele><time>2026-04-19T09:18:23.312Z</time></trkpt><trkpt lat="39.8839117" lon="9.6715085"><ele>66.71428571428572</ele><time>2026-04-19T09:18:25.313Z</time></trkpt><trkpt lat="39.8838839" lon="9.6715862"><ele>67.14285714285714</ele><time>2026-04-19T09:18:27.313Z</time></trkpt><trkpt lat="39.883858" lon="9.671669"><ele>67.57142857142857</ele><time>2026-04-19T09:18:29.313Z</time></trkpt><trkpt lat="39.883824" lon="9.6717488"><ele>68.0</ele><time>2026-04-19T09:18:31.312Z</time></trkpt><trkpt lat="39.8837944" lon="9.6718265"><ele>68.0</ele><time>2026-04-19T09:18:33.313Z</time></trkpt><trkpt lat="39.8837627" lon="9.6719032"><ele>68.0</ele><time>2026-04-19T09:18:35.313Z</time></trkpt><trkpt lat="39.8837188" lon="9.6720003"><ele>68.0</ele><time>2026-04-19T09:18:38.313Z</time></trkpt><trkpt lat="39.8836877" lon="9.6720729"><ele>68.0</ele><time>2026-04-19T09:18:40.312Z</time></trkpt><trkpt lat="39.8836604" lon="9.6721469"><ele>68.0</ele><time>2026-04-19T09:18:42.312Z</time></trkpt><trkpt lat="39.8836206" lon="9.6722523"><ele>68.0</ele><time>2026-04-19T09:18:45.313Z</time></trkpt><trkpt lat="39.8835737" lon="9.6723404"><ele>67.57142857142857</ele><time>2026-04-19T09:18:48.312Z</time></trkpt><trkpt lat="39.8835342" lon="9.6724056"><ele>67.14285714285714</ele><time>2026-04-19T09:18:51.312Z</time></trkpt><trkpt lat="39.8834852" lon="9.6724638"><ele>66.71428571428572</ele><time>2026-04-19T09:18:56.313Z</time></trkpt><trkpt lat="39.8834377" lon="9.6725277"><ele>66.28571428571428</ele><time>2026-04-19T09:19:49.313Z</time></trkpt><trkpt lat="39.88339" lon="9.6725868"><ele>65.85714285714286</ele><time>2026-04-19T09:19:52.313Z</time></trkpt><trkpt lat="39.8833353" lon="9.6726457"><ele>65.42857142857143</ele><time>2026-04-19T09:19:54.313Z</time></trkpt><trkpt lat="39.8832642" lon="9.6727141"><ele>65.0</ele><time>2026-04-19T09:19:56.313Z</time></trkpt><trkpt lat="39.8831815" lon="9.6727935"><ele>65.0</ele><time>2026-04-19T09:19:58.312Z</time></trkpt><trkpt lat="39.8831228" lon="9.672913"><ele>65.0</ele><time>2026-04-19T09:20:00.313Z</time></trkpt><trkpt lat="39.8830762" lon="9.6730289"><ele>65.0</ele><time>2026-04-19T09:20:02.312Z</time></trkpt><trkpt lat="39.8830671" lon="9.6731406"><ele>65.0</ele><time>2026-04-19T09:20:04.312Z</time></trkpt><trkpt lat="39.8830753" lon="9.6732401"><ele>65.0</ele><time>2026-04-19T09:20:06.313Z</time></trkpt><trkpt lat="39.8830953" lon="9.6733515"><ele>65.0</ele><time>2026-04-19T09:20:09.312Z</time></trkpt><trkpt lat="39.8831205" lon="9.6734368"><ele>65.0</ele><time>2026-04-19T09:20:12.313Z</time></trkpt><trkpt lat="39.8831574" lon="9.6735228"><ele>65.0</ele><time>2026-04-19T09:20:15.312Z</time></trkpt><trkpt lat="39.8831783" lon="9.6736248"><ele>65.0</ele><time>2026-04-19T09:20:18.312Z</time></trkpt><trkpt lat="39.8832249" lon="9.6737292"><ele>65.0</ele><time>2026-04-19T09:20:21.312Z</time></trkpt><trkpt lat="39.8832538" lon="9.6738085"><ele>65.0</ele><time>2026-04-19T09:20:24.313Z</time></trkpt><trkpt lat="39.8832952" lon="9.6738831"><ele>64.16666666666667</ele><time>2026-04-19T09:20:27.313Z</time></trkpt><trkpt lat="39.8833545" lon="9.6739318"><ele>63.333333333333336</ele><time>2026-04-19T09:20:32.312Z</time></trkpt><trkpt lat="39.8834499" lon="9.6739918"><ele>62.5</ele><time>2026-04-19T09:20:35.312Z</time></trkpt><trkpt lat="39.8835679" lon="9.6740408"><ele>61.66666666666667</ele><time>2026-04-19T09:20:37.313Z</time></trkpt><trkpt lat="39.8836427" lon="9.6740513"><ele>60.833333333333336</ele><time>2026-04-19T09:20:38.313Z</time></trkpt><trkpt lat="39.8837093" lon="9.6740536"><ele>60.0</ele><time>2026-04-19T09:20:39.312Z</time></trkpt><trkpt lat="39.8837754" lon="9.6740619"><ele>59.333333333333336</ele><time>2026-04-19T09:20:40.313Z</time></trkpt><trkpt lat="39.8838981" lon="9.6740952"><ele>58.66666666666667</ele><time>2026-04-19T09:20:42.312Z</time></trkpt><trkpt lat="39.8839678" lon="9.6741163"><ele>58.0</ele><time>2026-04-19T09:20:43.313Z</time></trkpt><trkpt lat="39.8840383" lon="9.6741406"><ele>57.333333333333336</ele><time>2026-04-19T09:20:44.312Z</time></trkpt><trkpt lat="39.8841115" lon="9.6741674"><ele>56.66666666666667</ele><time>2026-04-19T09:20:45.312Z</time></trkpt><trkpt lat="39.8841877" lon="9.6741963"><ele>56.0</ele><time>2026-04-19T09:20:46.312Z</time></trkpt><trkpt lat="39.8842671" lon="9.6742207"><ele>55.66666666666667</ele><time>2026-04-19T09:20:47.312Z</time></trkpt><trkpt lat="39.8843467" lon="9.674252"><ele>55.333333333333336</ele><time>2026-04-19T09:20:48.312Z</time></trkpt><trkpt lat="39.8844236" lon="9.6742983"><ele>55.0</ele><time>2026-04-19T09:20:49.312Z</time></trkpt><trkpt lat="39.8845013" lon="9.674354"><ele>54.66666666666667</ele><time>2026-04-19T09:20:50.313Z</time></trkpt><trkpt lat="39.8845779" lon="9.6744115"><ele>54.333333333333336</ele><time>2026-04-19T09:20:51.313Z</time></trkpt><trkpt lat="39.884651" lon="9.6744715"><ele>54.0</ele><time>2026-04-19T09:20:52.312Z</time></trkpt><trkpt lat="39.8847259" lon="9.6745275"><ele>52.5</ele><time>2026-04-19T09:20:53.312Z</time></trkpt><trkpt lat="39.8848014" lon="9.6745794"><ele>51.0</ele><time>2026-04-19T09:20:54.313Z</time></trkpt><trkpt lat="39.8848773" lon="9.6746296"><ele>49.5</ele><time>2026-04-19T09:20:55.312Z</time></trkpt><trkpt lat="39.884943" lon="9.674677"><ele>48.0</ele><time>2026-04-19T09:20:56.312Z</time></trkpt><trkpt lat="39.8849977" lon="9.6747227"><ele>46.5</ele><time>2026-04-19T09:20:57.313Z</time></trkpt><trkpt lat="39.8850352" lon="9.6747909"><ele>45.0</ele><time>2026-04-19T09:20:58.312Z</time></trkpt><trkpt lat="39.885067" lon="9.6749398"><ele>45.0</ele><time>2026-04-19T09:21:00.313Z</time></trkpt><trkpt lat="39.8850739" lon="9.6750935"><ele>45.0</ele><time>2026-04-19T09:21:02.312Z</time></trkpt><trkpt lat="39.885077" lon="9.6752288"><ele>45.0</ele><time>2026-04-19T09:21:04.312Z</time></trkpt><trkpt lat="39.8850853" lon="9.6753429"><ele>45.0</ele><time>2026-04-19T09:21:06.313Z</time></trkpt><trkpt lat="39.8850919" lon="9.6754356"><ele>45.0</ele><time>2026-04-19T09:21:08.311Z</time></trkpt><trkpt lat="39.885099" lon="9.6755247"><ele>45.166666666666664</ele><time>2026-04-19T09:21:10.313Z</time></trkpt><trkpt lat="39.8851047" lon="9.6756066"><ele>45.333333333333336</ele><time>2026-04-19T09:21:12.311Z</time></trkpt><trkpt lat="39.8851045" lon="9.6757279"><ele>45.5</ele><time>2026-04-19T09:21:15.312Z</time></trkpt><trkpt lat="39.8851045" lon="9.6758151"><ele>45.66666666666667</ele><time>2026-04-19T09:21:17.313Z</time></trkpt><trkpt lat="39.8851114" lon="9.6759298"><ele>45.833333333333336</ele><time>2026-04-19T09:21:20.313Z</time></trkpt><trkpt lat="39.8851291" lon="9.6758502"><ele>46.0</ele><time>2026-04-19T09:21:28.312Z</time></trkpt><trkpt lat="39.8851157" lon="9.6757379"><ele>46.0</ele><time>2026-04-19T09:21:33.313Z</time></trkpt><trkpt lat="39.885127" lon="9.6756226"><ele>46.0</ele><time>2026-04-19T09:21:36.313Z</time></trkpt><trkpt lat="39.8851162" lon="9.6755249"><ele>46.0</ele><time>2026-04-19T09:21:39.313Z</time></trkpt><trkpt lat="39.8851044" lon="9.675413"><ele>46.0</ele><time>2026-04-19T09:21:42.313Z</time></trkpt><trkpt lat="39.8851" lon="9.6753092"><ele>46.0</ele><time>2026-04-19T09:21:44.312Z</time></trkpt><trkpt lat="39.8850944" lon="9.6751943"><ele>46.0</ele><time>2026-04-19T09:21:46.312Z</time></trkpt><trkpt lat="39.8850912" lon="9.6750752"><ele>45.833333333333336</ele><time>2026-04-19T09:21:48.312Z</time></trkpt><trkpt lat="39.8850911" lon="9.6749637"><ele>45.66666666666667</ele><time>2026-04-19T09:21:50.312Z</time></trkpt><trkpt lat="39.8850793" lon="9.6748655"><ele>45.5</ele><time>2026-04-19T09:21:52.311Z</time></trkpt><trkpt lat="39.8850582" lon="9.6747865"><ele>45.333333333333336</ele><time>2026-04-19T09:21:54.313Z</time></trkpt><trkpt lat="39.8850088" lon="9.6747023"><ele>45.166666666666664</ele><time>2026-04-19T09:21:57.312Z</time></trkpt><trkpt lat="39.8849388" lon="9.6746502"><ele>45.0</ele><time>2026-04-19T09:22:00.312Z</time></trkpt><trkpt lat="39.8848718" lon="9.6746085"><ele>45.0</ele><time>2026-04-19T09:22:03.312Z</time></trkpt><trkpt lat="39.8848064" lon="9.6745619"><ele>45.0</ele><time>2026-04-19T09:22:06.312Z</time></trkpt><trkpt lat="39.8847354" lon="9.6745333"><ele>45.0</ele><time>2026-04-19T09:22:09.312Z</time></trkpt><trkpt lat="39.8846706" lon="9.674483"><ele>45.0</ele><time>2026-04-19T09:22:12.313Z</time></trkpt><trkpt lat="39.8846091" lon="9.6744326"><ele>45.0</ele><time>2026-04-19T09:22:15.312Z</time></trkpt><trkpt lat="39.884546" lon="9.6743811"><ele>45.0</ele><time>2026-04-19T09:22:18.313Z</time></trkpt><trkpt lat="39.8844832" lon="9.6743336"><ele>45.0</ele><time>2026-04-19T09:22:21.313Z</time></trkpt><trkpt lat="39.8844276" lon="9.6742899"><ele>46.285714285714285</ele><time>2026-04-19T09:22:24.312Z</time></trkpt><trkpt lat="39.8843534" lon="9.6742492"><ele>47.57142857142858</ele><time>2026-04-19T09:22:28.313Z</time></trkpt><trkpt lat="39.8842916" lon="9.674222"><ele>48.85714285714286</ele><time>2026-04-19T09:22:31.312Z</time></trkpt><trkpt lat="39.884211" lon="9.674197"><ele>50.14285714285714</ele><time>2026-04-19T09:22:35.312Z</time></trkpt><trkpt lat="39.8841496" lon="9.6741761"><ele>51.42857142857143</ele><time>2026-04-19T09:22:38.312Z</time></trkpt><trkpt lat="39.8840797" lon="9.6741504"><ele>52.714285714285715</ele><time>2026-04-19T09:22:42.312Z</time></trkpt><trkpt lat="39.8840024" lon="9.6741235"><ele>54.0</ele><time>2026-04-19T09:22:46.312Z</time></trkpt><trkpt lat="39.8839282" lon="9.6740995"><ele>54.285714285714285</ele><time>2026-04-19T09:22:50.313Z</time></trkpt><trkpt lat="39.8838578" lon="9.6740799"><ele>54.57142857142857</ele><time>2026-04-19T09:22:54.312Z</time></trkpt><trkpt lat="39.8837923" lon="9.6740597"><ele>54.85714285714286</ele><time>2026-04-19T09:22:58.313Z</time></trkpt><trkpt lat="39.883724" lon="9.6740441"><ele>55.14285714285714</ele><time>2026-04-19T09:23:02.313Z</time></trkpt><trkpt lat="39.8836463" lon="9.6740341"><ele>55.42857142857143</ele><time>2026-04-19T09:23:06.313Z</time></trkpt><trkpt lat="39.8835713" lon="9.674035"><ele>55.714285714285715</ele><time>2026-04-19T09:23:10.312Z</time></trkpt><trkpt lat="39.8834942" lon="9.6740048"><ele>56.0</ele><time>2026-04-19T09:23:14.313Z</time></trkpt><trkpt lat="39.8834292" lon="9.6739735"><ele>56.57142857142857</ele><time>2026-04-19T09:23:18.312Z</time></trkpt><trkpt lat="39.8833708" lon="9.6739336"><ele>57.14285714285714</ele><time>2026-04-19T09:23:22.312Z</time></trkpt><trkpt lat="39.883314" lon="9.6738912"><ele>57.714285714285715</ele><time>2026-04-19T09:23:26.312Z</time></trkpt><trkpt lat="39.8832643" lon="9.673816"><ele>58.285714285714285</ele><time>2026-04-19T09:23:31.312Z</time></trkpt><trkpt lat="39.8832251" lon="9.6737254"><ele>58.857142857142854</ele><time>2026-04-19T09:23:36.312Z</time></trkpt><trkpt lat="39.8831949" lon="9.67364"><ele>59.42857142857143</ele><time>2026-04-19T09:23:41.312Z</time></trkpt><trkpt lat="39.8831665" lon="9.6735632"><ele>60.0</ele><time>2026-04-19T09:23:45.313Z</time></trkpt><trkpt lat="39.8831427" lon="9.6734666"><ele>60.833333333333336</ele><time>2026-04-19T09:26:20.312Z</time></trkpt><trkpt lat="39.8831106" lon="9.6733668"><ele>61.66666666666667</ele><time>2026-04-19T09:26:24.312Z</time></trkpt><trkpt lat="39.8830915" lon="9.673285"><ele>62.5</ele><time>2026-04-19T09:26:26.313Z</time></trkpt><trkpt lat="39.8830884" lon="9.673184"><ele>63.333333333333336</ele><time>2026-04-19T09:26:28.312Z</time></trkpt><trkpt lat="39.8830904" lon="9.6730889"><ele>64.16666666666667</ele><time>2026-04-19T09:26:30.312Z</time></trkpt><trkpt lat="39.883111" lon="9.6729902"><ele>65.0</ele><time>2026-04-19T09:26:32.312Z</time></trkpt><trkpt lat="39.8831515" lon="9.6728875"><ele>65.00000000000001</ele><time>2026-04-19T09:26:35.312Z</time></trkpt><trkpt lat="39.8831924" lon="9.6728077"><ele>65.0</ele><time>2026-04-19T09:26:38.313Z</time></trkpt><trkpt lat="39.8832522" lon="9.6727522"><ele>65.0</ele><time>2026-04-19T09:26:41.312Z</time></trkpt><trkpt lat="39.8833051" lon="9.6727071"><ele>65.0</ele><time>2026-04-19T09:26:44.313Z</time></trkpt><trkpt lat="39.8833645" lon="9.6726447"><ele>65.0</ele><time>2026-04-19T09:26:48.312Z</time></trkpt><trkpt lat="39.8834141" lon="9.6725846"><ele>65.00000000000001</ele><time>2026-04-19T09:26:51.312Z</time></trkpt><trkpt lat="39.8834643" lon="9.6725319"><ele>65.0</ele><time>2026-04-19T09:26:54.313Z</time></trkpt><trkpt lat="39.8835139" lon="9.6724553"><ele>66.66666666666667</ele><time>2026-04-19T09:26:58.313Z</time></trkpt><trkpt lat="39.8835641" lon="9.672383"><ele>68.33333333333334</ele><time>2026-04-19T09:27:03.313Z</time></trkpt><trkpt lat="39.8836042" lon="9.6723127"><ele>70.0</ele><time>2026-04-19T09:27:06.312Z</time></trkpt><trkpt lat="39.8836364" lon="9.6722359"><ele>71.66666666666667</ele><time>2026-04-19T09:27:08.313Z</time></trkpt><trkpt lat="39.8836775" lon="9.6721438"><ele>73.33333333333333</ele><time>2026-04-19T09:27:10.312Z</time></trkpt><trkpt lat="39.8837213" lon="9.6720435"><ele>75.0</ele><time>2026-04-19T09:27:12.312Z</time></trkpt><trkpt lat="39.8837624" lon="9.6719442"><ele>73.6</ele><time>2026-04-19T09:27:14.313Z</time></trkpt><trkpt lat="39.8838045" lon="9.6718405"><ele>72.2</ele><time>2026-04-19T09:27:16.311Z</time></trkpt><trkpt lat="39.8838513" lon="9.6717308"><ele>70.8</ele><time>2026-04-19T09:27:18.312Z</time></trkpt><trkpt lat="39.8838941" lon="9.6716199"><ele>69.4</ele><time>2026-04-19T09:27:20.312Z</time></trkpt><trkpt lat="39.883936" lon="9.6715078"><ele>68.0</ele><time>2026-04-19T09:27:22.313Z</time></trkpt><trkpt lat="39.8839787" lon="9.6713926"><ele>68.0</ele><time>2026-04-19T09:27:24.312Z</time></trkpt><trkpt lat="39.8840437" lon="9.6712856"><ele>68.0</ele><time>2026-04-19T09:27:26.312Z</time></trkpt><trkpt lat="39.8841139" lon="9.671193"><ele>68.0</ele><time>2026-04-19T09:27:28.312Z</time></trkpt><trkpt lat="39.8841882" lon="9.6711203"><ele>68.0</ele><time>2026-04-19T09:27:30.312Z</time></trkpt><trkpt lat="39.8842709" lon="9.6710551"><ele>68.0</ele><time>2026-04-19T09:27:32.312Z</time></trkpt><trkpt lat="39.8843585" lon="9.6710169"><ele>67.4</ele><time>2026-04-19T09:27:34.313Z</time></trkpt><trkpt lat="39.8844423" lon="9.6709743"><ele>66.8</ele><time>2026-04-19T09:27:36.313Z</time></trkpt><trkpt lat="39.8845293" lon="9.670928"><ele>66.2</ele><time>2026-04-19T09:27:38.312Z</time></trkpt><trkpt lat="39.8846214" lon="9.6708718"><ele>65.6</ele><time>2026-04-19T09:27:40.312Z</time></trkpt><trkpt lat="39.8847285" lon="9.6708088"><ele>65.0</ele><time>2026-04-19T09:27:42.313Z</time></trkpt><trkpt lat="39.8847864" lon="9.6707718"><ele>65.0</ele><time>2026-04-19T09:27:43.312Z</time></trkpt><trkpt lat="39.8848461" lon="9.6707279"><ele>65.0</ele><time>2026-04-19T09:27:44.313Z</time></trkpt><trkpt lat="39.8849119" lon="9.670689"><ele>65.0</ele><time>2026-04-19T09:27:45.312Z</time></trkpt><trkpt lat="39.8849816" lon="9.6706526"><ele>65.0</ele><time>2026-04-19T09:27:46.312Z</time></trkpt><trkpt lat="39.8850511" lon="9.6706082"><ele>65.0</ele><time>2026-04-19T09:27:47.313Z</time></trkpt><trkpt lat="39.8851231" lon="9.6705643"><ele>65.0</ele><time>2026-04-19T09:27:48.312Z</time></trkpt><trkpt lat="39.8851954" lon="9.6705201"><ele>65.5</ele><time>2026-04-19T09:27:49.312Z</time></trkpt><trkpt lat="39.8852708" lon="9.6704765"><ele>66.0</ele><time>2026-04-19T09:27:50.312Z</time></trkpt><trkpt lat="39.8853456" lon="9.6704326"><ele>66.5</ele><time>2026-04-19T09:27:51.313Z</time></trkpt><trkpt lat="39.8854236" lon="9.6703927"><ele>67.0</ele><time>2026-04-19T09:27:52.312Z</time></trkpt><trkpt lat="39.8855023" lon="9.6703477"><ele>67.5</ele><time>2026-04-19T09:27:53.312Z</time></trkpt><trkpt lat="39.8855777" lon="9.6703015"><ele>68.0</ele><time>2026-04-19T09:27:54.312Z</time></trkpt><trkpt lat="39.8856553" lon="9.670259"><ele>67.16666666666667</ele><time>2026-04-19T09:27:55.312Z</time></trkpt><trkpt lat="39.8857336" lon="9.6702145"><ele>66.33333333333334</ele><time>2026-04-19T09:27:56.313Z</time></trkpt><trkpt lat="39.8858116" lon="9.6701732"><ele>65.5</ele><time>2026-04-19T09:27:57.312Z</time></trkpt><trkpt lat="39.8858937" lon="9.6701346"><ele>64.66666666666667</ele><time>2026-04-19T09:27:58.311Z</time></trkpt><trkpt lat="39.8859677" lon="9.6700773"><ele>63.833333333333336</ele><time>2026-04-19T09:27:59.312Z</time></trkpt><trkpt lat="39.8860305" lon="9.6700066"><ele>63.0</ele><time>2026-04-19T09:28:00.313Z</time></trkpt><trkpt lat="39.886085" lon="9.6699342"><ele>63.0</ele><time>2026-04-19T09:28:01.312Z</time></trkpt><trkpt lat="39.8861337" lon="9.6698596"><ele>63.0</ele><time>2026-04-19T09:28:02.312Z</time></trkpt><trkpt lat="39.8861765" lon="9.6697825"><ele>63.0</ele><time>2026-04-19T09:28:03.312Z</time></trkpt><trkpt lat="39.8862186" lon="9.6697052"><ele>63.0</ele><time>2026-04-19T09:28:04.312Z</time></trkpt><trkpt lat="39.8862725" lon="9.6695813"><ele>63.0</ele><time>2026-04-19T09:28:06.312Z</time></trkpt><trkpt lat="39.8863164" lon="9.6695039"><ele>63.0</ele><time>2026-04-19T09:28:08.313Z</time></trkpt><trkpt lat="39.8863574" lon="9.6694229"><ele>61.0</ele><time>2026-04-19T09:28:12.313Z</time></trkpt><trkpt lat="39.886432" lon="9.6693482"><ele>59.0</ele><time>2026-04-19T09:28:15.312Z</time></trkpt><trkpt lat="39.8864874" lon="9.6692678"><ele>57.0</ele><time>2026-04-19T09:28:17.313Z</time></trkpt><trkpt lat="39.8865424" lon="9.6691491"><ele>55.0</ele><time>2026-04-19T09:28:19.312Z</time></trkpt><trkpt lat="39.8865875" lon="9.6690874"><ele>53.0</ele><time>2026-04-19T09:28:20.312Z</time></trkpt><trkpt lat="39.8866425" lon="9.6690199"><ele>51.0</ele><time>2026-04-19T09:28:21.313Z</time></trkpt><trkpt lat="39.8866992" lon="9.6689462"><ele>50.666666666666664</ele><time>2026-04-19T09:28:22.312Z</time></trkpt><trkpt lat="39.8867621" lon="9.6688737"><ele>50.33333333333333</ele><time>2026-04-19T09:28:23.313Z</time></trkpt><trkpt lat="39.8868255" lon="9.6688012"><ele>50.0</ele><time>2026-04-19T09:28:24.312Z</time></trkpt><trkpt lat="39.8868863" lon="9.6687313"><ele>49.666666666666664</ele><time>2026-04-19T09:28:25.313Z</time></trkpt><trkpt lat="39.8869421" lon="9.6686587"><ele>49.33333333333333</ele><time>2026-04-19T09:28:26.313Z</time></trkpt><trkpt lat="39.8869893" lon="9.668582"><ele>49.0</ele><time>2026-04-19T09:28:27.312Z</time></trkpt><trkpt lat="39.8870357" lon="9.6685108"><ele>48.99999999999999</ele><time>2026-04-19T09:28:28.312Z</time></trkpt><trkpt lat="39.8870851" lon="9.6684136"><ele>49.0</ele><time>2026-04-19T09:28:30.312Z</time></trkpt><trkpt lat="39.8870714" lon="9.6683333"><ele>49.0</ele><time>2026-04-19T09:28:32.312Z</time></trkpt><trkpt lat="39.8870229" lon="9.6682712"><ele>49.0</ele><time>2026-04-19T09:28:34.313Z</time></trkpt><trkpt lat="39.8869531" lon="9.6682509"><ele>48.99999999999999</ele><time>2026-04-19T09:28:38.313Z</time></trkpt><trkpt lat="39.8868494" lon="9.6682631"><ele>49.0</ele><time>2026-04-19T09:28:41.312Z</time></trkpt><trkpt lat="39.8867548" lon="9.668282"><ele>48.0</ele><time>2026-04-19T09:28:43.312Z</time></trkpt><trkpt lat="39.8866551" lon="9.6682814"><ele>47.0</ele><time>2026-04-19T09:28:45.313Z</time></trkpt><trkpt lat="39.8865575" lon="9.6682532"><ele>46.0</ele><time>2026-04-19T09:28:47.312Z</time></trkpt><trkpt lat="39.8864718" lon="9.6681806"><ele>45.0</ele><time>2026-04-19T09:28:49.312Z</time></trkpt><trkpt lat="39.8863916" lon="9.6680709"><ele>44.0</ele><time>2026-04-19T09:28:51.313Z</time></trkpt><trkpt lat="39.886307" lon="9.6679416"><ele>44.0</ele><time>2026-04-19T09:28:53.312Z</time></trkpt><trkpt lat="39.8862597" lon="9.6678781"><ele>44.0</ele><time>2026-04-19T09:28:54.313Z</time></trkpt><trkpt lat="39.8862108" lon="9.6678118"><ele>44.0</ele><time>2026-04-19T09:28:55.313Z</time></trkpt><trkpt lat="39.8861633" lon="9.6677456"><ele>44.0</ele><time>2026-04-19T09:28:56.312Z</time></trkpt><trkpt lat="39.8861158" lon="9.6676786"><ele>44.0</ele><time>2026-04-19T09:28:57.313Z</time></trkpt><trkpt lat="39.8860693" lon="9.6676104"><ele>44.0</ele><time>2026-04-19T09:28:58.312Z</time></trkpt><trkpt lat="39.8860237" lon="9.6675434"><ele>44.0</ele><time>2026-04-19T09:28:59.312Z</time></trkpt><trkpt lat="39.8859852" lon="9.6674692"><ele>44.142857142857146</ele><time>2026-04-19T09:29:00.313Z</time></trkpt><trkpt lat="39.885954" lon="9.6673925"><ele>44.285714285714285</ele><time>2026-04-19T09:29:01.313Z</time></trkpt><trkpt lat="39.8859264" lon="9.667311"><ele>44.42857142857143</ele><time>2026-04-19T09:29:02.313Z</time></trkpt><trkpt lat="39.8858934" lon="9.6672317"><ele>44.57142857142857</ele><time>2026-04-19T09:29:03.312Z</time></trkpt><trkpt lat="39.8858501" lon="9.6671564"><ele>44.714285714285715</ele><time>2026-04-19T09:29:04.312Z</time></trkpt><trkpt lat="39.8857977" lon="9.6670882"><ele>44.857142857142854</ele><time>2026-04-19T09:29:05.312Z</time></trkpt><trkpt lat="39.8857371" lon="9.6670248"><ele>45.0</ele><time>2026-04-19T09:29:06.313Z</time></trkpt><trkpt lat="39.8856798" lon="9.666957"><ele>44.285714285714285</ele><time>2026-04-19T09:29:07.312Z</time></trkpt><trkpt lat="39.8856249" lon="9.6668891"><ele>43.57142857142858</ele><time>2026-04-19T09:29:08.313Z</time></trkpt><trkpt lat="39.8855729" lon="9.6668179"><ele>42.85714285714286</ele><time>2026-04-19T09:29:09.312Z</time></trkpt><trkpt lat="39.8855178" lon="9.6667496"><ele>42.14285714285714</ele><time>2026-04-19T09:29:10.313Z</time></trkpt><trkpt lat="39.8854595" lon="9.6666893"><ele>41.42857142857143</ele><time>2026-04-19T09:29:11.312Z</time></trkpt><trkpt lat="39.8854036" lon="9.6666417"><ele>40.714285714285715</ele><time>2026-04-19T09:29:12.313Z</time></trkpt><trkpt lat="39.8853461" lon="9.6665949"><ele>40.0</ele><time>2026-04-19T09:29:13.312Z</time></trkpt><trkpt lat="39.8852912" lon="9.6665497"><ele>40.0</ele><time>2026-04-19T09:29:14.312Z</time></trkpt><trkpt lat="39.8852461" lon="9.6664912"><ele>40.0</ele><time>2026-04-19T09:29:15.313Z</time></trkpt><trkpt lat="39.8852099" lon="9.6664229"><ele>40.0</ele><time>2026-04-19T09:29:16.312Z</time></trkpt><trkpt lat="39.8851737" lon="9.6662711"><ele>40.0</ele><time>2026-04-19T09:29:18.313Z</time></trkpt><trkpt lat="39.8851639" lon="9.6661066"><ele>40.0</ele><time>2026-04-19T09:29:20.313Z</time></trkpt><trkpt lat="39.8851822" lon="9.6659479"><ele>39.66666666666667</ele><time>2026-04-19T09:29:22.313Z</time></trkpt><trkpt lat="39.8851963" lon="9.6657889"><ele>39.333333333333336</ele><time>2026-04-19T09:29:24.312Z</time></trkpt><trkpt lat="39.8851951" lon="9.6656684"><ele>39.0</ele><time>2026-04-19T09:29:26.313Z</time></trkpt><trkpt lat="39.8851985" lon="9.6655784"><ele>38.666666666666664</ele><time>2026-04-19T09:29:28.312Z</time></trkpt><trkpt lat="39.8851465" lon="9.6655147"><ele>38.33333333333333</ele><time>2026-04-19T09:29:31.312Z</time></trkpt><trkpt lat="39.8850905" lon="9.6654315"><ele>38.0</ele><time>2026-04-19T09:29:34.312Z</time></trkpt><trkpt lat="39.8850464" lon="9.6653261"><ele>35.8</ele><time>2026-04-19T09:29:36.312Z</time></trkpt><trkpt lat="39.8849979" lon="9.6652223"><ele>33.599999999999994</ele><time>2026-04-19T09:29:38.312Z</time></trkpt><trkpt lat="39.8849514" lon="9.665115"><ele>31.400000000000002</ele><time>2026-04-19T09:29:40.312Z</time></trkpt><trkpt lat="39.8849126" lon="9.6650018"><ele>29.200000000000003</ele><time>2026-04-19T09:29:42.313Z</time></trkpt><trkpt lat="39.8848772" lon="9.6648883"><ele>27.0</ele><time>2026-04-19T09:29:44.313Z</time></trkpt><trkpt lat="39.8848368" lon="9.664782"><ele>27.0</ele><time>2026-04-19T09:29:46.313Z</time></trkpt><trkpt lat="39.8847977" lon="9.6646792"><ele>27.000000000000004</ele><time>2026-04-19T09:29:48.313Z</time></trkpt><trkpt lat="39.8847556" lon="9.6645719"><ele>27.000000000000004</ele><time>2026-04-19T09:29:50.313Z</time></trkpt><trkpt lat="39.8847063" lon="9.6644726"><ele>27.0</ele><time>2026-04-19T09:29:52.312Z</time></trkpt><trkpt lat="39.8846535" lon="9.6643787"><ele>27.0</ele><time>2026-04-19T09:29:54.312Z</time></trkpt><trkpt lat="39.8845972" lon="9.6642875"><ele>27.0</ele><time>2026-04-19T09:29:56.312Z</time></trkpt><trkpt lat="39.8845478" lon="9.6641963"><ele>27.0</ele><time>2026-04-19T09:29:58.313Z</time></trkpt><trkpt lat="39.8844997" lon="9.6641114"><ele>27.0</ele><time>2026-04-19T09:30:00.312Z</time></trkpt><trkpt lat="39.8844514" lon="9.6640355"><ele>27.0</ele><time>2026-04-19T09:30:02.313Z</time></trkpt><trkpt lat="39.8844075" lon="9.6639611"><ele>27.0</ele><time>2026-04-19T09:30:04.312Z</time></trkpt><trkpt lat="39.8843601" lon="9.6638929"><ele>27.0</ele><time>2026-04-19T09:30:06.313Z</time></trkpt><trkpt lat="39.8843056" lon="9.663837"><ele>26.714285714285715</ele><time>2026-04-19T09:30:08.313Z</time></trkpt><trkpt lat="39.884248" lon="9.6637875"><ele>26.428571428571427</ele><time>2026-04-19T09:30:10.313Z</time></trkpt><trkpt lat="39.8841819" lon="9.6637532"><ele>26.142857142857146</ele><time>2026-04-19T09:30:12.312Z</time></trkpt><trkpt lat="39.8841115" lon="9.6637306"><ele>25.857142857142858</ele><time>2026-04-19T09:30:14.313Z</time></trkpt><trkpt lat="39.8840354" lon="9.6637161"><ele>25.571428571428573</ele><time>2026-04-19T09:30:16.313Z</time></trkpt><trkpt lat="39.8839578" lon="9.6637034"><ele>25.28571428571429</ele><time>2026-04-19T09:30:18.312Z</time></trkpt><trkpt lat="39.8838877" lon="9.6636813"><ele>25.0</ele><time>2026-04-19T09:30:20.313Z</time></trkpt><trkpt lat="39.8838244" lon="9.6636499"><ele>25.333333333333336</ele><time>2026-04-19T09:30:22.313Z</time></trkpt><trkpt lat="39.8837458" lon="9.6635898"><ele>25.666666666666668</ele><time>2026-04-19T09:30:25.313Z</time></trkpt><trkpt lat="39.8836834" lon="9.6635234"><ele>26.0</ele><time>2026-04-19T09:30:28.312Z</time></trkpt><trkpt lat="39.8836254" lon="9.6634665"><ele>26.333333333333336</ele><time>2026-04-19T09:30:31.312Z</time></trkpt><trkpt lat="39.8835698" lon="9.6633875"><ele>26.666666666666668</ele><time>2026-04-19T09:30:35.313Z</time></trkpt><trkpt lat="39.8835" lon="9.6633114"><ele>27.0</ele><time>2026-04-19T09:30:39.312Z</time></trkpt><trkpt lat="39.8834456" lon="9.6632536"><ele>26.285714285714285</ele><time>2026-04-19T09:30:41.312Z</time></trkpt><trkpt lat="39.883394" lon="9.6631912"><ele>25.57142857142857</ele><time>2026-04-19T09:30:43.312Z</time></trkpt><trkpt lat="39.883346" lon="9.6631307"><ele>24.857142857142858</ele><time>2026-04-19T09:30:45.312Z</time></trkpt><trkpt lat="39.8832935" lon="9.6630659"><ele>24.142857142857142</ele><time>2026-04-19T09:30:47.312Z</time></trkpt><trkpt lat="39.8832397" lon="9.6630011"><ele>23.428571428571427</ele><time>2026-04-19T09:30:49.312Z</time></trkpt><trkpt lat="39.8831877" lon="9.6629389"><ele>22.714285714285715</ele><time>2026-04-19T09:30:51.312Z</time></trkpt><trkpt lat="39.8831356" lon="9.6628652"><ele>22.0</ele><time>2026-04-19T09:30:53.312Z</time></trkpt><trkpt lat="39.8830828" lon="9.6627842"><ele>22.0</ele><time>2026-04-19T09:30:55.312Z</time></trkpt><trkpt lat="39.8830306" lon="9.6627142"><ele>22.0</ele><time>2026-04-19T09:30:57.312Z</time></trkpt><trkpt lat="39.8829814" lon="9.6626528"><ele>22.0</ele><time>2026-04-19T09:30:59.312Z</time></trkpt><trkpt lat="39.8829138" lon="9.6625737"><ele>22.0</ele><time>2026-04-19T09:31:02.313Z</time></trkpt><trkpt lat="39.8828519" lon="9.6624957"><ele>22.0</ele><time>2026-04-19T09:31:05.312Z</time></trkpt><trkpt lat="39.882803" lon="9.6624362"><ele>22.0</ele><time>2026-04-19T09:31:07.313Z</time></trkpt><trkpt lat="39.8827645" lon="9.6623589"><ele>22.0</ele><time>2026-04-19T09:31:09.312Z</time></trkpt><trkpt lat="39.8827281" lon="9.6622804"><ele>22.0</ele><time>2026-04-19T09:31:11.312Z</time></trkpt><trkpt lat="39.8826985" lon="9.6621919"><ele>22.0</ele><time>2026-04-19T09:31:13.313Z</time></trkpt><trkpt lat="39.8826769" lon="9.6621124"><ele>22.0</ele><time>2026-04-19T09:31:15.313Z</time></trkpt><trkpt lat="39.8826615" lon="9.6620265"><ele>22.0</ele><time>2026-04-19T09:32:23.313Z</time></trkpt><trkpt lat="39.8826356" lon="9.6619444"><ele>22.0</ele><time>2026-04-19T09:33:11.313Z</time></trkpt><trkpt lat="39.8826029" lon="9.6618389"><ele>22.0</ele><time>2026-04-19T09:33:14.312Z</time></trkpt><trkpt lat="39.8825981" lon="9.6617523"><ele>22.0</ele><time>2026-04-19T09:33:39.308Z</time></trkpt><trkpt lat="39.8825899" lon="9.6616602"><ele>22.0</ele><time>2026-04-19T09:34:36.313Z</time></trkpt><trkpt lat="39.8825849" lon="9.6615592"><ele>22.0</ele><time>2026-04-19T09:34:38.318Z</time></trkpt><trkpt lat="39.8825879" lon="9.6614596"><ele>22.0</ele><time>2026-04-19T09:34:40.319Z</time></trkpt><trkpt lat="39.8825908" lon="9.6613666"><ele>22.0</ele><time>2026-04-19T09:34:42.317Z</time></trkpt><trkpt lat="39.8825986" lon="9.6612803"><ele>22.0</ele><time>2026-04-19T09:34:44.311Z</time></trkpt><trkpt lat="39.8826081" lon="9.6611948"><ele>22.0</ele><time>2026-04-19T09:34:46.314Z</time></trkpt><trkpt lat="39.882606" lon="9.6611095"><ele>21.857142857142858</ele><time>2026-04-19T09:34:48.308Z</time></trkpt><trkpt lat="39.8826121" lon="9.6610218"><ele>21.714285714285715</ele><time>2026-04-19T09:34:50.307Z</time></trkpt><trkpt lat="39.88262" lon="9.6609331"><ele>21.57142857142857</ele><time>2026-04-19T09:34:52.242Z</time></trkpt><trkpt lat="39.8826163" lon="9.6608389"><ele>21.42857142857143</ele><time>2026-04-19T09:34:54.312Z</time></trkpt><trkpt lat="39.8826199" lon="9.6607488"><ele>21.285714285714285</ele><time>2026-04-19T09:34:56.316Z</time></trkpt><trkpt lat="39.8826191" lon="9.6606574"><ele>21.142857142857142</ele><time>2026-04-19T09:34:58.3Z</time></trkpt><trkpt lat="39.8825986" lon="9.6605739"><ele>21.0</ele><time>2026-04-19T09:35:00.314Z</time></trkpt><trkpt lat="39.8825722" lon="9.6604817"><ele>20.333333333333332</ele><time>2026-04-19T09:35:02.315Z</time></trkpt><trkpt lat="39.8825394" lon="9.6603856"><ele>19.666666666666668</ele><time>2026-04-19T09:35:04.309Z</time></trkpt><trkpt lat="39.8825051" lon="9.6602836"><ele>19.0</ele><time>2026-04-19T09:35:06.314Z</time></trkpt><trkpt lat="39.882469" lon="9.6601828"><ele>18.333333333333336</ele><time>2026-04-19T09:35:08.307Z</time></trkpt><trkpt lat="39.8824366" lon="9.6600857"><ele>17.666666666666668</ele><time>2026-04-19T09:35:10.309Z</time></trkpt><trkpt lat="39.8824084" lon="9.6599861"><ele>17.0</ele><time>2026-04-19T09:35:12.307Z</time></trkpt><trkpt lat="39.8823799" lon="9.6598876"><ele>17.0</ele><time>2026-04-19T09:35:14.319Z</time></trkpt><trkpt lat="39.8823503" lon="9.6597911"><ele>17.0</ele><time>2026-04-19T09:35:16.319Z</time></trkpt><trkpt lat="39.8823246" lon="9.6596972"><ele>17.0</ele><time>2026-04-19T09:35:18.313Z</time></trkpt><trkpt lat="39.8823052" lon="9.6596031"><ele>17.0</ele><time>2026-04-19T09:35:20.318Z</time></trkpt><trkpt lat="39.8822784" lon="9.6595127"><ele>17.0</ele><time>2026-04-19T09:35:22.319Z</time></trkpt><trkpt lat="39.8822592" lon="9.6594181"><ele>17.0</ele><time>2026-04-19T09:35:24.318Z</time></trkpt><trkpt lat="39.8822765" lon="9.6593254"><ele>16.5</ele><time>2026-04-19T09:35:26.318Z</time></trkpt><trkpt lat="39.8823172" lon="9.6592404"><ele>16.0</ele><time>2026-04-19T09:35:28.318Z</time></trkpt><trkpt lat="39.8823537" lon="9.6591472"><ele>15.5</ele><time>2026-04-19T09:35:30.314Z</time></trkpt><trkpt lat="39.8823994" lon="9.6590581"><ele>15.0</ele><time>2026-04-19T09:35:32.319Z</time></trkpt><trkpt lat="39.8824418" lon="9.6589674"><ele>14.500000000000002</ele><time>2026-04-19T09:35:34.313Z</time></trkpt><trkpt lat="39.8824834" lon="9.6588761"><ele>14.0</ele><time>2026-04-19T09:35:36.318Z</time></trkpt><trkpt lat="39.8825239" lon="9.6587857"><ele>14.0</ele><time>2026-04-19T09:35:38.311Z</time></trkpt><trkpt lat="39.8825646" lon="9.6587038"><ele>14.0</ele><time>2026-04-19T09:35:40.308Z</time></trkpt><trkpt lat="39.8825996" lon="9.6586309"><ele>14.0</ele><time>2026-04-19T09:35:42.313Z</time></trkpt><trkpt lat="39.8826375" lon="9.6585563"><ele>14.0</ele><time>2026-04-19T09:35:44.31Z</time></trkpt><trkpt lat="39.8826842" lon="9.6584911"><ele>14.0</ele><time>2026-04-19T09:35:46.315Z</time></trkpt><trkpt lat="39.8827371" lon="9.6584331"><ele>14.0</ele><time>2026-04-19T09:35:48.315Z</time></trkpt><trkpt lat="39.8827903" lon="9.658376"><ele>14.0</ele><time>2026-04-19T09:35:50.314Z</time></trkpt><trkpt lat="39.8828426" lon="9.6583197"><ele>14.428571428571429</ele><time>2026-04-19T09:35:52.309Z</time></trkpt><trkpt lat="39.8828957" lon="9.6582688"><ele>14.857142857142858</ele><time>2026-04-19T09:35:54.316Z</time></trkpt><trkpt lat="39.8829508" lon="9.6582273"><ele>15.285714285714285</ele><time>2026-04-19T09:35:56.318Z</time></trkpt><trkpt lat="39.8830264" lon="9.6581544"><ele>15.714285714285714</ele><time>2026-04-19T09:35:59.314Z</time></trkpt><trkpt lat="39.8830776" lon="9.658102"><ele>16.142857142857142</ele><time>2026-04-19T09:36:01.309Z</time></trkpt><trkpt lat="39.8831312" lon="9.6580521"><ele>16.57142857142857</ele><time>2026-04-19T09:36:03.311Z</time></trkpt><trkpt lat="39.8831858" lon="9.6580061"><ele>17.0</ele><time>2026-04-19T09:36:05.313Z</time></trkpt><trkpt lat="39.8832408" lon="9.6579588"><ele>16.999999999999996</ele><time>2026-04-19T09:36:07.311Z</time></trkpt><trkpt lat="39.8832935" lon="9.6579103"><ele>17.0</ele><time>2026-04-19T09:36:09.318Z</time></trkpt><trkpt lat="39.8833466" lon="9.6578616"><ele>17.0</ele><time>2026-04-19T09:36:11.31Z</time></trkpt><trkpt lat="39.8833979" lon="9.6578111"><ele>17.0</ele><time>2026-04-19T09:36:13.316Z</time></trkpt><trkpt lat="39.8834495" lon="9.6577616"><ele>17.0</ele><time>2026-04-19T09:36:15.306Z</time></trkpt><trkpt lat="39.8835253" lon="9.6576991"><ele>16.999999999999996</ele><time>2026-04-19T09:36:18.316Z</time></trkpt><trkpt lat="39.8835823" lon="9.6576438"><ele>17.0</ele><time>2026-04-19T09:36:20.308Z</time></trkpt><trkpt lat="39.8836306" lon="9.6575874"><ele>17.428571428571427</ele><time>2026-04-19T09:36:22.308Z</time></trkpt><trkpt lat="39.8836814" lon="9.6575347"><ele>17.857142857142858</ele><time>2026-04-19T09:36:24.312Z</time></trkpt><trkpt lat="39.8837339" lon="9.6574832"><ele>18.285714285714285</ele><time>2026-04-19T09:36:26.309Z</time></trkpt><trkpt lat="39.8837856" lon="9.6574296"><ele>18.714285714285715</ele><time>2026-04-19T09:36:28.308Z</time></trkpt><trkpt lat="39.883838" lon="9.6573798"><ele>19.142857142857142</ele><time>2026-04-19T09:36:30.308Z</time></trkpt><trkpt lat="39.8838919" lon="9.6573306"><ele>19.57142857142857</ele><time>2026-04-19T09:36:32.311Z</time></trkpt><trkpt lat="39.8839458" lon="9.6572821"><ele>20.0</ele><time>2026-04-19T09:36:34.308Z</time></trkpt><trkpt lat="39.8839997" lon="9.6572337"><ele>20.0</ele><time>2026-04-19T09:36:36.312Z</time></trkpt><trkpt lat="39.8840545" lon="9.6571857"><ele>20.0</ele><time>2026-04-19T09:36:38.31Z</time></trkpt><trkpt lat="39.8841077" lon="9.6571371"><ele>20.0</ele><time>2026-04-19T09:36:40.307Z</time></trkpt><trkpt lat="39.8841605" lon="9.6570883"><ele>20.0</ele><time>2026-04-19T09:36:42.31Z</time></trkpt><trkpt lat="39.8842128" lon="9.6570389"><ele>20.0</ele><time>2026-04-19T09:36:44.319Z</time></trkpt><trkpt lat="39.8842663" lon="9.6569892"><ele>20.0</ele><time>2026-04-19T09:36:46.306Z</time></trkpt><trkpt lat="39.8843454" lon="9.6569299"><ele>20.0</ele><time>2026-04-19T09:36:49.31Z</time></trkpt><trkpt lat="39.8844152" lon="9.6568886"><ele>20.714285714285715</ele><time>2026-04-19T09:36:52.314Z</time></trkpt><trkpt lat="39.8844671" lon="9.656833"><ele>21.42857142857143</ele><time>2026-04-19T09:36:55.31Z</time></trkpt><trkpt lat="39.8845232" lon="9.6567947"><ele>22.142857142857146</ele><time>2026-04-19T09:36:58.317Z</time></trkpt><trkpt lat="39.8845756" lon="9.6567459"><ele>22.857142857142858</ele><time>2026-04-19T09:37:01.313Z</time></trkpt><trkpt lat="39.884642" lon="9.6566818"><ele>23.571428571428573</ele><time>2026-04-19T09:37:05.31Z</time></trkpt><trkpt lat="39.8846959" lon="9.6566112"><ele>24.28571428571429</ele><time>2026-04-19T09:37:09.311Z</time></trkpt><trkpt lat="39.8847541" lon="9.6565244"><ele>25.0</ele><time>2026-04-19T09:37:12.316Z</time></trkpt><trkpt lat="39.8848117" lon="9.6564692"><ele>25.0</ele><time>2026-04-19T09:37:14.31Z</time></trkpt><trkpt lat="39.8848589" lon="9.6564052"><ele>25.0</ele><time>2026-04-19T09:37:16.312Z</time></trkpt><trkpt lat="39.8849095" lon="9.6563193"><ele>25.0</ele><time>2026-04-19T09:37:18.312Z</time></trkpt><trkpt lat="39.8849756" lon="9.6562241"><ele>25.0</ele><time>2026-04-19T09:37:20.309Z</time></trkpt><trkpt lat="39.8850443" lon="9.6561141"><ele>25.0</ele><time>2026-04-19T09:37:22.311Z</time></trkpt><trkpt lat="39.8851075" lon="9.6560003"><ele>26.333333333333336</ele><time>2026-04-19T09:37:24.309Z</time></trkpt><trkpt lat="39.8851664" lon="9.6558944"><ele>27.666666666666668</ele><time>2026-04-19T09:37:26.311Z</time></trkpt><trkpt lat="39.8852262" lon="9.6557984"><ele>29.0</ele><time>2026-04-19T09:37:28.306Z</time></trkpt><trkpt lat="39.8852769" lon="9.6557052"><ele>30.333333333333336</ele><time>2026-04-19T09:37:30.31Z</time></trkpt><trkpt lat="39.8853202" lon="9.6556232"><ele>31.666666666666668</ele><time>2026-04-19T09:37:32.316Z</time></trkpt><trkpt lat="39.8853549" lon="9.65555"><ele>33.0</ele><time>2026-04-19T09:37:34.319Z</time></trkpt><trkpt lat="39.8853965" lon="9.6554853"><ele>33.0</ele><time>2026-04-19T09:37:36.308Z</time></trkpt><trkpt lat="39.8854617" lon="9.655411"><ele>33.0</ele><time>2026-04-19T09:37:39.313Z</time></trkpt><trkpt lat="39.8855188" lon="9.6553452"><ele>33.0</ele><time>2026-04-19T09:37:42.308Z</time></trkpt><trkpt lat="39.8855824" lon="9.6552816"><ele>33.0</ele><time>2026-04-19T09:37:45.307Z</time></trkpt><trkpt lat="39.8856441" lon="9.6552281"><ele>33.0</ele><time>2026-04-19T09:37:48.307Z</time></trkpt><trkpt lat="39.8857096" lon="9.6551862"><ele>33.0</ele><time>2026-04-19T09:37:51.307Z</time></trkpt><trkpt lat="39.8857732" lon="9.65514"><ele>31.71428571428571</ele><time>2026-04-19T09:37:54.312Z</time></trkpt><trkpt lat="39.8858269" lon="9.6550968"><ele>30.42857142857143</ele><time>2026-04-19T09:37:57.306Z</time></trkpt><trkpt lat="39.8858992" lon="9.6550468"><ele>29.142857142857142</ele><time>2026-04-19T09:38:01.306Z</time></trkpt><trkpt lat="39.8859662" lon="9.6549977"><ele>27.857142857142854</ele><time>2026-04-19T09:38:05.309Z</time></trkpt><trkpt lat="39.886018" lon="9.6549366"><ele>26.57142857142857</ele><time>2026-04-19T09:38:09.31Z</time></trkpt><trkpt lat="39.8860662" lon="9.6548733"><ele>25.285714285714285</ele><time>2026-04-19T09:38:13.315Z</time></trkpt><trkpt lat="39.8861301" lon="9.6547986"><ele>24.0</ele><time>2026-04-19T09:38:18.318Z</time></trkpt><trkpt lat="39.8862196" lon="9.6547744"><ele>24.0</ele><time>2026-04-19T09:38:21.312Z</time></trkpt><trkpt lat="39.8862898" lon="9.654799"><ele>24.0</ele><time>2026-04-19T09:38:23.309Z</time></trkpt><trkpt lat="39.8863633" lon="9.6548403"><ele>24.0</ele><time>2026-04-19T09:38:25.309Z</time></trkpt><trkpt lat="39.8864379" lon="9.65487"><ele>24.0</ele><time>2026-04-19T09:38:27.311Z</time></trkpt><trkpt lat="39.8865156" lon="9.6548582"><ele>24.0</ele><time>2026-04-19T09:38:29.309Z</time></trkpt><trkpt lat="39.8865846" lon="9.654849"><ele>24.0</ele><time>2026-04-19T09:38:31.31Z</time></trkpt><trkpt lat="39.8866701" lon="9.6548414"><ele>23.999999999999996</ele><time>2026-04-19T09:38:34.313Z</time></trkpt><trkpt lat="39.8867539" lon="9.6548263"><ele>24.0</ele><time>2026-04-19T09:38:37.315Z</time></trkpt><trkpt lat="39.8868218" lon="9.6548066"><ele>24.0</ele><time>2026-04-19T09:38:40.315Z</time></trkpt><trkpt lat="39.8868918" lon="9.6547929"><ele>24.0</ele><time>2026-04-19T09:38:43.315Z</time></trkpt><trkpt lat="39.8869657" lon="9.6547786"><ele>24.0</ele><time>2026-04-19T09:38:46.315Z</time></trkpt><trkpt lat="39.8870216" lon="9.6547294"><ele>23.999999999999996</ele><time>2026-04-19T09:38:48.315Z</time></trkpt><trkpt lat="39.8870784" lon="9.6546747"><ele>24.0</ele><time>2026-04-19T09:38:50.315Z</time></trkpt><trkpt lat="39.8871329" lon="9.6546284"><ele>24.166666666666668</ele><time>2026-04-19T09:38:52.315Z</time></trkpt><trkpt lat="39.8872134" lon="9.6545732"><ele>24.333333333333336</ele><time>2026-04-19T09:38:55.315Z</time></trkpt><trkpt lat="39.8872941" lon="9.6545292"><ele>24.5</ele><time>2026-04-19T09:38:58.315Z</time></trkpt><trkpt lat="39.8873766" lon="9.6544905"><ele>24.666666666666668</ele><time>2026-04-19T09:39:01.315Z</time></trkpt><trkpt lat="39.8874579" lon="9.6544613"><ele>24.833333333333336</ele><time>2026-04-19T09:39:04.315Z</time></trkpt><trkpt lat="39.8875338" lon="9.6544334"><ele>25.0</ele><time>2026-04-19T09:39:07.315Z</time></trkpt><trkpt lat="39.8876016" lon="9.6544049"><ele>25.000000000000004</ele><time>2026-04-19T09:39:10.315Z</time></trkpt><trkpt lat="39.8876731" lon="9.6543851"><ele>25.0</ele><time>2026-04-19T09:39:13.315Z</time></trkpt><trkpt lat="39.8877449" lon="9.6543718"><ele>25.0</ele><time>2026-04-19T09:39:16.315Z</time></trkpt><trkpt lat="39.88781" lon="9.6543316"><ele>25.0</ele><time>2026-04-19T09:39:19.315Z</time></trkpt><trkpt lat="39.887871" lon="9.6542793"><ele>25.000000000000004</ele><time>2026-04-19T09:39:22.315Z</time></trkpt><trkpt lat="39.8879186" lon="9.6541925"><ele>25.0</ele><time>2026-04-19T09:39:25.315Z</time></trkpt><trkpt lat="39.8879583" lon="9.6540919"><ele>25.000000000000004</ele><time>2026-04-19T09:39:28.315Z</time></trkpt><trkpt lat="39.8879819" lon="9.654002"><ele>25.0</ele><time>2026-04-19T09:39:31.315Z</time></trkpt><trkpt lat="39.887992" lon="9.6539058"><ele>25.0</ele><time>2026-04-19T09:39:35.315Z</time></trkpt><trkpt lat="39.8880373" lon="9.6538224"><ele>25.0</ele><time>2026-04-19T09:39:39.315Z</time></trkpt><trkpt lat="39.8881116" lon="9.6538122"><ele>25.0</ele><time>2026-04-19T09:39:43.315Z</time></trkpt><trkpt lat="39.8881776" lon="9.6537877"><ele>25.000000000000004</ele><time>2026-04-19T09:39:46.315Z</time></trkpt><trkpt lat="39.8882365" lon="9.6537421"><ele>25.0</ele><time>2026-04-19T09:39:49.315Z</time></trkpt><trkpt lat="39.8882965" lon="9.6537053"><ele>25.000000000000004</ele><time>2026-04-19T09:39:53.315Z</time></trkpt><trkpt lat="39.8883695" lon="9.6536987"><ele>25.0</ele><time>2026-04-19T09:39:57.315Z</time></trkpt><trkpt lat="39.8884437" lon="9.6536984"><ele>25.0</ele><time>2026-04-19T09:40:01.315Z</time></trkpt><trkpt lat="39.8885116" lon="9.653694"><ele>25.0</ele><time>2026-04-19T09:40:05.315Z</time></trkpt><trkpt lat="39.8885881" lon="9.6536908"><ele>25.0</ele><time>2026-04-19T09:40:09.315Z</time></trkpt><trkpt lat="39.8886587" lon="9.6536903"><ele>25.000000000000004</ele><time>2026-04-19T09:40:13.315Z</time></trkpt><trkpt lat="39.8887272" lon="9.6536986"><ele>25.0</ele><time>2026-04-19T09:40:17.315Z</time></trkpt><trkpt lat="39.8887984" lon="9.6537069"><ele>25.142857142857146</ele><time>2026-04-19T09:40:21.315Z</time></trkpt><trkpt lat="39.888864" lon="9.653711"><ele>25.285714285714285</ele><time>2026-04-19T09:40:24.315Z</time></trkpt><trkpt lat="39.8889338" lon="9.6537159"><ele>25.42857142857143</ele><time>2026-04-19T09:40:27.315Z</time></trkpt><trkpt lat="39.8889986" lon="9.6537141"><ele>25.571428571428573</ele><time>2026-04-19T09:40:30.315Z</time></trkpt><trkpt lat="39.8890677" lon="9.6537173"><ele>25.714285714285715</ele><time>2026-04-19T09:40:33.315Z</time></trkpt><trkpt lat="39.8891466" lon="9.6537213"><ele>25.857142857142858</ele><time>2026-04-19T09:40:36.315Z</time></trkpt><trkpt lat="39.889218" lon="9.6537249"><ele>26.0</ele><time>2026-04-19T09:40:39.315Z</time></trkpt><trkpt lat="39.8892918" lon="9.65372"><ele>26.714285714285715</ele><time>2026-04-19T09:40:42.315Z</time></trkpt><trkpt lat="39.8893636" lon="9.6537282"><ele>27.42857142857143</ele><time>2026-04-19T09:40:45.315Z</time></trkpt><trkpt lat="39.889441" lon="9.6537392"><ele>28.142857142857146</ele><time>2026-04-19T09:40:48.315Z</time></trkpt><trkpt lat="39.8895095" lon="9.6537384"><ele>28.857142857142858</ele><time>2026-04-19T09:40:51.315Z</time></trkpt><trkpt lat="39.889575" lon="9.6537376"><ele>29.571428571428577</ele><time>2026-04-19T09:40:54.314Z</time></trkpt><trkpt lat="39.8896454" lon="9.6537306"><ele>30.28571428571429</ele><time>2026-04-19T09:40:57.315Z</time></trkpt><trkpt lat="39.8897254" lon="9.6537211"><ele>31.0</ele><time>2026-04-19T09:41:00.315Z</time></trkpt><trkpt lat="39.8897981" lon="9.6537174"><ele>31.0</ele><time>2026-04-19T09:41:03.315Z</time></trkpt><trkpt lat="39.889868" lon="9.653725"><ele>31.000000000000004</ele><time>2026-04-19T09:41:06.315Z</time></trkpt><trkpt lat="39.8899379" lon="9.6537423"><ele>31.0</ele><time>2026-04-19T09:41:09.315Z</time></trkpt><trkpt lat="39.8900068" lon="9.653743"><ele>31.0</ele><time>2026-04-19T09:41:12.315Z</time></trkpt><trkpt lat="39.8900747" lon="9.6537563"><ele>31.000000000000004</ele><time>2026-04-19T09:41:15.315Z</time></trkpt><trkpt lat="39.8901367" lon="9.6537734"><ele>31.0</ele><time>2026-04-19T09:41:18.315Z</time></trkpt><trkpt lat="39.8901996" lon="9.6537771"><ele>31.0</ele><time>2026-04-19T09:41:21.315Z</time></trkpt><trkpt lat="39.8902806" lon="9.6537854"><ele>31.333333333333336</ele><time>2026-04-19T09:41:25.315Z</time></trkpt><trkpt lat="39.8903492" lon="9.6537888"><ele>31.666666666666668</ele><time>2026-04-19T09:41:28.315Z</time></trkpt><trkpt lat="39.8904238" lon="9.653799"><ele>32.0</ele><time>2026-04-19T09:41:31.315Z</time></trkpt><trkpt lat="39.8904908" lon="9.6538232"><ele>32.333333333333336</ele><time>2026-04-19T09:41:34.315Z</time></trkpt><trkpt lat="39.8905551" lon="9.6538989"><ele>32.666666666666664</ele><time>2026-04-19T09:41:37.315Z</time></trkpt><trkpt lat="39.8905359" lon="9.6539822"><ele>33.0</ele><time>2026-04-19T09:41:38.315Z</time></trkpt><trkpt lat="39.8905197" lon="9.6541274"><ele>33.0</ele><time>2026-04-19T09:41:40.315Z</time></trkpt><trkpt lat="39.8905009" lon="9.654271"><ele>33.0</ele><time>2026-04-19T09:41:42.315Z</time></trkpt><trkpt lat="39.890465" lon="9.6544008"><ele>33.0</ele><time>2026-04-19T09:41:44.315Z</time></trkpt><trkpt lat="39.8904273" lon="9.6545151"><ele>33.0</ele><time>2026-04-19T09:41:46.315Z</time></trkpt><trkpt lat="39.8904339" lon="9.6546241"><ele>33.0</ele><time>2026-04-19T09:41:48.315Z</time></trkpt><trkpt lat="39.8904793" lon="9.6546986"><ele>32.833333333333336</ele><time>2026-04-19T09:41:50.315Z</time></trkpt><trkpt lat="39.8905506" lon="9.6547611"><ele>32.666666666666664</ele><time>2026-04-19T09:41:53.315Z</time></trkpt><trkpt lat="39.8906223" lon="9.6548296"><ele>32.5</ele><time>2026-04-19T09:41:56.315Z</time></trkpt><trkpt lat="39.8906742" lon="9.6548912"><ele>32.33333333333333</ele><time>2026-04-19T09:41:59.315Z</time></trkpt><trkpt lat="39.8907444" lon="9.6549453"><ele>32.166666666666664</ele><time>2026-04-19T09:42:02.315Z</time></trkpt><trkpt lat="39.8908224" lon="9.6549802"><ele>32.0</ele><time>2026-04-19T09:42:05.315Z</time></trkpt><trkpt lat="39.8908939" lon="9.6550127"><ele>31.999999999999996</ele><time>2026-04-19T09:42:08.315Z</time></trkpt><trkpt lat="39.8909702" lon="9.6550363"><ele>32.0</ele><time>2026-04-19T09:42:11.315Z</time></trkpt><trkpt lat="39.8910514" lon="9.6550668"><ele>32.0</ele><time>2026-04-19T09:42:14.315Z</time></trkpt><trkpt lat="39.8911293" lon="9.6550988"><ele>32.0</ele><time>2026-04-19T09:42:17.315Z</time></trkpt><trkpt lat="39.8912166" lon="9.6551285"><ele>31.999999999999996</ele><time>2026-04-19T09:42:20.315Z</time></trkpt><trkpt lat="39.8913033" lon="9.6551426"><ele>32.0</ele><time>2026-04-19T09:42:23.315Z</time></trkpt><trkpt lat="39.8913903" lon="9.6551763"><ele>31.999999999999996</ele><time>2026-04-19T09:42:26.315Z</time></trkpt><trkpt lat="39.8914765" lon="9.6552051"><ele>32.0</ele><time>2026-04-19T09:42:29.315Z</time></trkpt><trkpt lat="39.8915622" lon="9.6552299"><ele>32.0</ele><time>2026-04-19T09:42:32.315Z</time></trkpt><trkpt lat="39.8916404" lon="9.6552501"><ele>32.0</ele><time>2026-04-19T09:42:35.315Z</time></trkpt><trkpt lat="39.8917224" lon="9.6552629"><ele>31.999999999999996</ele><time>2026-04-19T09:42:38.315Z</time></trkpt><trkpt lat="39.8918132" lon="9.6552839"><ele>32.0</ele><time>2026-04-19T09:42:41.315Z</time></trkpt><trkpt lat="39.8919051" lon="9.6553061"><ele>32.666666666666664</ele><time>2026-04-19T09:42:44.315Z</time></trkpt><trkpt lat="39.8919909" lon="9.6553339"><ele>33.33333333333333</ele><time>2026-04-19T09:42:47.315Z</time></trkpt><trkpt lat="39.8920568" lon="9.6553572"><ele>34.0</ele><time>2026-04-19T09:42:50.315Z</time></trkpt><trkpt lat="39.8921268" lon="9.6553753"><ele>34.666666666666664</ele><time>2026-04-19T09:42:53.315Z</time></trkpt><trkpt lat="39.8922016" lon="9.655395"><ele>35.333333333333336</ele><time>2026-04-19T09:42:56.315Z</time></trkpt><trkpt lat="39.8922753" lon="9.6554172"><ele>36.0</ele><time>2026-04-19T09:42:59.315Z</time></trkpt><trkpt lat="39.8923555" lon="9.6554422"><ele>36.0</ele><time>2026-04-19T09:43:37.315Z</time></trkpt><trkpt lat="39.8924504" lon="9.6554649"><ele>36.0</ele><time>2026-04-19T09:43:40.315Z</time></trkpt><trkpt lat="39.8925317" lon="9.6554598"><ele>36.0</ele><time>2026-04-19T09:43:42.315Z</time></trkpt><trkpt lat="39.89262" lon="9.6554929"><ele>36.0</ele><time>2026-04-19T09:43:45.315Z</time></trkpt><trkpt lat="39.8926794" lon="9.6555208"><ele>36.0</ele><time>2026-04-19T09:43:47.315Z</time></trkpt><trkpt lat="39.8927427" lon="9.6555415"><ele>36.0</ele><time>2026-04-19T09:43:49.315Z</time></trkpt><trkpt lat="39.8928089" lon="9.6555577"><ele>36.142857142857146</ele><time>2026-04-19T09:43:51.315Z</time></trkpt><trkpt lat="39.8928726" lon="9.6555791"><ele>36.285714285714285</ele><time>2026-04-19T09:43:53.315Z</time></trkpt><trkpt lat="39.8929397" lon="9.6555893"><ele>36.42857142857143</ele><time>2026-04-19T09:43:55.315Z</time></trkpt><trkpt lat="39.8930048" lon="9.6556043"><ele>36.57142857142857</ele><time>2026-04-19T09:43:57.315Z</time></trkpt><trkpt lat="39.8930682" lon="9.6556249"><ele>36.714285714285715</ele><time>2026-04-19T09:43:59.315Z</time></trkpt><trkpt lat="39.8931308" lon="9.6556457"><ele>36.85714285714286</ele><time>2026-04-19T09:44:01.315Z</time></trkpt><trkpt lat="39.893192" lon="9.6556741"><ele>37.0</ele><time>2026-04-19T09:44:03.315Z</time></trkpt><trkpt lat="39.8932755" lon="9.6557253"><ele>37.0</ele><time>2026-04-19T09:44:06.315Z</time></trkpt><trkpt lat="39.893356" lon="9.6557822"><ele>37.0</ele><time>2026-04-19T09:44:09.315Z</time></trkpt><trkpt lat="39.8934347" lon="9.6558315"><ele>37.0</ele><time>2026-04-19T09:44:12.315Z</time></trkpt><trkpt lat="39.8935131" lon="9.6558767"><ele>37.0</ele><time>2026-04-19T09:44:15.315Z</time></trkpt><trkpt lat="39.8935909" lon="9.6559292"><ele>37.0</ele><time>2026-04-19T09:44:18.315Z</time></trkpt><trkpt lat="39.893665" lon="9.6559816"><ele>37.0</ele><time>2026-04-19T09:44:21.315Z</time></trkpt><trkpt lat="39.8937385" lon="9.6560314"><ele>37.5</ele><time>2026-04-19T09:44:24.315Z</time></trkpt><trkpt lat="39.8938079" lon="9.6560917"><ele>38.0</ele><time>2026-04-19T09:44:27.315Z</time></trkpt><trkpt lat="39.893875" lon="9.6561521"><ele>38.5</ele><time>2026-04-19T09:44:30.315Z</time></trkpt><trkpt lat="39.8939432" lon="9.6562106"><ele>39.0</ele><time>2026-04-19T09:44:33.315Z</time></trkpt><trkpt lat="39.8940203" lon="9.6562481"><ele>39.5</ele><time>2026-04-19T09:44:36.315Z</time></trkpt><trkpt lat="39.8940985" lon="9.6562841"><ele>40.0</ele><time>2026-04-19T09:44:39.315Z</time></trkpt><trkpt lat="39.8941787" lon="9.6563185"><ele>40.66666666666667</ele><time>2026-04-19T09:44:42.315Z</time></trkpt><trkpt lat="39.8942629" lon="9.6563406"><ele>41.333333333333336</ele><time>2026-04-19T09:44:45.315Z</time></trkpt><trkpt lat="39.8943444" lon="9.656368"><ele>42.0</ele><time>2026-04-19T09:44:48.315Z</time></trkpt><trkpt lat="39.8944217" lon="9.656416"><ele>42.666666666666664</ele><time>2026-04-19T09:44:51.315Z</time></trkpt><trkpt lat="39.8944961" lon="9.6564605"><ele>43.33333333333333</ele><time>2026-04-19T09:44:54.315Z</time></trkpt><trkpt lat="39.8945744" lon="9.6564956"><ele>44.0</ele><time>2026-04-19T09:44:57.315Z</time></trkpt><trkpt lat="39.8946566" lon="9.6565234"><ele>44.0</ele><time>2026-04-19T09:45:00.315Z</time></trkpt><trkpt lat="39.8947356" lon="9.6565378"><ele>44.0</ele><time>2026-04-19T09:45:03.315Z</time></trkpt><trkpt lat="39.8948022" lon="9.6565512"><ele>44.0</ele><time>2026-04-19T09:45:06.315Z</time></trkpt><trkpt lat="39.8948777" lon="9.6565455"><ele>44.0</ele><time>2026-04-19T09:45:10.315Z</time></trkpt><trkpt lat="39.8949431" lon="9.6565434"><ele>44.0</ele><time>2026-04-19T09:45:13.315Z</time></trkpt><trkpt lat="39.8950145" lon="9.6565459"><ele>44.0</ele><time>2026-04-19T09:45:16.315Z</time></trkpt><trkpt lat="39.8950844" lon="9.6565704"><ele>44.0</ele><time>2026-04-19T09:45:19.315Z</time></trkpt><trkpt lat="39.8951451" lon="9.656629"><ele>44.33333333333333</ele><time>2026-04-19T09:45:22.315Z</time></trkpt><trkpt lat="39.8951943" lon="9.6567056"><ele>44.666666666666664</ele><time>2026-04-19T09:45:25.315Z</time></trkpt><trkpt lat="39.8952508" lon="9.6567667"><ele>45.0</ele><time>2026-04-19T09:45:28.315Z</time></trkpt><trkpt lat="39.8953226" lon="9.6568012"><ele>45.333333333333336</ele><time>2026-04-19T09:45:31.315Z</time></trkpt><trkpt lat="39.8953981" lon="9.6568252"><ele>45.66666666666667</ele><time>2026-04-19T09:45:34.315Z</time></trkpt><trkpt lat="39.8954757" lon="9.6568386"><ele>46.0</ele><time>2026-04-19T09:45:37.315Z</time></trkpt><trkpt lat="39.8955477" lon="9.6568621"><ele>46.0</ele><time>2026-04-19T09:45:40.315Z</time></trkpt><trkpt lat="39.8956102" lon="9.6569188"><ele>46.0</ele><time>2026-04-19T09:45:43.315Z</time></trkpt><trkpt lat="39.895675" lon="9.6569862"><ele>46.0</ele><time>2026-04-19T09:45:46.315Z</time></trkpt><trkpt lat="39.8957447" lon="9.6570424"><ele>46.0</ele><time>2026-04-19T09:45:49.315Z</time></trkpt><trkpt lat="39.8958238" lon="9.6570907"><ele>46.0</ele><time>2026-04-19T09:45:52.315Z</time></trkpt><trkpt lat="39.8958996" lon="9.6571237"><ele>46.0</ele><time>2026-04-19T09:45:55.315Z</time></trkpt><trkpt lat="39.8959902" lon="9.6571451"><ele>46.66666666666667</ele><time>2026-04-19T09:46:00.315Z</time></trkpt><trkpt lat="39.896054" lon="9.6571388"><ele>47.333333333333336</ele><time>2026-04-19T09:48:36.315Z</time></trkpt><trkpt lat="39.8961259" lon="9.657143"><ele>48.0</ele><time>2026-04-19T09:48:41.315Z</time></trkpt><trkpt lat="39.8962021" lon="9.6571574"><ele>48.66666666666667</ele><time>2026-04-19T09:48:46.315Z</time></trkpt><trkpt lat="39.8962808" lon="9.6571648"><ele>49.333333333333336</ele><time>2026-04-19T09:48:50.315Z</time></trkpt><trkpt lat="39.8963556" lon="9.6571664"><ele>50.0</ele><time>2026-04-19T09:48:54.315Z</time></trkpt><trkpt lat="39.8964389" lon="9.657164"><ele>50.00000000000001</ele><time>2026-04-19T09:48:57.315Z</time></trkpt><trkpt lat="39.8965126" lon="9.6571454"><ele>50.0</ele><time>2026-04-19T09:48:59.315Z</time></trkpt><trkpt lat="39.8965907" lon="9.6571334"><ele>50.0</ele><time>2026-04-19T09:49:01.315Z</time></trkpt><trkpt lat="39.8966767" lon="9.6571146"><ele>50.0</ele><time>2026-04-19T09:49:03.315Z</time></trkpt><trkpt lat="39.8967649" lon="9.6570732"><ele>50.00000000000001</ele><time>2026-04-19T09:49:05.315Z</time></trkpt><trkpt lat="39.8968519" lon="9.6570359"><ele>50.0</ele><time>2026-04-19T09:49:07.315Z</time></trkpt><trkpt lat="39.8969284" lon="9.6569991"><ele>50.16666666666667</ele><time>2026-04-19T09:49:09.315Z</time></trkpt><trkpt lat="39.8969927" lon="9.6569606"><ele>50.333333333333336</ele><time>2026-04-19T09:49:11.315Z</time></trkpt><trkpt lat="39.897082" lon="9.656928"><ele>50.5</ele><time>2026-04-19T09:49:14.315Z</time></trkpt><trkpt lat="39.8971574" lon="9.6569666"><ele>50.66666666666667</ele><time>2026-04-19T09:49:16.315Z</time></trkpt><trkpt lat="39.8972355" lon="9.6570158"><ele>50.833333333333336</ele><time>2026-04-19T09:49:18.315Z</time></trkpt><trkpt lat="39.8973114" lon="9.6570563"><ele>51.0</ele><time>2026-04-19T09:49:20.315Z</time></trkpt><trkpt lat="39.897376" lon="9.6570932"><ele>50.333333333333336</ele><time>2026-04-19T09:49:22.315Z</time></trkpt><trkpt lat="39.8974365" lon="9.6571235"><ele>49.666666666666664</ele><time>2026-04-19T09:49:24.315Z</time></trkpt><trkpt lat="39.8974914" lon="9.6571781"><ele>49.0</ele><time>2026-04-19T09:49:26.315Z</time></trkpt><trkpt lat="39.8975508" lon="9.6572534"><ele>48.33333333333333</ele><time>2026-04-19T09:49:28.315Z</time></trkpt><trkpt lat="39.8976262" lon="9.6573496"><ele>47.666666666666664</ele><time>2026-04-19T09:49:30.314Z</time></trkpt><trkpt lat="39.8977081" lon="9.6574412"><ele>47.0</ele><time>2026-04-19T09:49:32.315Z</time></trkpt><trkpt lat="39.8978045" lon="9.6575256"><ele>46.75</ele><time>2026-04-19T09:49:34.315Z</time></trkpt><trkpt lat="39.8979098" lon="9.6575963"><ele>46.5</ele><time>2026-04-19T09:49:36.315Z</time></trkpt><trkpt lat="39.8980244" lon="9.6576514"><ele>46.25</ele><time>2026-04-19T09:49:38.315Z</time></trkpt><trkpt lat="39.8981444" lon="9.6577008"><ele>46.0</ele><time>2026-04-19T09:49:40.315Z</time></trkpt><trkpt lat="39.8982534" lon="9.6577343"><ele>46.0</ele><time>2026-04-19T09:49:42.315Z</time></trkpt><trkpt lat="39.8983329" lon="9.6577485"><ele>46.0</ele><time>2026-04-19T09:49:44.315Z</time></trkpt><trkpt lat="39.8984142" lon="9.6577802"><ele>46.0</ele><time>2026-04-19T09:49:46.315Z</time></trkpt><trkpt lat="39.8984852" lon="9.6577975"><ele>46.0</ele><time>2026-04-19T09:49:48.315Z</time></trkpt><trkpt lat="39.8985628" lon="9.6578254"><ele>46.0</ele><time>2026-04-19T09:49:51.315Z</time></trkpt><trkpt lat="39.8986385" lon="9.6578542"><ele>46.0</ele><time>2026-04-19T09:49:54.315Z</time></trkpt><trkpt lat="39.8985748" lon="9.6578246"><ele>45.285714285714285</ele><time>2026-04-19T09:50:11.315Z</time></trkpt><trkpt lat="39.8986422" lon="9.6578536"><ele>44.57142857142857</ele><time>2026-04-19T09:51:38.315Z</time></trkpt><trkpt lat="39.8987082" lon="9.6578808"><ele>43.857142857142854</ele><time>2026-04-19T09:51:50.315Z</time></trkpt><trkpt lat="39.8987732" lon="9.6579083"><ele>43.14285714285714</ele><time>2026-04-19T09:51:53.315Z</time></trkpt><trkpt lat="39.8988549" lon="9.6579433"><ele>42.42857142857143</ele><time>2026-04-19T09:51:56.315Z</time></trkpt><trkpt lat="39.8989195" lon="9.6579733"><ele>41.71428571428571</ele><time>2026-04-19T09:51:58.315Z</time></trkpt><trkpt lat="39.8989925" lon="9.6580053"><ele>41.0</ele><time>2026-04-19T09:52:00.315Z</time></trkpt><trkpt lat="39.8990668" lon="9.6580287"><ele>41.0</ele><time>2026-04-19T09:52:02.315Z</time></trkpt><trkpt lat="39.8991516" lon="9.6580237"><ele>41.0</ele><time>2026-04-19T09:52:04.315Z</time></trkpt><trkpt lat="39.8992471" lon="9.6580322"><ele>41.0</ele><time>2026-04-19T09:52:06.315Z</time></trkpt><trkpt lat="39.8993456" lon="9.6580332"><ele>41.0</ele><time>2026-04-19T09:52:08.315Z</time></trkpt><trkpt lat="39.8994449" lon="9.658029"><ele>41.0</ele><time>2026-04-19T09:52:10.315Z</time></trkpt><trkpt lat="39.8995416" lon="9.6580366"><ele>40.199999999999996</ele><time>2026-04-19T09:52:12.315Z</time></trkpt><trkpt lat="39.8996365" lon="9.658041"><ele>39.4</ele><time>2026-04-19T09:52:14.315Z</time></trkpt><trkpt lat="39.899734" lon="9.6580481"><ele>38.6</ele><time>2026-04-19T09:52:16.315Z</time></trkpt><trkpt lat="39.8998381" lon="9.6580505"><ele>37.8</ele><time>2026-04-19T09:52:18.315Z</time></trkpt><trkpt lat="39.8999441" lon="9.6580521"><ele>37.0</ele><time>2026-04-19T09:52:20.315Z</time></trkpt><trkpt lat="39.9000479" lon="9.6580666"><ele>36.6</ele><time>2026-04-19T09:52:22.315Z</time></trkpt><trkpt lat="39.9001484" lon="9.6580849"><ele>36.2</ele><time>2026-04-19T09:52:24.315Z</time></trkpt><trkpt lat="39.9002645" lon="9.6580923"><ele>35.8</ele><time>2026-04-19T09:52:26.315Z</time></trkpt><trkpt lat="39.9003712" lon="9.6581022"><ele>35.4</ele><time>2026-04-19T09:52:28.315Z</time></trkpt><trkpt lat="39.9004734" lon="9.6581139"><ele>35.0</ele><time>2026-04-19T09:52:30.315Z</time></trkpt><trkpt lat="39.9005777" lon="9.6581506"><ele>35.0</ele><time>2026-04-19T09:52:32.315Z</time></trkpt><trkpt lat="39.9006766" lon="9.658229"><ele>35.0</ele><time>2026-04-19T09:52:34.315Z</time></trkpt><trkpt lat="39.9007753" lon="9.6583052"><ele>35.0</ele><time>2026-04-19T09:52:36.315Z</time></trkpt><trkpt lat="39.9008866" lon="9.6583581"><ele>35.0</ele><time>2026-04-19T09:52:38.315Z</time></trkpt><trkpt lat="39.9010031" lon="9.6584017"><ele>33.75</ele><time>2026-04-19T09:52:40.315Z</time></trkpt><trkpt lat="39.9011159" lon="9.6584523"><ele>32.5</ele><time>2026-04-19T09:52:42.315Z</time></trkpt><trkpt lat="39.901232" lon="9.658496"><ele>31.25</ele><time>2026-04-19T09:52:44.315Z</time></trkpt><trkpt lat="39.9013439" lon="9.6585451"><ele>30.0</ele><time>2026-04-19T09:52:46.315Z</time></trkpt><trkpt lat="39.901451" lon="9.6585925"><ele>30.0</ele><time>2026-04-19T09:52:48.315Z</time></trkpt><trkpt lat="39.9015523" lon="9.658634"><ele>30.0</ele><time>2026-04-19T09:52:50.315Z</time></trkpt><trkpt lat="39.9016362" lon="9.6586756"><ele>30.0</ele><time>2026-04-19T09:52:52.315Z</time></trkpt><trkpt lat="39.9017057" lon="9.658731"><ele>30.0</ele><time>2026-04-19T09:52:54.315Z</time></trkpt><trkpt lat="39.9017692" lon="9.6587987"><ele>30.0</ele><time>2026-04-19T09:52:56.315Z</time></trkpt><trkpt lat="39.901819" lon="9.6588902"><ele>30.0</ele><time>2026-04-19T09:52:58.315Z</time></trkpt><trkpt lat="39.9018686" lon="9.6589845"><ele>29.166666666666668</ele><time>2026-04-19T09:53:00.314Z</time></trkpt><trkpt lat="39.9019209" lon="9.6590796"><ele>28.333333333333336</ele><time>2026-04-19T09:53:02.315Z</time></trkpt><trkpt lat="39.901979" lon="9.6591656"><ele>27.5</ele><time>2026-04-19T09:53:04.315Z</time></trkpt><trkpt lat="39.9020444" lon="9.659241"><ele>26.666666666666668</ele><time>2026-04-19T09:53:06.315Z</time></trkpt><trkpt lat="39.9021063" lon="9.6593213"><ele>25.833333333333336</ele><time>2026-04-19T09:53:08.315Z</time></trkpt><trkpt lat="39.9021786" lon="9.6593957"><ele>25.0</ele><time>2026-04-19T09:53:10.315Z</time></trkpt><trkpt lat="39.9022711" lon="9.6594303"><ele>25.0</ele><time>2026-04-19T09:53:12.315Z</time></trkpt><trkpt lat="39.9023656" lon="9.6594225"><ele>25.0</ele><time>2026-04-19T09:53:14.315Z</time></trkpt><trkpt lat="39.9024605" lon="9.659391"><ele>25.0</ele><time>2026-04-19T09:53:16.315Z</time></trkpt><trkpt lat="39.9025488" lon="9.659346"><ele>25.0</ele><time>2026-04-19T09:53:18.315Z</time></trkpt><trkpt lat="39.9026264" lon="9.6592935"><ele>25.0</ele><time>2026-04-19T09:53:20.315Z</time></trkpt><trkpt lat="39.9027021" lon="9.6592398"><ele>25.166666666666668</ele><time>2026-04-19T09:53:22.315Z</time></trkpt><trkpt lat="39.9027797" lon="9.659203"><ele>25.333333333333336</ele><time>2026-04-19T09:53:24.315Z</time></trkpt><trkpt lat="39.9028525" lon="9.6591813"><ele>25.5</ele><time>2026-04-19T09:53:26.315Z</time></trkpt><trkpt lat="39.9029259" lon="9.6591821"><ele>25.666666666666664</ele><time>2026-04-19T09:53:28.315Z</time></trkpt><trkpt lat="39.9029955" lon="9.6591904"><ele>25.833333333333332</ele><time>2026-04-19T09:53:30.315Z</time></trkpt><trkpt lat="39.9030616" lon="9.6591966"><ele>26.0</ele><time>2026-04-19T09:53:32.315Z</time></trkpt><trkpt lat="39.9031553" lon="9.6591955"><ele>25.999999999999996</ele><time>2026-04-19T09:53:35.315Z</time></trkpt><trkpt lat="39.9032429" lon="9.6591991"><ele>26.0</ele><time>2026-04-19T09:53:38.315Z</time></trkpt><trkpt lat="39.9033298" lon="9.6591975"><ele>26.0</ele><time>2026-04-19T09:53:41.315Z</time></trkpt><trkpt lat="39.9034154" lon="9.659179"><ele>26.0</ele><time>2026-04-19T09:53:44.314Z</time></trkpt><trkpt lat="39.9034794" lon="9.6591622"><ele>25.999999999999996</ele><time>2026-04-19T09:53:46.315Z</time></trkpt><trkpt lat="39.9035504" lon="9.6591593"><ele>26.0</ele><time>2026-04-19T09:53:48.315Z</time></trkpt><trkpt lat="39.9036191" lon="9.6591773"><ele>25.666666666666664</ele><time>2026-04-19T09:53:50.315Z</time></trkpt><trkpt lat="39.9036819" lon="9.6592093"><ele>25.333333333333332</ele><time>2026-04-19T09:53:52.315Z</time></trkpt><trkpt lat="39.9037403" lon="9.6592554"><ele>25.0</ele><time>2026-04-19T09:53:54.315Z</time></trkpt><trkpt lat="39.9037932" lon="9.6593153"><ele>24.666666666666664</ele><time>2026-04-19T09:53:56.315Z</time></trkpt><trkpt lat="39.9038473" lon="9.6593825"><ele>24.333333333333332</ele><time>2026-04-19T09:53:58.315Z</time></trkpt><trkpt lat="39.9039122" lon="9.6594606"><ele>24.0</ele><time>2026-04-19T09:54:00.315Z</time></trkpt><trkpt lat="39.9039921" lon="9.6595169"><ele>24.0</ele><time>2026-04-19T09:54:02.315Z</time></trkpt><trkpt lat="39.9040666" lon="9.6595811"><ele>24.0</ele><time>2026-04-19T09:54:04.315Z</time></trkpt><trkpt lat="39.9041417" lon="9.6596432"><ele>24.0</ele><time>2026-04-19T09:54:06.315Z</time></trkpt><trkpt lat="39.9042145" lon="9.6596994"><ele>24.0</ele><time>2026-04-19T09:54:08.315Z</time></trkpt><trkpt lat="39.904283" lon="9.6597589"><ele>24.0</ele><time>2026-04-19T09:54:10.315Z</time></trkpt><trkpt lat="39.9043517" lon="9.6598116"><ele>24.0</ele><time>2026-04-19T09:54:12.315Z</time></trkpt><trkpt lat="39.9044219" lon="9.6598636"><ele>23.833333333333332</ele><time>2026-04-19T09:54:14.315Z</time></trkpt><trkpt lat="39.904491" lon="9.6599155"><ele>23.666666666666668</ele><time>2026-04-19T09:54:16.315Z</time></trkpt><trkpt lat="39.9045603" lon="9.6599758"><ele>23.5</ele><time>2026-04-19T09:54:18.315Z</time></trkpt><trkpt lat="39.9046305" lon="9.6600326"><ele>23.333333333333336</ele><time>2026-04-19T09:54:20.315Z</time></trkpt><trkpt lat="39.9047041" lon="9.6600807"><ele>23.166666666666668</ele><time>2026-04-19T09:54:22.315Z</time></trkpt><trkpt lat="39.9047754" lon="9.6601356"><ele>23.0</ele><time>2026-04-19T09:54:24.315Z</time></trkpt><trkpt lat="39.9048477" lon="9.6601946"><ele>23.0</ele><time>2026-04-19T09:54:26.315Z</time></trkpt><trkpt lat="39.9049172" lon="9.6602554"><ele>23.0</ele><time>2026-04-19T09:54:28.315Z</time></trkpt><trkpt lat="39.9049864" lon="9.6603143"><ele>23.0</ele><time>2026-04-19T09:54:30.315Z</time></trkpt><trkpt lat="39.9050557" lon="9.6603721"><ele>23.0</ele><time>2026-04-19T09:54:32.315Z</time></trkpt><trkpt lat="39.9051225" lon="9.6604301"><ele>23.0</ele><time>2026-04-19T09:54:34.315Z</time></trkpt><trkpt lat="39.9051898" lon="9.6604824"><ele>23.0</ele><time>2026-04-19T09:54:36.315Z</time></trkpt><trkpt lat="39.9052602" lon="9.6605287"><ele>22.5</ele><time>2026-04-19T09:54:38.315Z</time></trkpt><trkpt lat="39.9053292" lon="9.6605846"><ele>22.0</ele><time>2026-04-19T09:54:40.315Z</time></trkpt><trkpt lat="39.9054015" lon="9.6606238"><ele>21.5</ele><time>2026-04-19T09:54:42.315Z</time></trkpt><trkpt lat="39.9054777" lon="9.6606519"><ele>21.0</ele><time>2026-04-19T09:54:44.315Z</time></trkpt><trkpt lat="39.9055532" lon="9.6606935"><ele>20.5</ele><time>2026-04-19T09:54:46.315Z</time></trkpt><trkpt lat="39.9056263" lon="9.6607327"><ele>20.0</ele><time>2026-04-19T09:54:48.315Z</time></trkpt><trkpt lat="39.9056969" lon="9.6607611"><ele>20.0</ele><time>2026-04-19T09:54:50.315Z</time></trkpt><trkpt lat="39.905763" lon="9.6607927"><ele>20.0</ele><time>2026-04-19T09:54:52.315Z</time></trkpt><trkpt lat="39.9058298" lon="9.6608178"><ele>20.0</ele><time>2026-04-19T09:54:54.315Z</time></trkpt><trkpt lat="39.9058945" lon="9.6608424"><ele>20.0</ele><time>2026-04-19T09:54:56.315Z</time></trkpt><trkpt lat="39.9059808" lon="9.6608596"><ele>20.0</ele><time>2026-04-19T09:54:59.315Z</time></trkpt><trkpt lat="39.9060639" lon="9.6608699"><ele>20.0</ele><time>2026-04-19T09:55:02.315Z</time></trkpt><trkpt lat="39.9061498" lon="9.6608992"><ele>20.0</ele><time>2026-04-19T09:55:05.315Z</time></trkpt><trkpt lat="39.9062145" lon="9.6609186"><ele>20.0</ele><time>2026-04-19T09:55:07.315Z</time></trkpt><trkpt lat="39.9062777" lon="9.6609223"><ele>20.0</ele><time>2026-04-19T09:55:09.315Z</time></trkpt><trkpt lat="39.9063635" lon="9.6609463"><ele>20.0</ele><time>2026-04-19T09:55:12.315Z</time></trkpt><trkpt lat="39.9064266" lon="9.6609478"><ele>20.0</ele><time>2026-04-19T09:55:14.315Z</time></trkpt><trkpt lat="39.9064949" lon="9.6609512"><ele>20.0</ele><time>2026-04-19T09:55:16.315Z</time></trkpt><trkpt lat="39.9065676" lon="9.6609588"><ele>20.0</ele><time>2026-04-19T09:55:18.315Z</time></trkpt><trkpt lat="39.9066398" lon="9.6609614"><ele>20.0</ele><time>2026-04-19T09:55:20.315Z</time></trkpt><trkpt lat="39.9067123" lon="9.6609731"><ele>20.0</ele><time>2026-04-19T09:55:22.315Z</time></trkpt><trkpt lat="39.9067945" lon="9.6609775"><ele>20.0</ele><time>2026-04-19T09:55:24.315Z</time></trkpt><trkpt lat="39.9068766" lon="9.6609808"><ele>20.0</ele><time>2026-04-19T09:55:26.315Z</time></trkpt><trkpt lat="39.9069568" lon="9.6609926"><ele>20.0</ele><time>2026-04-19T09:55:28.315Z</time></trkpt><trkpt lat="39.9070321" lon="9.6610115"><ele>20.0</ele><time>2026-04-19T09:55:30.315Z</time></trkpt><trkpt lat="39.9071031" lon="9.6610337"><ele>19.857142857142858</ele><time>2026-04-19T09:55:32.314Z</time></trkpt><trkpt lat="39.9071704" lon="9.661054"><ele>19.714285714285715</ele><time>2026-04-19T09:55:34.315Z</time></trkpt><trkpt lat="39.907232" lon="9.6610743"><ele>19.57142857142857</ele><time>2026-04-19T09:55:36.315Z</time></trkpt><trkpt lat="39.9073241" lon="9.6610953"><ele>19.42857142857143</ele><time>2026-04-19T09:55:39.315Z</time></trkpt><trkpt lat="39.9073892" lon="9.6611042"><ele>19.28571428571429</ele><time>2026-04-19T09:55:41.315Z</time></trkpt><trkpt lat="39.9074585" lon="9.6611195"><ele>19.142857142857142</ele><time>2026-04-19T09:55:43.314Z</time></trkpt><trkpt lat="39.9075323" lon="9.661143"><ele>19.0</ele><time>2026-04-19T09:55:45.314Z</time></trkpt><trkpt lat="39.907606" lon="9.6611684"><ele>18.833333333333332</ele><time>2026-04-19T09:55:47.315Z</time></trkpt><trkpt lat="39.9076823" lon="9.6611971"><ele>18.666666666666664</ele><time>2026-04-19T09:55:49.315Z</time></trkpt><trkpt lat="39.9077603" lon="9.6612178"><ele>18.5</ele><time>2026-04-19T09:55:51.315Z</time></trkpt><trkpt lat="39.9078417" lon="9.661231"><ele>18.333333333333332</ele><time>2026-04-19T09:55:53.315Z</time></trkpt><trkpt lat="39.9079235" lon="9.6612401"><ele>18.166666666666668</ele><time>2026-04-19T09:55:55.315Z</time></trkpt><trkpt lat="39.9080031" lon="9.6612513"><ele>18.0</ele><time>2026-04-19T09:55:57.315Z</time></trkpt><trkpt lat="39.9080774" lon="9.6612586"><ele>18.000000000000004</ele><time>2026-04-19T09:55:59.315Z</time></trkpt><trkpt lat="39.9081472" lon="9.6612444"><ele>18.0</ele><time>2026-04-19T09:56:01.315Z</time></trkpt><trkpt lat="39.9082131" lon="9.6612152"><ele>18.0</ele><time>2026-04-19T09:56:03.315Z</time></trkpt><trkpt lat="39.9082792" lon="9.6611897"><ele>18.0</ele><time>2026-04-19T09:56:05.315Z</time></trkpt><trkpt lat="39.9083434" lon="9.6611717"><ele>18.0</ele><time>2026-04-19T09:56:07.315Z</time></trkpt><trkpt lat="39.908432" lon="9.6611477"><ele>18.000000000000004</ele><time>2026-04-19T09:56:10.315Z</time></trkpt><trkpt lat="39.9084961" lon="9.661148"><ele>18.0</ele><time>2026-04-19T09:56:12.315Z</time></trkpt><trkpt lat="39.9085724" lon="9.6611314"><ele>17.5</ele><time>2026-04-19T09:56:14.315Z</time></trkpt><trkpt lat="39.9086403" lon="9.6610728"><ele>17.0</ele><time>2026-04-19T09:56:16.315Z</time></trkpt><trkpt lat="39.9087081" lon="9.6610095"><ele>16.5</ele><time>2026-04-19T09:56:18.315Z</time></trkpt><trkpt lat="39.9087775" lon="9.6609536"><ele>16.0</ele><time>2026-04-19T09:56:20.315Z</time></trkpt><trkpt lat="39.9088412" lon="9.6609025"><ele>15.5</ele><time>2026-04-19T09:56:22.315Z</time></trkpt><trkpt lat="39.9089028" lon="9.6608569"><ele>15.0</ele><time>2026-04-19T09:56:24.315Z</time></trkpt><trkpt lat="39.9089625" lon="9.6608104"><ele>15.0</ele><time>2026-04-19T09:56:26.315Z</time></trkpt><trkpt lat="39.9090203" lon="9.6607644"><ele>15.0</ele><time>2026-04-19T09:56:28.315Z</time></trkpt><trkpt lat="39.9090772" lon="9.6607215"><ele>15.0</ele><time>2026-04-19T09:56:30.315Z</time></trkpt><trkpt lat="39.9091351" lon="9.6606846"><ele>15.0</ele><time>2026-04-19T09:56:32.315Z</time></trkpt><trkpt lat="39.9092193" lon="9.660631"><ele>15.0</ele><time>2026-04-19T09:56:35.315Z</time></trkpt><trkpt lat="39.9093075" lon="9.6606026"><ele>15.0</ele><time>2026-04-19T09:56:38.315Z</time></trkpt><trkpt lat="39.9093999" lon="9.6605935"><ele>15.0</ele><time>2026-04-19T09:56:41.315Z</time></trkpt><trkpt lat="39.9094944" lon="9.6605972"><ele>15.0</ele><time>2026-04-19T09:56:44.315Z</time></trkpt><trkpt lat="39.9095574" lon="9.6605997"><ele>15.0</ele><time>2026-04-19T09:56:46.315Z</time></trkpt><trkpt lat="39.9096224" lon="9.6606106"><ele>15.0</ele><time>2026-04-19T09:56:48.315Z</time></trkpt><trkpt lat="39.9096977" lon="9.6606243"><ele>15.0</ele><time>2026-04-19T09:56:50.315Z</time></trkpt><trkpt lat="39.9097793" lon="9.6606476"><ele>15.0</ele><time>2026-04-19T09:56:52.315Z</time></trkpt><trkpt lat="39.9098577" lon="9.6606677"><ele>15.0</ele><time>2026-04-19T09:56:54.315Z</time></trkpt><trkpt lat="39.9099341" lon="9.6606822"><ele>15.0</ele><time>2026-04-19T09:56:56.315Z</time></trkpt><trkpt lat="39.9100072" lon="9.660691"><ele>15.0</ele><time>2026-04-19T09:56:58.315Z</time></trkpt><trkpt lat="39.9100773" lon="9.660698"><ele>15.0</ele><time>2026-04-19T09:57:00.315Z</time></trkpt><trkpt lat="39.9101439" lon="9.6607021"><ele>15.0</ele><time>2026-04-19T09:57:02.315Z</time></trkpt><trkpt lat="39.910236" lon="9.660706"><ele>15.0</ele><time>2026-04-19T09:57:05.315Z</time></trkpt><trkpt lat="39.9103233" lon="9.6607002"><ele>15.333333333333334</ele><time>2026-04-19T09:57:08.315Z</time></trkpt><trkpt lat="39.9103991" lon="9.6606937"><ele>15.666666666666668</ele><time>2026-04-19T09:57:10.315Z</time></trkpt><trkpt lat="39.9104807" lon="9.6606876"><ele>16.0</ele><time>2026-04-19T09:57:12.315Z</time></trkpt><trkpt lat="39.9105596" lon="9.660674"><ele>16.333333333333336</ele><time>2026-04-19T09:57:14.315Z</time></trkpt><trkpt lat="39.910634" lon="9.6606606"><ele>16.666666666666668</ele><time>2026-04-19T09:57:16.315Z</time></trkpt><trkpt lat="39.9107097" lon="9.6606478"><ele>17.0</ele><time>2026-04-19T09:57:18.314Z</time></trkpt><trkpt lat="39.9107817" lon="9.6606408"><ele>17.0</ele><time>2026-04-19T09:57:20.315Z</time></trkpt><trkpt lat="39.9108476" lon="9.660643"><ele>17.0</ele><time>2026-04-19T09:57:22.315Z</time></trkpt><trkpt lat="39.910932" lon="9.660636"><ele>17.0</ele><time>2026-04-19T09:57:25.315Z</time></trkpt><trkpt lat="39.9110136" lon="9.6606288"><ele>17.0</ele><time>2026-04-19T09:57:28.315Z</time></trkpt><trkpt lat="39.9111011" lon="9.6606336"><ele>17.0</ele><time>2026-04-19T09:57:31.315Z</time></trkpt><trkpt lat="39.9111891" lon="9.6606286"><ele>17.0</ele><time>2026-04-19T09:57:34.315Z</time></trkpt><trkpt lat="39.9112652" lon="9.6606385"><ele>16.833333333333336</ele><time>2026-04-19T09:57:37.315Z</time></trkpt><trkpt lat="39.9113449" lon="9.6606321"><ele>16.666666666666668</ele><time>2026-04-19T09:57:41.315Z</time></trkpt><trkpt lat="39.9114274" lon="9.660651"><ele>16.5</ele><time>2026-04-19T09:57:45.315Z</time></trkpt><trkpt lat="39.9115059" lon="9.6606534"><ele>16.333333333333332</ele><time>2026-04-19T09:57:48.315Z</time></trkpt><trkpt lat="39.9115886" lon="9.660659"><ele>16.166666666666664</ele><time>2026-04-19T09:57:51.315Z</time></trkpt><trkpt lat="39.9116679" lon="9.6606645"><ele>16.0</ele><time>2026-04-19T09:57:54.315Z</time></trkpt><trkpt lat="39.9117362" lon="9.6606729"><ele>16.166666666666664</ele><time>2026-04-19T09:57:57.315Z</time></trkpt><trkpt lat="39.9118164" lon="9.6606746"><ele>16.333333333333332</ele><time>2026-04-19T09:58:01.315Z</time></trkpt><trkpt lat="39.9118904" lon="9.6606803"><ele>16.5</ele><time>2026-04-19T09:58:04.315Z</time></trkpt><trkpt lat="39.9119731" lon="9.6606729"><ele>16.666666666666668</ele><time>2026-04-19T09:58:07.315Z</time></trkpt><trkpt lat="39.9120593" lon="9.6606477"><ele>16.833333333333336</ele><time>2026-04-19T09:58:10.315Z</time></trkpt><trkpt lat="39.9121353" lon="9.6606143"><ele>17.0</ele><time>2026-04-19T09:58:13.315Z</time></trkpt><trkpt lat="39.9122135" lon="9.6606001"><ele>17.0</ele><time>2026-04-19T09:58:16.315Z</time></trkpt><trkpt lat="39.9122953" lon="9.6605903"><ele>17.0</ele><time>2026-04-19T09:58:20.315Z</time></trkpt><trkpt lat="39.912365" lon="9.6606015"><ele>17.0</ele><time>2026-04-19T09:58:23.315Z</time></trkpt><trkpt lat="39.9124356" lon="9.6606023"><ele>17.0</ele><time>2026-04-19T09:58:26.315Z</time></trkpt><trkpt lat="39.9125246" lon="9.6605893"><ele>17.0</ele><time>2026-04-19T09:58:29.315Z</time></trkpt><trkpt lat="39.912596" lon="9.6605761"><ele>17.0</ele><time>2026-04-19T09:58:31.315Z</time></trkpt><trkpt lat="39.912668" lon="9.6605583"><ele>16.833333333333336</ele><time>2026-04-19T09:58:33.315Z</time></trkpt><trkpt lat="39.9127373" lon="9.6605433"><ele>16.666666666666668</ele><time>2026-04-19T09:58:35.315Z</time></trkpt><trkpt lat="39.9128039" lon="9.6605256"><ele>16.5</ele><time>2026-04-19T09:58:37.315Z</time></trkpt><trkpt lat="39.9128674" lon="9.6605054"><ele>16.333333333333332</ele><time>2026-04-19T09:58:39.315Z</time></trkpt><trkpt lat="39.9129302" lon="9.6604874"><ele>16.166666666666664</ele><time>2026-04-19T09:58:41.315Z</time></trkpt><trkpt lat="39.9130213" lon="9.6604602"><ele>16.0</ele><time>2026-04-19T09:58:44.315Z</time></trkpt><trkpt lat="39.9131112" lon="9.6604408"><ele>15.999999999999998</ele><time>2026-04-19T09:58:47.315Z</time></trkpt><trkpt lat="39.9131989" lon="9.6604265"><ele>16.0</ele><time>2026-04-19T09:58:50.315Z</time></trkpt><trkpt lat="39.9132879" lon="9.6604035"><ele>16.0</ele><time>2026-04-19T09:58:53.315Z</time></trkpt><trkpt lat="39.9133676" lon="9.660379"><ele>16.0</ele><time>2026-04-19T09:58:55.315Z</time></trkpt><trkpt lat="39.913438" lon="9.6604097"><ele>15.999999999999998</ele><time>2026-04-19T09:58:57.315Z</time></trkpt><trkpt lat="39.9134633" lon="9.660515"><ele>16.0</ele><time>2026-04-19T09:58:59.315Z</time></trkpt><trkpt lat="39.9134851" lon="9.6606369"><ele>15.666666666666666</ele><time>2026-04-19T09:59:01.315Z</time></trkpt><trkpt lat="39.9135" lon="9.6607649"><ele>15.333333333333332</ele><time>2026-04-19T09:59:03.315Z</time></trkpt><trkpt lat="39.9135115" lon="9.6608878"><ele>15.0</ele><time>2026-04-19T09:59:05.315Z</time></trkpt><trkpt lat="39.9135279" lon="9.660997"><ele>14.666666666666668</ele><time>2026-04-19T09:59:07.315Z</time></trkpt><trkpt lat="39.9135404" lon="9.6610935"><ele>14.333333333333334</ele><time>2026-04-19T09:59:09.315Z</time></trkpt><trkpt lat="39.9135486" lon="9.661195"><ele>14.0</ele><time>2026-04-19T09:59:11.315Z</time></trkpt><trkpt lat="39.9135535" lon="9.6612946"><ele>14.000000000000002</ele><time>2026-04-19T09:59:13.315Z</time></trkpt><trkpt lat="39.913564" lon="9.6613986"><ele>14.0</ele><time>2026-04-19T09:59:15.315Z</time></trkpt><trkpt lat="39.913569" lon="9.661504"><ele>14.0</ele><time>2026-04-19T09:59:17.315Z</time></trkpt><trkpt lat="39.9135726" lon="9.6616105"><ele>14.0</ele><time>2026-04-19T09:59:19.315Z</time></trkpt><trkpt lat="39.9135738" lon="9.6617149"><ele>14.000000000000002</ele><time>2026-04-19T09:59:21.315Z</time></trkpt><trkpt lat="39.9135732" lon="9.6618175"><ele>14.0</ele><time>2026-04-19T09:59:23.315Z</time></trkpt><trkpt lat="39.9135788" lon="9.6619228"><ele>14.000000000000002</ele><time>2026-04-19T09:59:25.315Z</time></trkpt><trkpt lat="39.9136071" lon="9.6620247"><ele>14.0</ele><time>2026-04-19T09:59:27.315Z</time></trkpt><trkpt lat="39.9136595" lon="9.6621047"><ele>14.0</ele><time>2026-04-19T09:59:29.315Z</time></trkpt><trkpt lat="39.9137313" lon="9.6621584"><ele>14.0</ele><time>2026-04-19T09:59:31.315Z</time></trkpt><trkpt lat="39.9138141" lon="9.6621859"><ele>14.000000000000002</ele><time>2026-04-19T09:59:33.315Z</time></trkpt><trkpt lat="39.9138892" lon="9.66221"><ele>14.0</ele><time>2026-04-19T09:59:35.315Z</time></trkpt><trkpt lat="39.9140256" lon="9.6620689"><ele>14.0</ele><time>2026-04-19T09:59:36.315Z</time></trkpt><trkpt lat="39.9140838" lon="9.6621024"><ele>13.999999999999998</ele><time>2026-04-19T09:59:38.315Z</time></trkpt><trkpt lat="39.9141508" lon="9.6621692"><ele>13.999999999999998</ele><time>2026-04-19T09:59:41.315Z</time></trkpt><trkpt lat="39.9142769" lon="9.6620511"><ele>14.0</ele><time>2026-04-19T09:59:42.315Z</time></trkpt><trkpt lat="39.9143288" lon="9.6621163"><ele>14.0</ele><time>2026-04-19T09:59:45.315Z</time></trkpt><trkpt lat="39.9144846" lon="9.6620832"><ele>13.75</ele><time>2026-04-19T09:59:48.315Z</time></trkpt><trkpt lat="39.9144998" lon="9.6621792"><ele>13.5</ele><time>2026-04-19T09:59:53.315Z</time></trkpt><trkpt lat="39.9146684" lon="9.66219"><ele>13.25</ele><time>2026-04-19T09:59:54.315Z</time></trkpt><trkpt lat="39.9148315" lon="9.6622931"><ele>13.0</ele><time>2026-04-19T09:59:59.315Z</time></trkpt><trkpt lat="39.9149986" lon="9.6623813"><ele>12.75</ele><time>2026-04-19T10:00:05.315Z</time></trkpt><trkpt lat="39.9151556" lon="9.6625061"><ele>12.5</ele><time>2026-04-19T10:00:10.315Z</time></trkpt><trkpt lat="39.9153151" lon="9.6625609"><ele>12.25</ele><time>2026-04-19T10:00:14.315Z</time></trkpt><trkpt lat="39.9153858" lon="9.6625306"><ele>12.0</ele><time>2026-04-19T10:00:17.315Z</time></trkpt><trkpt lat="39.915461" lon="9.6625023"><ele>12.0</ele><time>2026-04-19T10:00:19.315Z</time></trkpt><trkpt lat="39.9155482" lon="9.6625015"><ele>12.0</ele><time>2026-04-19T10:00:21.315Z</time></trkpt><trkpt lat="39.9156413" lon="9.662522"><ele>12.0</ele><time>2026-04-19T10:00:23.315Z</time></trkpt><trkpt lat="39.9157384" lon="9.6625622"><ele>12.0</ele><time>2026-04-19T10:00:25.315Z</time></trkpt><trkpt lat="39.9158316" lon="9.6625849"><ele>12.0</ele><time>2026-04-19T10:00:27.315Z</time></trkpt><trkpt lat="39.9159227" lon="9.6625801"><ele>12.166666666666666</ele><time>2026-04-19T10:00:29.315Z</time></trkpt><trkpt lat="39.9160087" lon="9.6625789"><ele>12.333333333333332</ele><time>2026-04-19T10:00:31.315Z</time></trkpt><trkpt lat="39.9160889" lon="9.6625699"><ele>12.5</ele><time>2026-04-19T10:00:33.315Z</time></trkpt><trkpt lat="39.9161672" lon="9.6625584"><ele>12.666666666666666</ele><time>2026-04-19T10:00:35.315Z</time></trkpt><trkpt lat="39.9162434" lon="9.6625537"><ele>12.833333333333332</ele><time>2026-04-19T10:00:37.315Z</time></trkpt><trkpt lat="39.9163172" lon="9.6625512"><ele>13.0</ele><time>2026-04-19T10:00:39.315Z</time></trkpt><trkpt lat="39.9163843" lon="9.66256"><ele>13.0</ele><time>2026-04-19T10:00:41.315Z</time></trkpt><trkpt lat="39.9164598" lon="9.6625997"><ele>13.0</ele><time>2026-04-19T10:00:44.315Z</time></trkpt><trkpt lat="39.9165617" lon="9.6626299"><ele>13.0</ele><time>2026-04-19T10:00:47.315Z</time></trkpt><trkpt lat="39.9166721" lon="9.6626127"><ele>13.0</ele><time>2026-04-19T10:00:49.315Z</time></trkpt><trkpt lat="39.9167428" lon="9.6626752"><ele>13.0</ele><time>2026-04-19T10:00:51.315Z</time></trkpt><trkpt lat="39.9168034" lon="9.662718"><ele>12.999999999999998</ele><time>2026-04-19T10:00:54.315Z</time></trkpt><trkpt lat="39.9168644" lon="9.6626724"><ele>13.0</ele><time>2026-04-19T10:00:57.315Z</time></trkpt><trkpt lat="39.9169307" lon="9.6626365"><ele>13.0</ele><time>2026-04-19T10:00:59.315Z</time></trkpt><trkpt lat="39.9170138" lon="9.6625867"><ele>13.0</ele><time>2026-04-19T10:01:01.315Z</time></trkpt><trkpt lat="39.9170898" lon="9.6625296"><ele>12.999999999999998</ele><time>2026-04-19T10:01:03.315Z</time></trkpt><trkpt lat="39.9171607" lon="9.6624733"><ele>13.0</ele><time>2026-04-19T10:01:05.315Z</time></trkpt><trkpt lat="39.9172268" lon="9.6624221"><ele>12.999999999999998</ele><time>2026-04-19T10:01:07.315Z</time></trkpt><trkpt lat="39.9172847" lon="9.6623713"><ele>13.0</ele><time>2026-04-19T10:01:09.315Z</time></trkpt><trkpt lat="39.9173619" lon="9.6623034"><ele>13.0</ele><time>2026-04-19T10:01:12.315Z</time></trkpt><trkpt lat="39.9174199" lon="9.6622544"><ele>13.0</ele><time>2026-04-19T10:01:14.315Z</time></trkpt><trkpt lat="39.9174881" lon="9.6621688"><ele>12.999999999999998</ele><time>2026-04-19T10:01:16.315Z</time></trkpt><trkpt lat="39.917545" lon="9.6620777"><ele>13.0</ele><time>2026-04-19T10:01:18.315Z</time></trkpt><trkpt lat="39.917573" lon="9.6619757"><ele>12.857142857142856</ele><time>2026-04-19T10:01:20.315Z</time></trkpt><trkpt lat="39.9175938" lon="9.6618799"><ele>12.714285714285715</ele><time>2026-04-19T10:01:22.315Z</time></trkpt><trkpt lat="39.9176044" lon="9.6617859"><ele>12.571428571428571</ele><time>2026-04-19T10:01:24.315Z</time></trkpt><trkpt lat="39.9176172" lon="9.6617051"><ele>12.428571428571427</ele><time>2026-04-19T10:01:26.315Z</time></trkpt><trkpt lat="39.9176364" lon="9.6616143"><ele>12.285714285714285</ele><time>2026-04-19T10:01:28.315Z</time></trkpt><trkpt lat="39.9176699" lon="9.6615281"><ele>12.142857142857142</ele><time>2026-04-19T10:01:30.315Z</time></trkpt><trkpt lat="39.9177131" lon="9.6614421"><ele>12.0</ele><time>2026-04-19T10:01:32.315Z</time></trkpt><trkpt lat="39.9177625" lon="9.6613515"><ele>12.0</ele><time>2026-04-19T10:01:34.315Z</time></trkpt><trkpt lat="39.917795" lon="9.6612487"><ele>12.0</ele><time>2026-04-19T10:01:36.315Z</time></trkpt><trkpt lat="39.9178389" lon="9.6611533"><ele>12.0</ele><time>2026-04-19T10:01:38.315Z</time></trkpt><trkpt lat="39.9178784" lon="9.6610523"><ele>12.0</ele><time>2026-04-19T10:01:40.315Z</time></trkpt><trkpt lat="39.9179104" lon="9.6609457"><ele>12.0</ele><time>2026-04-19T10:01:42.315Z</time></trkpt><trkpt lat="39.9179724" lon="9.6608528"><ele>12.0</ele><time>2026-04-19T10:01:44.315Z</time></trkpt><trkpt lat="39.9179951" lon="9.6607427"><ele>12.166666666666666</ele><time>2026-04-19T10:01:46.315Z</time></trkpt><trkpt lat="39.9180123" lon="9.6606436"><ele>12.333333333333332</ele><time>2026-04-19T10:01:48.315Z</time></trkpt><trkpt lat="39.9180536" lon="9.6605646"><ele>12.5</ele><time>2026-04-19T10:01:50.315Z</time></trkpt><trkpt lat="39.9180927" lon="9.6604926"><ele>12.666666666666666</ele><time>2026-04-19T10:01:52.315Z</time></trkpt><trkpt lat="39.9181493" lon="9.6604086"><ele>12.833333333333332</ele><time>2026-04-19T10:01:55.315Z</time></trkpt><trkpt lat="39.9181977" lon="9.6603472"><ele>13.0</ele><time>2026-04-19T10:01:58.315Z</time></trkpt><trkpt lat="39.9182434" lon="9.6602594"><ele>12.999999999999998</ele><time>2026-04-19T10:02:02.315Z</time></trkpt><trkpt lat="39.9183116" lon="9.660188"><ele>13.0</ele><time>2026-04-19T10:02:06.315Z</time></trkpt><trkpt lat="39.9183961" lon="9.6601482"><ele>13.0</ele><time>2026-04-19T10:02:09.315Z</time></trkpt><trkpt lat="39.9184813" lon="9.6601162"><ele>13.0</ele><time>2026-04-19T10:02:12.315Z</time></trkpt><trkpt lat="39.9185451" lon="9.6601021"><ele>12.999999999999998</ele><time>2026-04-19T10:02:14.315Z</time></trkpt><trkpt lat="39.9186103" lon="9.6600765"><ele>13.0</ele><time>2026-04-19T10:02:16.315Z</time></trkpt><trkpt lat="39.9186803" lon="9.6600457"><ele>12.999999999999998</ele><time>2026-04-19T10:02:18.315Z</time></trkpt><trkpt lat="39.9187575" lon="9.6600274"><ele>13.0</ele><time>2026-04-19T10:02:20.315Z</time></trkpt><trkpt lat="39.918834" lon="9.6600053"><ele>13.0</ele><time>2026-04-19T10:02:22.315Z</time></trkpt><trkpt lat="39.918909" lon="9.6599713"><ele>13.0</ele><time>2026-04-19T10:02:24.315Z</time></trkpt><trkpt lat="39.918987" lon="9.6599481"><ele>12.999999999999998</ele><time>2026-04-19T10:02:26.315Z</time></trkpt><trkpt lat="39.9190638" lon="9.6599228"><ele>13.0</ele><time>2026-04-19T10:02:28.315Z</time></trkpt><trkpt lat="39.9191397" lon="9.6598912"><ele>12.999999999999998</ele><time>2026-04-19T10:02:30.315Z</time></trkpt><trkpt lat="39.9192152" lon="9.6598523"><ele>13.0</ele><time>2026-04-19T10:02:32.315Z</time></trkpt><trkpt lat="39.9192833" lon="9.6598246"><ele>13.0</ele><time>2026-04-19T10:02:34.314Z</time></trkpt><trkpt lat="39.9193805" lon="9.6597892"><ele>13.0</ele><time>2026-04-19T10:02:38.315Z</time></trkpt><trkpt lat="39.9194339" lon="9.6597215"><ele>12.999999999999998</ele><time>2026-04-19T10:02:49.315Z</time></trkpt><trkpt lat="39.919504" lon="9.6596372"><ele>13.0</ele><time>2026-04-19T10:02:52.315Z</time></trkpt><trkpt lat="39.9195491" lon="9.6595775"><ele>13.166666666666666</ele><time>2026-04-19T10:02:54.315Z</time></trkpt><trkpt lat="39.9196116" lon="9.6595538"><ele>13.333333333333332</ele><time>2026-04-19T10:02:56.315Z</time></trkpt><trkpt lat="39.9196847" lon="9.6595789"><ele>13.5</ele><time>2026-04-19T10:02:58.315Z</time></trkpt><trkpt lat="39.9197594" lon="9.6596224"><ele>13.666666666666668</ele><time>2026-04-19T10:03:00.315Z</time></trkpt><trkpt lat="39.9198365" lon="9.6596668"><ele>13.833333333333334</ele><time>2026-04-19T10:03:02.315Z</time></trkpt><trkpt lat="39.9199093" lon="9.6597277"><ele>14.0</ele><time>2026-04-19T10:03:04.315Z</time></trkpt><trkpt lat="39.9199885" lon="9.6597739"><ele>13.666666666666668</ele><time>2026-04-19T10:03:06.315Z</time></trkpt><trkpt lat="39.92007" lon="9.6598199"><ele>13.333333333333334</ele><time>2026-04-19T10:03:08.315Z</time></trkpt><trkpt lat="39.9201514" lon="9.6598663"><ele>13.0</ele><time>2026-04-19T10:03:10.315Z</time></trkpt><trkpt lat="39.9202285" lon="9.6599204"><ele>12.666666666666668</ele><time>2026-04-19T10:03:12.315Z</time></trkpt><trkpt lat="39.9203075" lon="9.6599677"><ele>12.333333333333334</ele><time>2026-04-19T10:03:14.315Z</time></trkpt><trkpt lat="39.9203831" lon="9.6600201"><ele>12.0</ele><time>2026-04-19T10:03:16.315Z</time></trkpt><trkpt lat="39.9204608" lon="9.6600679"><ele>12.0</ele><time>2026-04-19T10:03:18.315Z</time></trkpt><trkpt lat="39.9205391" lon="9.660114"><ele>12.0</ele><time>2026-04-19T10:03:20.315Z</time></trkpt><trkpt lat="39.9206164" lon="9.6601609"><ele>12.0</ele><time>2026-04-19T10:03:22.315Z</time></trkpt><trkpt lat="39.9206948" lon="9.6602034"><ele>12.0</ele><time>2026-04-19T10:03:24.315Z</time></trkpt><trkpt lat="39.9207738" lon="9.6602153"><ele>12.0</ele><time>2026-04-19T10:03:26.315Z</time></trkpt><trkpt lat="39.920842" lon="9.6602577"><ele>12.0</ele><time>2026-04-19T10:03:28.315Z</time></trkpt><trkpt lat="39.9209061" lon="9.6602708"><ele>12.166666666666666</ele><time>2026-04-19T10:03:30.315Z</time></trkpt><trkpt lat="39.9209843" lon="9.6603275"><ele>12.333333333333332</ele><time>2026-04-19T10:03:33.315Z</time></trkpt><trkpt lat="39.9210485" lon="9.6603486"><ele>12.5</ele><time>2026-04-19T10:03:36.315Z</time></trkpt><trkpt lat="39.9211171" lon="9.6604093"><ele>12.666666666666666</ele><time>2026-04-19T10:03:39.315Z</time></trkpt><trkpt lat="39.9211932" lon="9.6604536"><ele>12.833333333333332</ele><time>2026-04-19T10:03:42.315Z</time></trkpt><trkpt lat="39.9212728" lon="9.6605044"><ele>13.0</ele><time>2026-04-19T10:03:45.315Z</time></trkpt><trkpt lat="39.921356" lon="9.6605606"><ele>13.0</ele><time>2026-04-19T10:03:48.315Z</time></trkpt><trkpt lat="39.9214452" lon="9.660611"><ele>13.0</ele><time>2026-04-19T10:03:51.315Z</time></trkpt><trkpt lat="39.9215378" lon="9.6606443"><ele>13.0</ele><time>2026-04-19T10:03:53.315Z</time></trkpt><trkpt lat="39.9216157" lon="9.6607303"><ele>13.0</ele><time>2026-04-19T10:03:55.315Z</time></trkpt><trkpt lat="39.9216143" lon="9.6608502"><ele>13.0</ele><time>2026-04-19T10:03:57.315Z</time></trkpt><trkpt lat="39.9215618" lon="9.6609316"><ele>12.999999999999998</ele><time>2026-04-19T10:03:59.315Z</time></trkpt><trkpt lat="39.9215172" lon="9.6610063"><ele>13.0</ele><time>2026-04-19T10:04:01.315Z</time></trkpt><trkpt lat="39.9214845" lon="9.6610943"><ele>13.0</ele><time>2026-04-19T10:04:03.314Z</time></trkpt><trkpt lat="39.9214999" lon="9.661201"><ele>13.0</ele><time>2026-04-19T10:04:05.315Z</time></trkpt><trkpt lat="39.9215571" lon="9.6612862"><ele>12.999999999999998</ele><time>2026-04-19T10:04:07.315Z</time></trkpt><trkpt lat="39.9216284" lon="9.6613787"><ele>13.0</ele><time>2026-04-19T10:04:09.315Z</time></trkpt><trkpt lat="39.9216955" lon="9.6614776"><ele>13.0</ele><time>2026-04-19T10:04:11.315Z</time></trkpt><trkpt lat="39.9217635" lon="9.661572"><ele>13.0</ele><time>2026-04-19T10:04:13.315Z</time></trkpt><trkpt lat="39.9218279" lon="9.6616643"><ele>13.0</ele><time>2026-04-19T10:04:15.315Z</time></trkpt><trkpt lat="39.9218934" lon="9.661753"><ele>13.0</ele><time>2026-04-19T10:04:17.315Z</time></trkpt><trkpt lat="39.9219568" lon="9.661847"><ele>13.0</ele><time>2026-04-19T10:04:19.315Z</time></trkpt><trkpt lat="39.9220091" lon="9.6619274"><ele>13.0</ele><time>2026-04-19T10:04:21.315Z</time></trkpt><trkpt lat="39.9220596" lon="9.6619921"><ele>13.0</ele><time>2026-04-19T10:04:24.315Z</time></trkpt><trkpt lat="39.9221173" lon="9.6620286"><ele>13.0</ele><time>2026-04-19T10:04:27.315Z</time></trkpt><trkpt lat="39.9221799" lon="9.6620844"><ele>13.0</ele><time>2026-04-19T10:04:32.315Z</time></trkpt><trkpt lat="39.9222437" lon="9.6621185"><ele>13.0</ele><time>2026-04-19T10:04:36.315Z</time></trkpt><trkpt lat="39.9223047" lon="9.662164"><ele>13.0</ele><time>2026-04-19T10:04:40.315Z</time></trkpt><trkpt lat="39.9223803" lon="9.6621709"><ele>13.0</ele><time>2026-04-19T10:04:44.315Z</time></trkpt><trkpt lat="39.9224394" lon="9.6620974"><ele>12.999999999999998</ele><time>2026-04-19T10:04:47.315Z</time></trkpt><trkpt lat="39.9224979" lon="9.6620256"><ele>13.0</ele><time>2026-04-19T10:04:50.315Z</time></trkpt><trkpt lat="39.9225564" lon="9.6619617"><ele>13.0</ele><time>2026-04-19T10:04:53.315Z</time></trkpt><trkpt lat="39.9226302" lon="9.6619897"><ele>13.0</ele><time>2026-04-19T10:04:55.402Z</time></trkpt><trkpt lat="39.9226902" lon="9.6618895"><ele>12.999999999999998</ele><time>2026-04-19T10:04:58.315Z</time></trkpt><trkpt lat="39.9226768" lon="9.6617958"><ele>13.0</ele><time>2026-04-19T10:04:59.315Z</time></trkpt><trkpt lat="39.9227281" lon="9.661711"><ele>13.166666666666666</ele><time>2026-04-19T10:05:02.315Z</time></trkpt><trkpt lat="39.9227794" lon="9.6616354"><ele>13.333333333333332</ele><time>2026-04-19T10:05:05.315Z</time></trkpt><trkpt lat="39.922835" lon="9.6615658"><ele>13.5</ele><time>2026-04-19T10:05:08.315Z</time></trkpt><trkpt lat="39.9229132" lon="9.6614944"><ele>13.666666666666668</ele><time>2026-04-19T10:05:11.315Z</time></trkpt><trkpt lat="39.9229785" lon="9.6614647"><ele>13.833333333333334</ele><time>2026-04-19T10:05:13.315Z</time></trkpt><trkpt lat="39.9230416" lon="9.6613896"><ele>14.0</ele><time>2026-04-19T10:05:16.315Z</time></trkpt><trkpt lat="39.9230909" lon="9.6613183"><ele>14.000000000000002</ele><time>2026-04-19T10:05:19.315Z</time></trkpt><trkpt lat="39.9231537" lon="9.6612456"><ele>14.0</ele><time>2026-04-19T10:05:22.314Z</time></trkpt><trkpt lat="39.9232107" lon="9.6612093"><ele>14.0</ele><time>2026-04-19T10:05:24.315Z</time></trkpt><trkpt lat="39.9232773" lon="9.6611963"><ele>14.0</ele><time>2026-04-19T10:05:26.315Z</time></trkpt><trkpt lat="39.9233689" lon="9.6612109"><ele>14.000000000000002</ele><time>2026-04-19T10:05:29.315Z</time></trkpt><trkpt lat="39.923448" lon="9.6612315"><ele>14.0</ele><time>2026-04-19T10:05:32.315Z</time></trkpt><trkpt lat="39.9235136" lon="9.6612437"><ele>14.000000000000002</ele><time>2026-04-19T10:05:35.315Z</time></trkpt><trkpt lat="39.9235773" lon="9.6612956"><ele>14.0</ele><time>2026-04-19T10:05:39.315Z</time></trkpt><trkpt lat="39.9236402" lon="9.6613405"><ele>14.0</ele><time>2026-04-19T10:05:42.315Z</time></trkpt><trkpt lat="39.9236284" lon="9.6614318"><ele>14.0</ele><time>2026-04-19T10:05:46.315Z</time></trkpt><trkpt lat="39.9235713" lon="9.6614999"><ele>14.000000000000002</ele><time>2026-04-19T10:05:50.315Z</time></trkpt><trkpt lat="39.9235349" lon="9.6615786"><ele>14.0</ele><time>2026-04-19T10:05:53.315Z</time></trkpt><trkpt lat="39.9234976" lon="9.6616816"><ele>14.000000000000002</ele><time>2026-04-19T10:05:56.315Z</time></trkpt><trkpt lat="39.9234542" lon="9.6617869"><ele>14.0</ele><time>2026-04-19T10:05:59.315Z</time></trkpt><trkpt lat="39.9234164" lon="9.6618812"><ele>14.0</ele><time>2026-04-19T10:06:02.315Z</time></trkpt><trkpt lat="39.9233843" lon="9.6619727"><ele>14.0</ele><time>2026-04-19T10:06:05.315Z</time></trkpt><trkpt lat="39.9233475" lon="9.6620772"><ele>14.000000000000002</ele><time>2026-04-19T10:06:08.315Z</time></trkpt><trkpt lat="39.9233093" lon="9.6621873"><ele>14.0</ele><time>2026-04-19T10:06:11.315Z</time></trkpt><trkpt lat="39.9232816" lon="9.6622632"><ele>14.000000000000002</ele><time>2026-04-19T10:06:13.315Z</time></trkpt><trkpt lat="39.9232421" lon="9.6623741"><ele>14.0</ele><time>2026-04-19T10:06:16.315Z</time></trkpt><trkpt lat="39.9232001" lon="9.6624775"><ele>14.0</ele><time>2026-04-19T10:06:19.315Z</time></trkpt><trkpt lat="39.9231669" lon="9.6625539"><ele>14.0</ele><time>2026-04-19T10:06:21.315Z</time></trkpt><trkpt lat="39.9231313" lon="9.6626338"><ele>14.000000000000002</ele><time>2026-04-19T10:06:23.315Z</time></trkpt><trkpt lat="39.9230997" lon="9.6627184"><ele>14.0</ele><time>2026-04-19T10:06:25.315Z</time></trkpt><trkpt lat="39.9230724" lon="9.6628082"><ele>13.833333333333334</ele><time>2026-04-19T10:06:27.315Z</time></trkpt><trkpt lat="39.9230406" lon="9.662903"><ele>13.666666666666668</ele><time>2026-04-19T10:06:29.315Z</time></trkpt><trkpt lat="39.9230075" lon="9.6629998"><ele>13.5</ele><time>2026-04-19T10:06:31.315Z</time></trkpt><trkpt lat="39.9229758" lon="9.6630957"><ele>13.333333333333332</ele><time>2026-04-19T10:06:33.315Z</time></trkpt><trkpt lat="39.9229451" lon="9.6631837"><ele>13.166666666666666</ele><time>2026-04-19T10:06:35.315Z</time></trkpt><trkpt lat="39.9229049" lon="9.6632554"><ele>13.0</ele><time>2026-04-19T10:06:37.315Z</time></trkpt><trkpt lat="39.9228371" lon="9.6633377"><ele>12.999999999999998</ele><time>2026-04-19T10:06:40.315Z</time></trkpt><trkpt lat="39.9227999" lon="9.6634103"><ele>13.0</ele><time>2026-04-19T10:06:42.315Z</time></trkpt><trkpt lat="39.9227659" lon="9.6634927"><ele>13.0</ele><time>2026-04-19T10:06:44.315Z</time></trkpt><trkpt lat="39.9227249" lon="9.6636309"><ele>13.0</ele><time>2026-04-19T10:06:47.315Z</time></trkpt><trkpt lat="39.9227182" lon="9.6637292"><ele>12.999999999999998</ele><time>2026-04-19T10:06:49.315Z</time></trkpt><trkpt lat="39.9227019" lon="9.6638132"><ele>13.0</ele><time>2026-04-19T10:06:51.315Z</time></trkpt><trkpt lat="39.9226736" lon="9.6638926"><ele>12.999999999999998</ele><time>2026-04-19T10:06:53.315Z</time></trkpt><trkpt lat="39.9226374" lon="9.6640021"><ele>13.0</ele><time>2026-04-19T10:06:56.315Z</time></trkpt><trkpt lat="39.9226007" lon="9.6641032"><ele>13.0</ele><time>2026-04-19T10:06:59.315Z</time></trkpt><trkpt lat="39.9225703" lon="9.6641861"><ele>13.0</ele><time>2026-04-19T10:07:01.315Z</time></trkpt><trkpt lat="39.9225382" lon="9.664267"><ele>12.999999999999998</ele><time>2026-04-19T10:07:03.315Z</time></trkpt><trkpt lat="39.9225068" lon="9.6643745"><ele>13.0</ele><time>2026-04-19T10:07:06.315Z</time></trkpt><trkpt lat="39.9225472" lon="9.6644479"><ele>12.857142857142856</ele><time>2026-04-19T10:07:09.315Z</time></trkpt><trkpt lat="39.9226151" lon="9.6644667"><ele>12.714285714285715</ele><time>2026-04-19T10:07:47.315Z</time></trkpt><trkpt lat="39.9226826" lon="9.6644926"><ele>12.571428571428571</ele><time>2026-04-19T10:07:50.315Z</time></trkpt><trkpt lat="39.9227479" lon="9.6645111"><ele>12.428571428571427</ele><time>2026-04-19T10:07:53.315Z</time></trkpt><trkpt lat="39.9228189" lon="9.6645302"><ele>12.285714285714285</ele><time>2026-04-19T10:07:56.315Z</time></trkpt><trkpt lat="39.9228963" lon="9.6645577"><ele>12.142857142857142</ele><time>2026-04-19T10:07:58.315Z</time></trkpt><trkpt lat="39.9229765" lon="9.6646021"><ele>12.0</ele><time>2026-04-19T10:08:01.315Z</time></trkpt><trkpt lat="39.9230432" lon="9.6646394"><ele>11.999999999999998</ele><time>2026-04-19T10:08:04.315Z</time></trkpt><trkpt lat="39.9231194" lon="9.6646136"><ele>12.0</ele><time>2026-04-19T10:08:08.315Z</time></trkpt><trkpt lat="39.9231756" lon="9.6645592"><ele>12.0</ele><time>2026-04-19T10:08:11.315Z</time></trkpt><trkpt lat="39.9232389" lon="9.664512"><ele>12.0</ele><time>2026-04-19T10:08:15.315Z</time></trkpt><trkpt lat="39.9232676" lon="9.6644368"><ele>12.0</ele><time>2026-04-19T10:08:18.315Z</time></trkpt><trkpt lat="39.923297" lon="9.6643631"><ele>11.999999999999998</ele><time>2026-04-19T10:09:34.315Z</time></trkpt><trkpt lat="39.9233569" lon="9.6644076"><ele>12.0</ele><time>2026-04-19T10:09:40.369Z</time></trkpt><trkpt lat="39.9234172" lon="9.6644488"><ele>11.999999999999998</ele><time>2026-04-19T10:09:47.28Z</time></trkpt><trkpt lat="39.9234701" lon="9.6643851"><ele>12.0</ele><time>2026-04-19T10:10:40.315Z</time></trkpt><trkpt lat="39.9234176" lon="9.6644535"><ele>12.0</ele><time>2026-04-19T10:10:46.408Z</time></trkpt><trkpt lat="39.9233522" lon="9.6644713"><ele>12.0</ele><time>2026-04-19T10:10:52.315Z</time></trkpt><trkpt lat="39.9232898" lon="9.6644516"><ele>12.0</ele><time>2026-04-19T10:10:58.405Z</time></trkpt><trkpt lat="39.9233509" lon="9.6644223"><ele>11.999999999999998</ele><time>2026-04-19T10:11:57.315Z</time></trkpt><trkpt lat="39.9234121" lon="9.6644548"><ele>12.0</ele><time>2026-04-19T10:12:03.724Z</time></trkpt><trkpt lat="39.9234687" lon="9.6644168"><ele>13.0</ele><time>2026-04-19T10:12:19.315Z</time></trkpt><trkpt lat="39.9234687" lon="9.6644168"><ele>13.0</ele><time>2026-04-19T10:12:19.315Z</time></trkpt><trkpt lat="39.9234687" lon="9.6644168"><ele>13.0</ele><time>2026-04-19T10:12:19.315Z</time></trkpt></trkseg></trk></gpx>